Site Date LOGGERID PROGID AIRTEMP_MEAN_150_0_03 RELHUM_MEAN_150_0_03 DEWPT_MEAN_150_0_03 BATTERY_AVG AIRTEMP_MAX_150_0_03 RELHUM_MAX_150_0_03 DEWPT_MAX_150_0_03 AIRTEMP_MIN_150_0_03 RELHUM_MIN_150_0_03 DEWPT_MIN_150_0_03 FOURLO FOURHI SATVP_MEAN_150_0_03 VAP_MEAN_150_0_03 VPD_MEAN_150_0_03
CS2MET_113 2017-10-01 00:00:00 113 17441.0 9.370 100.000 9.380 12.340 9.410 100.000 9.420 9.330 100.000 9.330 -8.9400 24.9400 11.770 11.778 0.000
CS2MET_113 2017-09-30 23:55:00 113 17441.0 9.390 100.000 9.390 12.340 9.430 100.000 9.440 9.360 100.000 9.370 -8.6500 25.2500 11.786 11.786 0.000
CS2MET_113 2017-09-30 23:50:00 113 17441.0 9.400 100.000 9.410 12.340 9.450 100.000 9.450 9.380 100.000 9.390 -8.6500 25.2500 11.794 11.802 0.000
CS2MET_113 2017-09-30 23:45:00 113 17441.0 9.440 100.000 9.440 12.340 9.460 100.000 9.470 9.390 100.000 9.400 -8.6500 25.2500 11.826 11.826 0.000
CS2MET_113 2017-09-30 23:40:00 113 17441.0 9.420 100.000 9.430 12.340 9.460 100.000 9.470 9.380 100.000 9.390 -8.6500 25.2500 11.810 11.818 0.000
CS2MET_113 2017-09-30 23:35:00 113 17441.0 9.420 100.000 9.430 12.340 9.450 100.000 9.450 9.390 100.000 9.400 -8.6500 25.2500 11.810 11.818 0.000
CS2MET_113 2017-09-30 23:30:00 113 17441.0 9.420 100.000 9.430 12.340 9.460 100.000 9.470 9.390 100.000 9.400 -8.6500 25.2500 11.810 11.818 0.000
CS2MET_113 2017-09-30 23:25:00 113 17441.0 9.410 100.000 9.420 12.340 9.450 100.000 9.450 9.380 100.000 9.390 -8.6500 25.2500 11.802 11.810 0.000
CS2MET_113 2017-09-30 23:20:00 113 17441.0 9.390 100.000 9.400 12.340 9.410 100.000 9.420 9.340 100.000 9.350 -8.6500 25.2500 11.786 11.794 0.000
CS2MET_113 2017-09-30 23:15:00 113 17441.0 9.390 100.000 9.390 12.340 9.390 100.000 9.400 9.340 100.000 9.350 -8.6500 25.2500 11.786 11.786 0.000
CS2MET_113 2017-09-30 23:10:00 113 17441.0 9.400 100.000 9.400 12.340 9.430 100.000 9.440 9.360 100.000 9.370 -8.6500 25.2500 11.794 11.794 0.000
CS2MET_113 2017-09-30 23:05:00 113 17441.0 9.390 100.000 9.400 12.340 9.430 100.000 9.440 9.360 100.000 9.370 -8.6500 25.2500 11.786 11.794 0.000
CS2MET_113 2017-09-30 23:00:00 113 17441.0 9.390 100.000 9.400 12.340 9.410 100.000 9.420 9.360 100.000 9.370 -8.6500 25.2500 11.786 11.794 0.000
CS2MET_113 2017-09-30 22:55:00 113 17441.0 9.390 100.000 9.390 12.340 9.430 100.000 9.440 9.340 100.000 9.350 -8.4300 25.6300 11.786 11.786 0.000
CS2MET_113 2017-09-30 22:50:00 113 17441.0 9.390 100.000 9.400 12.340 9.450 100.000 9.450 9.340 100.000 9.350 -8.4300 25.6300 11.786 11.794 0.000
CS2MET_113 2017-09-30 22:45:00 113 17441.0 9.370 100.000 9.380 12.340 9.430 100.000 9.440 9.330 100.000 9.330 -8.4300 25.6300 11.770 11.778 0.000
CS2MET_113 2017-09-30 22:40:00 113 17441.0 9.410 100.000 9.420 12.340 9.460 100.000 9.470 9.380 100.000 9.390 -8.4300 25.6300 11.802 11.810 0.000
CS2MET_113 2017-09-30 22:35:00 113 17441.0 9.400 100.000 9.400 12.340 9.430 100.000 9.440 9.380 100.000 9.390 -8.4300 25.6300 11.794 11.794 0.000
CS2MET_113 2017-09-30 22:30:00 113 17441.0 9.380 100.000 9.390 12.340 9.410 100.000 9.420 9.330 100.000 9.330 -8.4300 25.6300 11.778 11.786 0.000
CS2MET_113 2017-09-30 22:25:00 113 17441.0 9.410 100.000 9.420 12.340 9.460 100.000 9.470 9.380 100.000 9.390 -8.4300 25.6300 11.802 11.810 0.000
CS2MET_113 2017-09-30 22:20:00 113 17441.0 9.420 100.000 9.430 12.340 9.460 100.000 9.470 9.380 100.000 9.390 -8.4300 25.6300 11.810 11.818 0.000
CS2MET_113 2017-09-30 22:15:00 113 17441.0 9.430 100.000 9.440 12.340 9.460 100.000 9.470 9.380 100.000 9.390 -8.4300 25.6300 11.818 11.826 0.000
CS2MET_113 2017-09-30 22:10:00 113 17441.0 9.420 100.000 9.430 12.340 9.460 100.000 9.470 9.390 100.000 9.400 -8.4300 25.6300 11.810 11.818 0.000
CS2MET_113 2017-09-30 22:05:00 113 17441.0 9.410 100.000 9.420 12.340 9.450 100.000 9.450 9.380 100.000 9.390 -8.4300 25.6300 11.802 11.810 0.000
CS2MET_113 2017-09-30 22:00:00 113 17441.0 9.470 100.000 9.470 12.340 9.530 100.000 9.540 9.390 100.000 9.400 -8.4300 25.6300 11.849 11.849 0.000
CS2MET_113 2017-09-30 21:55:00 113 17441.0 9.450 100.000 9.460 12.340 9.510 100.000 9.520 9.360 100.000 9.370 -8.2700 26.2700 11.833 11.841 0.000
CS2MET_113 2017-09-30 21:50:00 113 17441.0 9.450 100.000 9.460 12.340 9.460 100.000 9.470 9.430 100.000 9.440 -8.2700 26.2700 11.833 11.841 0.000
CS2MET_113 2017-09-30 21:45:00 113 17441.0 9.460 100.000 9.470 12.340 9.500 100.000 9.500 9.430 100.000 9.440 -8.2700 26.2700 11.841 11.849 0.000
CS2MET_113 2017-09-30 21:40:00 113 17441.0 9.470 100.000 9.480 12.340 9.510 100.000 9.520 9.430 100.000 9.440 -8.2700 26.2700 11.849 11.857 0.000
CS2MET_113 2017-09-30 21:35:00 113 17441.0 9.440 100.000 9.450 12.340 9.500 100.000 9.500 9.390 100.000 9.400 -8.2700 26.2700 11.826 11.833 0.000
CS2MET_113 2017-09-30 21:30:00 113 17441.0 9.480 100.000 9.480 12.340 9.510 100.000 9.520 9.450 100.000 9.450 -8.2700 26.2700 11.857 11.857 0.000
CS2MET_113 2017-09-30 21:25:00 113 17441.0 9.470 100.000 9.480 12.340 9.530 100.000 9.540 9.410 100.000 9.420 -8.2700 26.2700 11.849 11.857 0.000
CS2MET_113 2017-09-30 21:20:00 113 17441.0 9.470 100.000 9.480 12.340 9.550 100.000 9.560 9.410 100.000 9.420 -8.2700 26.2700 11.849 11.857 0.000
CS2MET_113 2017-09-30 21:15:00 113 17441.0 9.470 100.000 9.480 12.340 9.530 100.000 9.540 9.390 100.000 9.400 -8.2700 26.2700 11.849 11.857 0.000
CS2MET_113 2017-09-30 21:10:00 113 17441.0 9.530 100.000 9.540 12.340 9.570 100.000 9.570 9.510 100.000 9.520 -8.2700 26.2700 11.897 11.905 -0.000
CS2MET_113 2017-09-30 21:05:00 113 17441.0 9.530 100.000 9.540 12.340 9.570 100.000 9.570 9.480 100.000 9.490 -8.2700 26.2700 11.897 11.905 -0.000
CS2MET_113 2017-09-30 21:00:00 113 17441.0 9.510 100.000 9.520 12.340 9.550 100.000 9.560 9.480 100.000 9.490 -8.2700 26.2700 11.881 11.889 -0.000
CS2MET_113 2017-09-30 20:55:00 113 17441.0 9.510 100.000 9.520 12.340 9.570 100.000 9.570 9.460 100.000 9.470 -8.1000 27.1000 11.881 11.889 -0.000
CS2MET_113 2017-09-30 20:50:00 113 17441.0 9.520 100.000 9.530 12.340 9.570 100.000 9.570 9.480 100.000 9.490 -8.1000 27.1000 11.889 11.897 0.000
CS2MET_113 2017-09-30 20:45:00 113 17441.0 9.530 100.000 9.540 12.340 9.600 100.000 9.610 9.460 100.000 9.470 -8.1000 27.1000 11.897 11.905 -0.000
CS2MET_113 2017-09-30 20:40:00 113 17441.0 9.600 100.000 9.610 12.340 9.670 100.000 9.680 9.550 100.000 9.560 -8.1000 27.1000 11.953 11.962 0.000
CS2MET_113 2017-09-30 20:35:00 113 17441.0 9.600 100.000 9.610 12.340 9.650 100.000 9.660 9.550 100.000 9.550 -8.1000 27.1000 11.953 11.962 0.000
CS2MET_113 2017-09-30 20:30:00 113 17441.0 9.600 100.000 9.610 12.340 9.630 100.000 9.640 9.530 100.000 9.540 -8.1000 27.1000 11.953 11.962 0.000
CS2MET_113 2017-09-30 20:25:00 113 17441.0 9.570 100.000 9.580 12.340 9.600 100.000 9.610 9.530 100.000 9.540 -8.1000 27.1000 11.929 11.937 0.000
CS2MET_113 2017-09-30 20:20:00 113 17441.0 9.560 100.000 9.560 12.340 9.600 100.000 9.610 9.530 99.900 9.530 -8.1000 27.1000 11.921 11.921 -0.000
CS2MET_113 2017-09-30 20:15:00 113 17441.0 9.530 99.900 9.520 12.340 9.600 99.900 9.590 9.460 99.900 9.450 -8.1000 27.1000 11.897 11.889 0.012
CS2MET_113 2017-09-30 20:10:00 113 17441.0 9.540 99.900 9.530 12.340 9.580 100.000 9.580 9.480 99.900 9.470 -8.1000 27.1000 11.905 11.897 0.012
CS2MET_113 2017-09-30 20:05:00 113 17441.0 9.560 99.900 9.560 12.340 9.600 100.000 9.600 9.530 99.900 9.520 -8.1000 27.1000 11.921 11.921 0.012
CS2MET_113 2017-09-30 20:00:00 113 17441.0 9.590 100.000 9.600 12.340 9.630 100.000 9.640 9.550 100.000 9.560 -8.1000 27.1000 11.945 11.953 0.000
CS2MET_113 2017-09-30 19:55:00 113 17441.0 9.630 100.000 9.640 12.340 9.670 100.000 9.680 9.580 100.000 9.590 -8.1500 28.1500 11.978 11.986 0.000
CS2MET_113 2017-09-30 19:50:00 113 17441.0 9.650 100.000 9.660 12.340 9.680 100.000 9.690 9.620 99.900 9.610 -8.1500 28.1500 11.994 12.002 0.000
CS2MET_113 2017-09-30 19:45:00 113 17441.0 9.600 99.900 9.590 12.340 9.630 99.900 9.630 9.570 99.800 9.560 -8.1500 28.1500 11.953 11.945 0.012
CS2MET_113 2017-09-30 19:40:00 113 17441.0 9.550 99.700 9.510 12.340 9.600 99.800 9.560 9.510 99.600 9.470 -8.1500 28.1500 11.913 11.881 0.036
CS2MET_113 2017-09-30 19:35:00 113 17441.0 9.520 99.600 9.480 12.340 9.550 99.700 9.510 9.500 99.600 9.440 -8.1500 28.1500 11.889 11.857 0.048
CS2MET_113 2017-09-30 19:30:00 113 17441.0 9.510 99.600 9.460 12.340 9.550 99.600 9.480 9.460 99.500 9.390 -8.1500 28.1500 11.881 11.841 0.048
CS2MET_113 2017-09-30 19:25:00 113 17441.0 9.480 99.400 9.400 12.340 9.530 99.500 9.460 9.460 99.300 9.370 -8.1500 28.1500 11.857 11.794 0.071
CS2MET_113 2017-09-30 19:20:00 113 17441.0 9.520 99.500 9.450 12.340 9.570 99.600 9.500 9.500 99.400 9.420 -8.1500 28.1500 11.889 11.833 0.059
CS2MET_113 2017-09-30 19:15:00 113 17441.0 9.570 99.600 9.510 12.340 9.670 99.700 9.630 9.510 99.500 9.440 -8.1500 28.1500 11.929 11.881 0.048
CS2MET_113 2017-09-30 19:10:00 113 17441.0 9.640 99.600 9.590 12.340 9.670 99.700 9.620 9.600 99.500 9.550 -8.1500 28.1500 11.986 11.945 0.048
CS2MET_113 2017-09-30 19:05:00 113 17441.0 9.640 99.700 9.600 12.340 9.680 99.800 9.660 9.580 99.600 9.530 -8.1500 28.1500 11.986 11.953 0.036
CS2MET_113 2017-09-30 19:00:00 113 17441.0 9.700 99.800 9.670 12.340 9.750 99.800 9.730 9.670 99.700 9.640 -8.1500 28.1500 12.034 12.010 0.024
CS2MET_113 2017-09-30 18:55:00 113 17441.0 9.720 99.700 9.680 12.340 9.750 99.800 9.720 9.670 99.600 9.620 -8.4700 29.8700 12.050 12.018 0.036
CS2MET_113 2017-09-30 18:50:00 113 17441.0 9.720 99.600 9.670 12.350 9.750 99.600 9.700 9.680 99.500 9.630 -8.4700 29.8700 12.050 12.010 0.048
CS2MET_113 2017-09-30 18:45:00 113 17441.0 9.730 99.500 9.660 12.350 9.790 99.600 9.720 9.670 99.400 9.600 -8.4700 29.8700 12.058 12.002 0.060
CS2MET_113 2017-09-30 18:40:00 113 17441.0 9.750 99.500 9.680 12.350 9.790 99.500 9.720 9.680 99.400 9.610 -8.4700 29.8700 12.075 12.018 0.060
CS2MET_113 2017-09-30 18:35:00 113 17441.0 9.770 99.600 9.730 12.350 9.800 99.700 9.760 9.740 99.500 9.680 -8.4700 29.8700 12.091 12.058 0.048
CS2MET_113 2017-09-30 18:30:00 113 17441.0 9.800 99.700 9.770 12.350 9.820 99.800 9.800 9.750 99.700 9.720 -8.4700 29.8700 12.115 12.091 0.036
CS2MET_113 2017-09-30 18:25:00 113 17441.0 9.820 99.700 9.780 12.350 9.870 99.700 9.830 9.800 99.600 9.750 -8.4700 29.8700 12.131 12.099 0.036
CS2MET_113 2017-09-30 18:20:00 113 17441.0 9.830 99.600 9.770 12.350 9.890 99.600 9.840 9.790 99.500 9.720 -8.4700 29.8700 12.140 12.091 0.049
CS2MET_113 2017-09-30 18:15:00 113 17441.0 9.860 99.500 9.790 12.350 9.910 99.500 9.830 9.820 99.400 9.750 -8.4700 29.8700 12.164 12.107 0.061
CS2MET_113 2017-09-30 18:10:00 113 17441.0 9.880 99.300 9.790 12.350 9.940 99.500 9.870 9.830 99.100 9.710 -8.4700 29.8700 12.180 12.107 0.085
CS2MET_113 2017-09-30 18:05:00 113 17441.0 9.870 99.200 9.760 12.350 9.940 99.300 9.840 9.820 99.100 9.700 -8.4700 29.8700 12.172 12.083 0.097
CS2MET_113 2017-09-30 18:00:00 113 17441.0 9.920 99.100 9.800 12.350 9.970 99.300 9.870 9.850 98.900 9.700 -8.4700 29.8700 12.213 12.115 0.110
CS2MET_113 2017-09-30 17:55:00 113 17441.0 9.970 98.900 9.810 12.350 10.020 99.000 9.850 9.880 98.800 9.730 -9.8200 34.0200 12.254 12.123 0.135
CS2MET_113 2017-09-30 17:50:00 113 17441.0 10.010 98.700 9.820 12.350 10.070 98.800 9.900 9.970 98.600 9.770 -9.8200 34.0200 12.287 12.131 0.160
CS2MET_113 2017-09-30 17:45:00 113 17441.0 10.080 98.800 9.900 12.350 10.150 98.900 9.990 10.020 98.600 9.830 -9.8200 34.0200 12.345 12.197 0.148
CS2MET_113 2017-09-30 17:40:00 113 17441.0 10.180 98.900 10.030 12.350 10.250 99.000 10.110 10.100 98.900 9.950 -9.8200 34.0200 12.428 12.303 0.137
CS2MET_113 2017-09-30 17:35:00 113 17441.0 10.200 98.400 9.970 12.350 10.270 98.900 10.090 10.110 97.800 9.800 -9.8200 34.0200 12.444 12.254 0.199
CS2MET_113 2017-09-30 17:30:00 113 17441.0 10.220 97.300 9.820 12.340 10.330 97.700 9.930 10.160 97.000 9.760 -9.8200 34.0200 12.461 12.131 0.336
CS2MET_113 2017-09-30 17:25:00 113 17441.0 10.410 96.700 9.910 12.340 10.470 97.100 9.950 10.320 96.300 9.870 -9.8200 34.0200 12.620 12.205 0.416
CS2MET_113 2017-09-30 17:20:00 113 17441.0 10.530 95.300 9.830 12.340 10.740 96.400 9.930 10.400 94.200 9.720 -9.8200 34.0200 12.722 12.140 0.598
CS2MET_113 2017-09-30 17:15:00 113 17441.0 11.110 94.600 10.280 12.340 11.370 95.600 10.650 10.800 93.200 9.900 -9.8200 34.0200 13.222 12.511 0.714
CS2MET_113 2017-09-30 17:10:00 113 17441.0 11.580 93.600 10.590 12.340 11.780 95.500 11.090 11.390 90.700 9.970 -9.8200 34.0200 13.641 12.773 0.873
CS2MET_113 2017-09-30 17:05:00 113 17441.0 11.880 94.700 11.070 12.350 11.950 95.400 11.110 11.770 94.100 11.020 -9.8200 34.0200 13.914 13.187 0.737
CS2MET_113 2017-09-30 17:00:00 113 17441.0 11.930 93.100 10.850 12.340 11.970 94.200 11.060 11.870 91.700 10.650 -9.8200 34.0200 13.960 12.996 0.963
CS2MET_113 2017-09-30 16:55:00 113 17441.0 11.970 93.300 10.930 12.340 12.040 94.600 11.180 11.920 91.700 10.620 -11.4400 39.2400 13.997 13.065 0.938
CS2MET_113 2017-09-30 16:50:00 113 17441.0 11.980 92.900 10.870 12.340 12.020 94.200 11.110 11.950 91.900 10.720 -11.4400 39.2400 14.006 13.013 0.994
CS2MET_113 2017-09-30 16:45:00 113 17441.0 11.970 93.100 10.900 12.340 12.040 94.000 11.080 11.940 91.700 10.640 -11.4400 39.2400 13.997 13.039 0.966
CS2MET_113 2017-09-30 16:40:00 113 17441.0 11.980 92.900 10.880 12.340 12.040 93.700 11.060 11.940 91.100 10.560 -11.4400 39.2400 14.006 13.022 0.994
CS2MET_113 2017-09-30 16:35:00 113 17441.0 12.000 92.900 10.900 12.340 12.040 93.700 11.040 11.950 92.400 10.760 -11.4400 39.2400 14.025 13.039 0.996
CS2MET_113 2017-09-30 16:30:00 113 17441.0 12.040 94.100 11.130 12.340 12.070 94.800 11.250 12.020 92.700 10.890 -11.4400 39.2400 14.062 13.240 0.830
CS2MET_113 2017-09-30 16:25:00 113 17441.0 12.030 92.100 10.790 12.340 12.060 93.200 10.990 11.970 89.100 10.230 -11.4400 39.2400 14.052 12.944 1.110
CS2MET_113 2017-09-30 16:20:00 113 17441.0 12.070 92.500 10.890 12.340 12.110 93.200 11.030 12.020 91.500 10.690 -11.4400 39.2400 14.089 13.030 1.057
CS2MET_113 2017-09-30 16:15:00 113 17441.0 12.120 92.900 11.020 12.340 12.210 94.800 11.410 12.050 92.300 10.860 -11.4400 39.2400 14.136 13.144 1.004
CS2MET_113 2017-09-30 16:10:00 113 17441.0 12.200 94.000 11.270 12.340 12.230 94.700 11.400 12.170 93.100 11.130 -11.4400 39.2400 14.211 13.364 0.853
CS2MET_113 2017-09-30 16:05:00 113 17441.0 12.150 93.200 11.100 12.340 12.210 94.800 11.380 12.090 92.200 10.890 -11.4400 39.2400 14.164 13.214 0.963
CS2MET_113 2017-09-30 16:00:00 113 17441.0 12.120 93.700 11.150 12.340 12.160 94.400 11.290 12.040 93.400 11.020 -11.4400 39.2400 14.136 13.258 0.891
CS2MET_113 2017-09-30 15:55:00 113 17441.0 12.130 94.200 11.230 12.340 12.170 95.000 11.400 12.110 93.500 11.110 -12.5400 44.1400 14.145 13.328 0.820
CS2MET_113 2017-09-30 15:50:00 113 17441.0 12.080 94.000 11.160 12.340 12.110 94.300 11.230 12.040 93.600 11.070 -12.5400 44.1400 14.099 13.266 0.846
CS2MET_113 2017-09-30 15:45:00 113 17441.0 12.020 94.200 11.130 12.340 12.050 94.600 11.210 11.970 93.700 11.000 -12.5400 44.1400 14.043 13.240 0.814
CS2MET_113 2017-09-30 15:40:00 113 17441.0 12.000 93.700 11.020 12.340 12.050 94.300 11.160 11.970 92.700 10.840 -12.5400 44.1400 14.025 13.144 0.884
CS2MET_113 2017-09-30 15:35:00 113 17441.0 11.990 93.800 11.040 12.340 12.040 94.500 11.150 11.970 93.000 10.890 -12.5400 44.1400 14.015 13.161 0.869
CS2MET_113 2017-09-30 15:30:00 113 17441.0 11.970 94.100 11.070 12.340 12.040 95.100 11.280 11.920 91.900 10.670 -12.5400 44.1400 13.997 13.187 0.826
CS2MET_113 2017-09-30 15:25:00 113 17441.0 11.970 93.000 10.890 12.340 12.020 93.700 11.000 11.940 92.500 10.780 -12.5400 44.1400 13.997 13.030 0.980
CS2MET_113 2017-09-30 15:20:00 113 17441.0 11.950 93.500 10.940 12.340 11.990 94.500 11.130 11.900 92.100 10.720 -12.5400 44.1400 13.978 13.074 0.909
CS2MET_113 2017-09-30 15:15:00 113 17441.0 11.930 95.100 11.180 12.340 11.970 95.700 11.320 11.850 94.200 10.960 -12.5400 44.1400 13.960 13.284 0.684
CS2MET_113 2017-09-30 15:10:00 113 17441.0 11.890 93.400 10.860 12.340 11.950 93.900 10.970 11.830 92.700 10.690 -12.5400 44.1400 13.923 13.004 0.919
CS2MET_113 2017-09-30 15:05:00 113 17441.0 12.010 92.900 10.900 12.340 12.110 94.100 11.190 11.950 91.900 10.680 -12.5400 44.1400 14.034 13.039 0.996
CS2MET_113 2017-09-30 15:00:00 113 17441.0 12.030 93.900 11.090 12.340 12.110 94.900 11.310 11.950 93.000 10.870 -12.5400 44.1400 14.052 13.205 0.857
CS2MET_113 2017-09-30 14:55:00 113 17441.0 12.020 92.700 10.890 12.340 12.090 93.800 11.080 11.970 91.500 10.630 -12.6400 45.0000 14.043 13.030 1.025
CS2MET_113 2017-09-30 14:50:00 113 17441.0 12.060 90.900 10.630 12.340 12.120 93.200 11.070 11.990 89.300 10.300 -12.6400 45.0000 14.080 12.807 1.281
CS2MET_113 2017-09-30 14:45:00 113 17441.0 12.140 92.600 10.990 12.340 12.230 93.400 11.160 12.070 91.400 10.740 -12.6400 45.0000 14.154 13.117 1.047
CS2MET_113 2017-09-30 14:40:00 113 17441.0 12.210 92.800 11.090 12.340 12.280 94.000 11.350 12.170 92.200 10.990 -12.6400 45.0000 14.220 13.205 1.024
CS2MET_113 2017-09-30 14:35:00 113 17441.0 12.280 92.400 11.090 12.340 12.340 93.800 11.330 12.230 90.300 10.690 -12.6400 45.0000 14.286 13.205 1.086
CS2MET_113 2017-09-30 14:30:00 113 17441.0 12.250 93.300 11.200 12.340 12.330 94.300 11.430 12.180 92.000 10.950 -12.6400 45.0000 14.257 13.302 0.955
CS2MET_113 2017-09-30 14:25:00 113 17441.0 12.130 86.200 9.890 12.340 12.240 93.400 10.920 11.760 77.100 8.140 -12.6400 45.0000 14.145 12.189 1.952
CS2MET_113 2017-09-30 14:20:00 113 17441.0 11.960 93.700 10.990 12.340 12.020 95.300 11.300 11.830 91.400 10.600 -12.6400 45.0000 13.988 13.117 0.881
CS2MET_113 2017-09-30 14:15:00 113 17441.0 11.850 92.600 10.700 12.340 12.000 93.800 11.000 11.760 88.300 9.900 -12.6400 45.0000 13.886 12.867 1.028
CS2MET_113 2017-09-30 14:10:00 113 17441.0 11.810 94.300 10.930 12.340 11.850 95.300 11.140 11.750 93.200 10.710 -12.6400 45.0000 13.850 13.065 0.789
CS2MET_113 2017-09-30 14:05:00 113 17441.0 11.740 92.900 10.640 12.340 11.800 93.600 10.770 11.680 91.600 10.400 -12.6400 45.0000 13.786 12.815 0.979
CS2MET_113 2017-09-30 14:00:00 113 17441.0 11.870 93.800 10.910 12.340 11.950 94.300 11.080 11.760 93.100 10.750 -12.6400 45.0000 13.905 13.048 0.862
CS2MET_113 2017-09-30 13:55:00 113 17441.0 12.110 93.500 11.110 12.340 12.240 95.500 11.550 11.970 91.800 10.690 -12.1200 45.0000 14.127 13.222 0.918
CS2MET_113 2017-09-30 13:50:00 113 17441.0 12.250 93.300 11.210 12.340 12.380 95.200 11.490 12.140 91.700 10.880 -12.1200 45.0000 14.257 13.310 0.955
CS2MET_113 2017-09-30 13:45:00 113 17441.0 12.330 91.100 10.920 12.340 12.380 93.300 11.320 12.280 88.100 10.390 -12.1200 45.0000 14.333 13.056 1.276
CS2MET_113 2017-09-30 13:40:00 113 17441.0 12.370 90.600 10.880 12.340 12.490 93.300 11.450 12.250 88.000 10.390 -12.1200 45.0000 14.370 13.022 1.351
CS2MET_113 2017-09-30 13:35:00 113 17441.0 12.500 88.100 10.580 12.340 12.660 91.500 11.120 12.400 79.610 9.090 -12.1200 45.0000 14.494 12.764 1.725
CS2MET_113 2017-09-30 13:30:00 113 17441.0 12.530 88.200 10.640 12.340 12.590 91.100 11.140 12.450 84.900 10.050 -12.1200 45.0000 14.522 12.815 1.714
CS2MET_113 2017-09-30 13:25:00 113 17441.0 12.610 88.500 10.770 12.340 12.730 89.700 11.090 12.520 87.300 10.520 -12.1200 45.0000 14.599 12.927 1.679
CS2MET_113 2017-09-30 13:20:00 113 17441.0 12.670 88.300 10.800 12.340 12.750 90.300 11.170 12.590 86.900 10.480 -12.1200 45.0000 14.656 12.953 1.715
CS2MET_113 2017-09-30 13:15:00 113 17441.0 12.780 86.500 10.590 12.340 12.840 90.300 11.210 12.730 81.600 9.740 -12.1200 45.0000 14.762 12.773 1.993
CS2MET_113 2017-09-30 13:10:00 113 17441.0 12.820 81.800 9.790 12.340 12.910 84.700 10.300 12.780 76.070 8.740 -12.1200 45.0000 14.801 12.107 2.694
CS2MET_113 2017-09-30 13:05:00 113 17441.0 12.710 79.800 9.290 12.340 12.840 88.300 10.850 12.550 71.390 7.720 -12.1200 45.0000 14.695 11.707 2.968
CS2MET_113 2017-09-30 13:00:00 113 17441.0 12.680 81.800 9.660 12.340 12.750 85.200 10.280 12.630 79.380 9.240 -12.1200 45.0000 14.666 12.002 2.669
CS2MET_113 2017-09-30 12:55:00 113 17441.0 12.680 80.800 9.470 12.340 12.790 84.000 10.060 12.580 78.010 8.980 -11.3500 43.5500 14.666 11.849 2.816
CS2MET_113 2017-09-30 12:50:00 113 17441.0 12.660 81.600 9.610 12.340 12.750 83.500 9.970 12.580 77.810 8.940 -11.3500 43.5500 14.647 11.962 2.695
CS2MET_113 2017-09-30 12:45:00 113 17441.0 12.600 76.210 8.530 12.340 12.740 81.400 9.430 12.430 72.520 7.768 -11.3500 43.5500 14.589 11.120 3.471
CS2MET_113 2017-09-30 12:40:00 113 17441.0 12.460 76.160 8.380 12.340 12.600 79.920 9.090 12.280 72.640 7.744 -11.3500 43.5500 14.456 11.008 3.446
CS2MET_113 2017-09-30 12:35:00 113 17441.0 12.340 83.800 9.660 12.340 12.480 92.400 11.290 12.230 77.960 8.550 -11.3500 43.5500 14.342 12.002 2.323
CS2MET_113 2017-09-30 12:30:00 113 17441.0 12.470 85.700 10.160 12.340 12.620 88.700 10.640 12.400 82.900 9.730 -11.3500 43.5500 14.465 12.411 2.069
CS2MET_113 2017-09-30 12:25:00 113 17441.0 12.790 79.530 9.330 12.340 12.940 83.200 10.160 12.520 71.430 7.862 -11.3500 43.5500 14.772 11.738 3.024
CS2MET_113 2017-09-30 12:20:00 113 17441.0 12.830 73.820 8.270 12.340 12.980 86.700 10.430 12.500 70.490 7.651 -11.3500 43.5500 14.811 10.926 3.877
CS2MET_113 2017-09-30 12:15:00 113 17441.0 12.660 88.500 10.810 12.340 12.740 90.400 11.190 12.600 86.100 10.420 -11.3500 43.5500 14.647 12.961 1.684
CS2MET_113 2017-09-30 12:10:00 113 17441.0 12.580 88.400 10.730 12.340 12.670 90.900 11.200 12.480 84.400 9.940 -11.3500 43.5500 14.570 12.892 1.690
CS2MET_113 2017-09-30 12:05:00 113 17441.0 12.570 87.800 10.610 12.340 12.640 89.900 10.950 12.530 85.700 10.250 -11.3500 43.5500 14.560 12.790 1.776
CS2MET_113 2017-09-30 12:00:00 113 17441.0 12.480 87.700 10.500 12.340 12.600 90.600 10.970 12.380 85.000 10.020 -11.3500 43.5500 14.475 12.696 1.780
CS2MET_113 2017-09-30 11:55:00 113 17441.0 12.480 90.700 11.010 12.340 12.550 92.200 11.330 12.430 89.200 10.740 -10.8800 40.0800 14.475 13.135 1.346
CS2MET_113 2017-09-30 11:50:00 113 17441.0 12.450 90.600 10.960 12.340 12.500 91.400 11.110 12.400 88.100 10.530 -10.8800 40.0800 14.446 13.091 1.358
CS2MET_113 2017-09-30 11:45:00 113 17441.0 12.360 88.300 10.490 12.340 12.400 90.600 10.890 12.290 86.300 10.080 -10.8800 40.0800 14.361 12.688 1.680
CS2MET_113 2017-09-30 11:40:00 113 17441.0 12.320 89.300 10.630 12.340 12.400 90.600 10.910 12.260 88.400 10.460 -10.8800 40.0800 14.323 12.807 1.533
CS2MET_113 2017-09-30 11:35:00 113 17441.0 12.190 88.800 10.400 12.340 12.280 90.300 10.670 12.070 86.900 9.970 -10.8800 40.0800 14.201 12.612 1.591
CS2MET_113 2017-09-30 11:30:00 113 17441.0 12.090 88.600 10.270 12.340 12.160 90.100 10.600 12.040 85.500 9.710 -10.8800 40.0800 14.108 12.503 1.608
CS2MET_113 2017-09-30 11:25:00 113 17441.0 12.000 87.100 9.930 12.340 12.060 89.400 10.380 11.940 82.400 9.050 -10.8800 40.0800 14.025 12.221 1.809
CS2MET_113 2017-09-30 11:20:00 113 17441.0 12.050 91.200 10.670 12.340 12.120 93.300 11.080 11.990 88.900 10.240 -10.8800 40.0800 14.071 12.841 1.238
CS2MET_113 2017-09-30 11:15:00 113 17441.0 12.050 93.700 11.080 12.340 12.120 95.200 11.360 11.990 91.200 10.600 -10.8800 40.0800 14.071 13.196 0.886
CS2MET_113 2017-09-30 11:10:00 113 17441.0 12.030 95.000 11.260 12.340 12.120 96.300 11.470 11.990 93.500 11.000 -10.8800 40.0800 14.052 13.355 0.703
CS2MET_113 2017-09-30 11:05:00 113 17441.0 11.940 95.100 11.190 12.340 12.060 96.100 11.460 11.800 93.800 10.850 -10.8800 40.0800 13.969 13.293 0.684
CS2MET_113 2017-09-30 11:00:00 113 17441.0 11.790 95.100 11.050 12.340 11.850 95.500 11.110 11.710 94.200 10.910 -10.8800 40.0800 13.831 13.170 0.678
CS2MET_113 2017-09-30 10:55:00 113 17441.0 11.690 95.100 10.950 12.340 11.770 95.700 11.060 11.630 94.600 10.830 -10.9400 36.7400 13.740 13.083 0.673
CS2MET_113 2017-09-30 10:50:00 113 17441.0 11.550 93.200 10.510 12.340 11.680 94.500 10.810 11.480 92.200 10.260 -10.9400 36.7400 13.614 12.705 0.926
CS2MET_113 2017-09-30 10:45:00 113 17441.0 11.470 93.000 10.380 12.340 11.510 93.700 10.550 11.440 92.200 10.230 -10.9400 36.7400 13.542 12.595 0.948
CS2MET_113 2017-09-30 10:40:00 113 17441.0 11.440 94.000 10.520 12.340 11.490 95.500 10.780 11.420 92.300 10.240 -10.9400 36.7400 13.515 12.713 0.811
CS2MET_113 2017-09-30 10:35:00 113 17441.0 11.490 96.500 10.960 12.340 11.530 97.200 11.100 11.440 95.700 10.840 -10.9400 36.7400 13.560 13.091 0.475
CS2MET_113 2017-09-30 10:30:00 113 17441.0 11.430 96.300 10.870 12.340 11.510 96.900 11.040 11.370 95.700 10.720 -10.9400 36.7400 13.506 13.013 0.500
CS2MET_113 2017-09-30 10:25:00 113 17441.0 11.410 96.400 10.870 12.340 11.490 96.800 11.010 11.360 95.600 10.690 -10.9400 36.7400 13.488 13.013 0.486
CS2MET_113 2017-09-30 10:20:00 113 17441.0 11.320 96.000 10.710 12.340 11.390 96.500 10.830 11.250 95.400 10.550 -10.9400 36.7400 13.408 12.875 0.536
CS2MET_113 2017-09-30 10:15:00 113 17441.0 11.250 95.200 10.520 12.340 11.300 96.900 10.840 11.170 94.300 10.340 -10.9400 36.7400 13.346 12.713 0.641
CS2MET_113 2017-09-30 10:10:00 113 17441.0 11.120 96.200 10.550 12.340 11.220 96.600 10.690 11.010 95.700 10.360 -10.9400 36.7400 13.231 12.739 0.503
CS2MET_113 2017-09-30 10:05:00 113 17441.0 10.950 96.600 10.430 12.340 11.050 97.300 10.650 10.900 95.500 10.240 -10.9400 36.7400 13.083 12.637 0.445
CS2MET_113 2017-09-30 10:00:00 113 17441.0 10.790 96.900 10.320 12.340 10.880 97.200 10.400 10.710 96.700 10.210 -10.9400 36.7400 12.944 12.545 0.401
CS2MET_113 2017-09-30 09:55:00 113 17441.0 10.600 96.200 10.030 12.340 10.670 96.600 10.170 10.540 95.600 9.880 -12.2800 34.0800 12.781 12.303 0.486
CS2MET_113 2017-09-30 09:50:00 113 17441.0 10.510 96.400 9.980 12.340 10.570 96.700 10.070 10.470 96.000 9.890 -12.2800 34.0800 12.705 12.262 0.457
CS2MET_113 2017-09-30 09:45:00 113 17441.0 10.480 93.800 9.540 12.340 10.540 95.900 9.870 10.380 90.900 8.980 -12.2800 34.0800 12.679 11.905 0.786
CS2MET_113 2017-09-30 09:40:00 113 17441.0 10.600 97.300 10.200 12.340 10.620 97.900 10.310 10.520 96.300 9.960 -12.2800 34.0800 12.781 12.444 0.345
CS2MET_113 2017-09-30 09:35:00 113 17441.0 10.560 97.200 10.150 12.340 10.670 97.700 10.300 10.470 96.800 10.010 -12.2800 34.0800 12.747 12.403 0.357
CS2MET_113 2017-09-30 09:30:00 113 17441.0 10.420 97.200 10.000 12.340 10.500 97.500 10.110 10.330 96.900 9.890 -12.2800 34.0800 12.629 12.279 0.354
CS2MET_113 2017-09-30 09:25:00 113 17441.0 10.300 97.300 9.900 12.340 10.380 97.500 10.000 10.200 96.900 9.800 -12.2800 34.0800 12.528 12.197 0.338
CS2MET_113 2017-09-30 09:20:00 113 17441.0 10.230 98.200 9.960 12.340 10.280 98.400 10.020 10.200 97.600 9.860 -12.2800 34.0800 12.469 12.246 0.224
CS2MET_113 2017-09-30 09:15:00 113 17441.0 10.170 98.100 9.890 12.340 10.210 98.300 9.960 10.110 97.800 9.790 -12.2800 34.0800 12.419 12.189 0.236
CS2MET_113 2017-09-30 09:10:00 113 17441.0 10.030 97.900 9.710 12.340 10.080 98.100 9.750 9.940 97.700 9.640 -12.2800 34.0800 12.303 12.042 0.258
CS2MET_113 2017-09-30 09:05:00 113 17441.0 9.910 97.700 9.570 12.340 10.010 98.000 9.700 9.820 97.600 9.510 -12.2800 34.0800 12.205 11.929 0.281
CS2MET_113 2017-09-30 09:00:00 113 17441.0 9.870 98.500 9.650 12.340 9.960 99.000 9.820 9.810 98.000 9.530 -12.2800 34.0800 12.172 11.994 0.183
CS2MET_113 2017-09-30 08:55:00 113 17441.0 9.840 98.600 9.640 12.340 9.940 99.000 9.800 9.700 98.300 9.450 -12.6200 30.6200 12.148 11.986 0.170
CS2MET_113 2017-09-30 08:50:00 113 17441.0 9.690 98.500 9.470 12.350 9.720 98.700 9.510 9.650 98.300 9.440 -12.6200 30.6200 12.026 11.849 0.180
CS2MET_113 2017-09-30 08:45:00 113 17441.0 9.620 98.600 9.420 12.340 9.670 98.700 9.480 9.550 98.600 9.360 -12.6200 30.6200 11.970 11.810 0.168
CS2MET_113 2017-09-30 08:40:00 113 17441.0 9.540 99.100 9.410 12.340 9.600 99.500 9.540 9.470 98.700 9.330 -12.6200 30.6200 11.905 11.802 0.107
CS2MET_113 2017-09-30 08:35:00 113 17441.0 9.510 99.400 9.440 12.340 9.600 99.500 9.530 9.470 99.400 9.380 -12.6200 30.6200 11.881 11.826 0.071
CS2MET_113 2017-09-30 08:30:00 113 17441.0 9.390 99.500 9.320 12.340 9.470 99.600 9.400 9.270 99.400 9.210 -12.6200 30.6200 11.786 11.730 0.059
CS2MET_113 2017-09-30 08:25:00 113 17441.0 9.280 99.500 9.220 12.340 9.350 99.600 9.300 9.160 99.400 9.080 -12.6200 30.6200 11.699 11.652 0.058
CS2MET_113 2017-09-30 08:20:00 113 17441.0 9.160 99.500 9.100 12.340 9.200 99.600 9.140 9.130 99.400 9.060 -12.6200 30.6200 11.604 11.558 0.058
CS2MET_113 2017-09-30 08:15:00 113 17441.0 9.110 99.600 9.050 12.340 9.160 99.600 9.100 9.060 99.500 8.990 -12.6200 30.6200 11.565 11.519 0.046
CS2MET_113 2017-09-30 08:10:00 113 17441.0 9.090 99.600 9.030 12.350 9.150 99.600 9.080 9.030 99.500 8.970 -12.6200 30.6200 11.550 11.503 0.046
CS2MET_113 2017-09-30 08:05:00 113 17441.0 9.030 99.500 8.970 12.350 9.110 99.600 9.060 8.960 99.500 8.900 -12.6200 30.6200 11.503 11.457 0.058
CS2MET_113 2017-09-30 08:00:00 113 17441.0 9.000 99.700 8.960 12.350 9.060 99.800 9.030 8.940 99.600 8.890 -12.6200 30.6200 11.480 11.449 0.034
CS2MET_113 2017-09-30 07:55:00 113 17441.0 8.930 99.500 8.870 12.340 9.030 99.600 8.980 8.860 99.500 8.790 -11.0100 26.6100 11.426 11.379 0.057
CS2MET_113 2017-09-30 07:50:00 113 17441.0 8.850 99.500 8.790 12.350 8.910 99.500 8.840 8.800 99.500 8.740 -11.0100 26.6100 11.364 11.318 0.057
CS2MET_113 2017-09-30 07:45:00 113 17441.0 8.780 99.600 8.720 12.340 8.860 99.700 8.790 8.740 99.500 8.680 -11.0100 26.6100 11.310 11.264 0.045
CS2MET_113 2017-09-30 07:40:00 113 17441.0 8.720 99.600 8.670 12.350 8.810 99.700 8.760 8.650 99.500 8.610 -11.0100 26.6100 11.264 11.226 0.045
CS2MET_113 2017-09-30 07:35:00 113 17441.0 8.650 99.700 8.610 12.340 8.690 99.800 8.650 8.620 99.600 8.580 -11.0100 26.6100 11.211 11.181 0.034
CS2MET_113 2017-09-30 07:30:00 113 17441.0 8.590 99.700 8.550 12.350 8.650 99.800 8.620 8.520 99.600 8.460 -11.0100 26.6100 11.166 11.135 0.033
CS2MET_113 2017-09-30 07:25:00 113 17441.0 8.510 99.700 8.470 12.350 8.550 99.700 8.510 8.480 99.600 8.440 -11.0100 26.6100 11.105 11.075 0.033
CS2MET_113 2017-09-30 07:20:00 113 17441.0 8.490 99.700 8.440 12.350 8.550 99.700 8.510 8.430 99.600 8.390 -11.0100 26.6100 11.090 11.053 0.033
CS2MET_113 2017-09-30 07:15:00 113 17441.0 8.400 99.800 8.380 12.350 8.460 99.900 8.430 8.360 99.700 8.340 -11.0100 26.6100 11.023 11.008 0.022
CS2MET_113 2017-09-30 07:10:00 113 17441.0 8.370 99.900 8.370 12.350 8.430 100.000 8.420 8.310 99.900 8.310 -11.0100 26.6100 11.000 11.000 0.011
CS2MET_113 2017-09-30 07:05:00 113 17441.0 8.320 99.900 8.320 12.350 8.380 100.000 8.380 8.240 99.900 8.230 -11.0100 26.6100 10.963 10.963 0.011
CS2MET_113 2017-09-30 07:00:00 113 17441.0 8.280 99.900 8.280 12.350 8.310 100.000 8.320 8.220 99.900 8.220 -11.0100 26.6100 10.933 10.933 0.011
CS2MET_113 2017-09-30 06:55:00 113 17441.0 8.210 99.800 8.190 12.350 8.240 99.900 8.240 8.160 99.800 8.140 -10.4600 24.8600 10.881 10.867 0.022
CS2MET_113 2017-09-30 06:50:00 113 17441.0 8.160 99.800 8.140 12.350 8.220 99.900 8.200 8.120 99.700 8.100 -10.4600 24.8600 10.844 10.830 0.022
CS2MET_113 2017-09-30 06:45:00 113 17441.0 8.130 99.900 8.120 12.350 8.170 99.900 8.160 8.100 99.800 8.080 -10.4600 24.8600 10.822 10.815 0.011
CS2MET_113 2017-09-30 06:40:00 113 17441.0 8.090 99.900 8.090 12.350 8.110 100.000 8.110 8.050 99.900 8.050 -10.4600 24.8600 10.793 10.793 0.011
CS2MET_113 2017-09-30 06:35:00 113 17441.0 8.030 99.900 8.030 12.350 8.100 100.000 8.100 7.968 99.900 7.972 -10.4600 24.8600 10.749 10.749 0.011
CS2MET_113 2017-09-30 06:30:00 113 17441.0 7.984 100.000 7.986 12.350 8.040 100.000 8.040 7.933 99.900 7.933 -10.4600 24.8600 10.715 10.717 0.000
CS2MET_113 2017-09-30 06:25:00 113 17441.0 7.946 100.000 7.946 12.350 8.000 100.000 7.996 7.914 99.900 7.909 -10.4600 24.8600 10.688 10.688 0.000
CS2MET_113 2017-09-30 06:20:00 113 17441.0 7.979 100.000 7.985 12.350 8.030 100.000 8.040 7.915 100.000 7.922 -10.4600 24.8600 10.712 10.716 0.000
CS2MET_113 2017-09-30 06:15:00 113 17441.0 7.970 100.000 7.977 12.350 8.020 100.000 8.020 7.931 100.000 7.936 -10.4600 24.8600 10.705 10.710 0.000
CS2MET_113 2017-09-30 06:10:00 113 17441.0 8.000 100.000 8.010 12.350 8.050 100.000 8.060 7.964 100.000 7.971 -10.4600 24.8600 10.727 10.734 0.000
CS2MET_113 2017-09-30 06:05:00 113 17441.0 7.925 99.900 7.921 12.350 8.030 100.000 8.040 7.844 99.900 7.829 -10.4600 24.8600 10.672 10.669 0.011
CS2MET_113 2017-09-30 06:00:00 113 17441.0 7.810 100.000 7.812 12.350 7.862 100.000 7.868 7.759 99.900 7.765 -10.4600 24.8600 10.589 10.590 0.000
CS2MET_113 2017-09-30 05:55:00 113 17441.0 7.854 100.000 7.860 12.350 7.894 100.000 7.901 7.826 100.000 7.833 -10.3800 24.7800 10.621 10.625 0.000
CS2MET_113 2017-09-30 05:50:00 113 17441.0 7.875 100.000 7.881 12.340 7.912 100.000 7.919 7.826 100.000 7.833 -10.3800 24.7800 10.636 10.640 0.000
CS2MET_113 2017-09-30 05:45:00 113 17441.0 7.821 100.000 7.828 12.340 7.913 100.000 7.919 7.757 100.000 7.761 -10.3800 24.7800 10.597 10.602 0.000
CS2MET_113 2017-09-30 05:40:00 113 17441.0 7.741 100.000 7.747 12.340 7.758 100.000 7.764 7.706 100.000 7.710 -10.3800 24.7800 10.539 10.544 0.000
CS2MET_113 2017-09-30 05:35:00 113 17441.0 7.759 100.000 7.765 12.340 7.825 100.000 7.832 7.689 100.000 7.695 -10.3800 24.7800 10.552 10.557 0.000
CS2MET_113 2017-09-30 05:30:00 113 17441.0 7.753 100.000 7.760 12.340 7.791 100.000 7.798 7.706 100.000 7.713 -10.3800 24.7800 10.548 10.553 0.000
CS2MET_113 2017-09-30 05:25:00 113 17441.0 7.786 100.000 7.791 12.340 7.825 100.000 7.832 7.757 99.900 7.764 -10.3800 24.7800 10.572 10.575 0.000
CS2MET_113 2017-09-30 05:20:00 113 17441.0 7.798 99.800 7.777 12.340 7.842 99.900 7.824 7.757 99.700 7.721 -10.3800 24.7800 10.580 10.565 0.021
CS2MET_113 2017-09-30 05:15:00 113 17441.0 7.766 99.700 7.725 12.340 7.825 99.700 7.777 7.706 99.600 7.665 -10.3800 24.7800 10.557 10.528 0.032
CS2MET_113 2017-09-30 05:10:00 113 17441.0 7.795 99.700 7.759 12.340 7.842 99.800 7.811 7.723 99.700 7.682 -10.3800 24.7800 10.578 10.552 0.032
CS2MET_113 2017-09-30 05:05:00 113 17441.0 7.818 99.700 7.776 12.340 7.877 99.700 7.840 7.774 99.600 7.728 -10.3800 24.7800 10.595 10.564 0.032
CS2MET_113 2017-09-30 05:00:00 113 17441.0 7.795 99.800 7.766 12.340 7.842 99.900 7.824 7.757 99.700 7.718 -10.3800 24.7800 10.578 10.557 0.021
CS2MET_113 2017-09-30 04:55:00 113 17441.0 7.853 100.000 7.859 12.340 7.928 100.000 7.934 7.757 99.900 7.756 -10.1900 24.7900 10.620 10.624 0.000
CS2MET_113 2017-09-30 04:50:00 113 17441.0 7.992 100.000 7.999 12.340 8.060 100.000 8.070 7.911 100.000 7.917 -10.1900 24.7900 10.721 10.726 0.000
CS2MET_113 2017-09-30 04:45:00 113 17441.0 8.000 100.000 8.010 12.340 8.060 100.000 8.070 7.945 100.000 7.951 -10.1900 24.7900 10.727 10.734 0.000
CS2MET_113 2017-09-30 04:40:00 113 17441.0 7.929 100.000 7.936 12.340 7.979 100.000 7.985 7.877 100.000 7.883 -10.1900 24.7900 10.675 10.680 -0.000
CS2MET_113 2017-09-30 04:35:00 113 17441.0 7.920 100.000 7.927 12.340 7.962 100.000 7.968 7.877 100.000 7.883 -10.1900 24.7900 10.669 10.674 0.000
CS2MET_113 2017-09-30 04:30:00 113 17441.0 7.914 100.000 7.921 12.340 7.945 100.000 7.951 7.894 100.000 7.900 -10.1900 24.7900 10.664 10.669 0.000
CS2MET_113 2017-09-30 04:25:00 113 17441.0 7.834 100.000 7.840 12.340 7.911 100.000 7.917 7.757 100.000 7.764 -10.1900 24.7900 10.606 10.611 0.000
CS2MET_113 2017-09-30 04:20:00 113 17441.0 7.811 100.000 7.817 12.340 7.825 100.000 7.832 7.774 100.000 7.781 -10.1900 24.7900 10.590 10.594 0.000
CS2MET_113 2017-09-30 04:15:00 113 17441.0 7.781 100.000 7.782 12.350 7.808 100.000 7.810 7.740 99.900 7.746 -10.1900 24.7900 10.568 10.569 0.000
CS2MET_113 2017-09-30 04:10:00 113 17441.0 7.751 99.900 7.750 12.350 7.791 100.000 7.790 7.723 99.900 7.717 -10.1900 24.7900 10.546 10.546 0.011
CS2MET_113 2017-09-30 04:05:00 113 17441.0 7.766 100.000 7.766 12.350 7.825 100.000 7.814 7.723 99.900 7.722 -10.1900 24.7900 10.557 10.557 0.000
CS2MET_113 2017-09-30 04:00:00 113 17441.0 7.837 99.900 7.823 12.350 7.894 99.900 7.875 7.808 99.800 7.792 -10.1900 24.7900 10.608 10.598 0.011
CS2MET_113 2017-09-30 03:55:00 113 17441.0 7.865 99.800 7.843 12.350 7.911 99.900 7.897 7.825 99.700 7.799 -9.8200 24.8200 10.629 10.613 0.021
CS2MET_113 2017-09-30 03:50:00 113 17441.0 7.883 99.700 7.842 12.350 7.911 99.700 7.869 7.859 99.600 7.811 -9.8200 24.8200 10.642 10.612 0.032
CS2MET_113 2017-09-30 03:45:00 113 17441.0 7.918 99.700 7.886 12.350 7.979 99.800 7.953 7.894 99.700 7.852 -9.8200 24.8200 10.667 10.644 0.032
CS2MET_113 2017-09-30 03:40:00 113 17441.0 8.030 99.800 8.010 12.350 8.100 99.900 8.100 7.962 99.700 7.931 -9.8200 24.8200 10.749 10.734 0.021
CS2MET_113 2017-09-30 03:35:00 113 17441.0 8.080 99.900 8.070 12.350 8.100 99.900 8.090 8.050 99.800 8.040 -9.8200 24.8200 10.786 10.778 0.011
CS2MET_113 2017-09-30 03:30:00 113 17441.0 8.150 99.900 8.140 12.350 8.230 99.900 8.220 8.060 99.800 8.050 -9.8200 24.8200 10.837 10.830 0.011
CS2MET_113 2017-09-30 03:25:00 113 17441.0 8.190 99.800 8.170 12.350 8.230 99.900 8.200 8.170 99.700 8.140 -9.8200 24.8200 10.867 10.852 0.022
CS2MET_113 2017-09-30 03:20:00 113 17441.0 8.240 99.600 8.190 12.350 8.290 99.800 8.230 8.180 99.500 8.150 -9.8200 24.8200 10.904 10.867 0.044
CS2MET_113 2017-09-30 03:15:00 113 17441.0 8.240 99.400 8.160 12.350 8.290 99.500 8.210 8.170 99.400 8.080 -9.8200 24.8200 10.904 10.844 0.065
CS2MET_113 2017-09-30 03:10:00 113 17441.0 8.300 99.600 8.240 12.350 8.410 99.700 8.360 8.230 99.500 8.160 -9.8200 24.8200 10.948 10.904 0.044
CS2MET_113 2017-09-30 03:05:00 113 17441.0 8.460 99.700 8.430 12.350 8.510 99.800 8.480 8.350 99.600 8.310 -9.8200 24.8200 11.068 11.045 0.033
CS2MET_113 2017-09-30 03:00:00 113 17441.0 8.520 99.600 8.470 12.350 8.560 99.700 8.510 8.490 99.500 8.450 -9.8200 24.8200 11.113 11.075 0.044
CS2MET_113 2017-09-30 02:55:00 113 17441.0 8.580 99.500 8.510 12.350 8.630 99.600 8.560 8.540 99.400 8.470 -9.5400 24.9400 11.158 11.105 0.056
CS2MET_113 2017-09-30 02:50:00 113 17441.0 8.620 99.500 8.550 12.350 8.640 99.600 8.580 8.580 99.400 8.490 -9.5400 24.9400 11.188 11.135 0.056
CS2MET_113 2017-09-30 02:45:00 113 17441.0 8.670 99.600 8.610 12.350 8.750 99.600 8.700 8.630 99.600 8.570 -9.5400 24.9400 11.226 11.181 0.045
CS2MET_113 2017-09-30 02:40:00 113 17441.0 8.810 99.400 8.730 12.350 8.870 99.600 8.770 8.750 99.200 8.680 -9.5400 24.9400 11.333 11.272 0.068
CS2MET_113 2017-09-30 02:35:00 113 17441.0 8.860 99.200 8.750 12.350 8.900 99.300 8.800 8.810 99.100 8.700 -9.5400 24.9400 11.372 11.287 0.091
CS2MET_113 2017-09-30 02:30:00 113 17441.0 8.920 99.400 8.840 12.350 8.970 99.400 8.890 8.870 99.300 8.770 -9.5400 24.9400 11.418 11.356 0.069
CS2MET_113 2017-09-30 02:25:00 113 17441.0 9.030 99.400 8.940 12.350 9.070 99.500 8.980 8.970 99.200 8.900 -9.5400 24.9400 11.503 11.433 0.069
CS2MET_113 2017-09-30 02:20:00 113 17441.0 9.140 99.200 9.030 12.350 9.220 99.300 9.110 9.050 99.100 8.940 -9.5400 24.9400 11.589 11.503 0.093
CS2MET_113 2017-09-30 02:15:00 113 17441.0 9.260 99.000 9.120 12.350 9.290 99.100 9.140 9.210 98.900 9.070 -9.5400 24.9400 11.683 11.573 0.117
CS2MET_113 2017-09-30 02:10:00 113 17441.0 9.260 98.800 9.080 12.350 9.280 98.900 9.120 9.220 98.700 9.030 -9.5400 24.9400 11.683 11.542 0.140
CS2MET_113 2017-09-30 02:05:00 113 17441.0 9.360 98.900 9.210 12.350 9.430 99.100 9.300 9.280 98.800 9.120 -9.5400 24.9400 11.762 11.644 0.129
CS2MET_113 2017-09-30 02:00:00 113 17441.0 9.470 98.900 9.310 12.350 9.530 99.100 9.350 9.390 98.600 9.250 -9.5400 24.9400 11.849 11.722 0.130
CS2MET_113 2017-09-30 01:55:00 113 17441.0 9.560 98.500 9.350 12.350 9.630 98.600 9.420 9.510 98.400 9.300 -9.2300 25.0300 11.921 11.754 0.179
CS2MET_113 2017-09-30 01:50:00 113 17441.0 9.710 98.600 9.510 12.350 9.750 98.700 9.560 9.630 98.500 9.420 -9.2300 25.0300 12.042 11.881 0.169
CS2MET_113 2017-09-30 01:45:00 113 17441.0 9.780 98.500 9.570 12.350 9.840 98.600 9.620 9.720 98.500 9.500 -9.2300 25.0300 12.099 11.929 0.181
CS2MET_113 2017-09-30 01:40:00 113 17441.0 9.880 98.700 9.690 12.350 9.940 98.900 9.790 9.820 98.500 9.610 -9.2300 25.0300 12.180 12.026 0.158
CS2MET_113 2017-09-30 01:35:00 113 17441.0 10.000 98.800 9.830 12.350 10.080 98.900 9.880 9.940 98.500 9.770 -9.2300 25.0300 12.279 12.140 0.147
CS2MET_113 2017-09-30 01:30:00 113 17441.0 10.090 98.500 9.870 12.350 10.140 98.600 9.940 10.030 98.400 9.800 -9.2300 25.0300 12.353 12.172 0.185
CS2MET_113 2017-09-30 01:25:00 113 17441.0 10.170 98.800 10.000 12.350 10.200 99.000 10.060 10.140 98.700 9.960 -9.2300 25.0300 12.419 12.279 0.149
CS2MET_113 2017-09-30 01:20:00 113 17441.0 10.200 98.900 10.040 12.350 10.230 99.000 10.070 10.160 98.800 10.010 -9.2300 25.0300 12.444 12.312 0.137
CS2MET_113 2017-09-30 01:15:00 113 17441.0 10.230 98.600 10.020 12.350 10.260 98.700 10.060 10.160 98.300 9.980 -9.2300 25.0300 12.469 12.295 0.175
CS2MET_113 2017-09-30 01:10:00 113 17441.0 10.220 98.000 9.920 12.350 10.250 98.200 9.990 10.180 97.800 9.850 -9.2300 25.0300 12.461 12.213 0.249
CS2MET_113 2017-09-30 01:05:00 113 17441.0 10.210 97.700 9.870 12.350 10.230 97.800 9.890 10.180 97.700 9.840 -9.2300 25.0300 12.453 12.172 0.286
CS2MET_113 2017-09-30 01:00:00 113 17441.0 10.250 98.100 9.980 12.350 10.300 98.200 10.020 10.160 97.900 9.860 -9.2300 25.0300 12.486 12.262 0.237
CS2MET_113 2017-09-30 00:55:00 113 17441.0 10.290 98.200 10.030 12.350 10.330 98.400 10.080 10.260 98.100 9.990 -8.8200 25.2200 12.519 12.303 0.225
CS2MET_113 2017-09-30 00:50:00 113 17441.0 10.380 98.700 10.200 12.360 10.430 98.800 10.260 10.330 98.400 10.110 -8.8200 25.2200 12.595 12.444 0.164
CS2MET_113 2017-09-30 00:45:00 113 17441.0 10.420 98.100 10.140 12.360 10.470 98.500 10.210 10.370 97.600 10.070 -8.8200 25.2200 12.629 12.394 0.240
CS2MET_113 2017-09-30 00:40:00 113 17441.0 10.470 97.500 10.100 12.350 10.520 97.600 10.160 10.420 97.400 10.050 -8.8200 25.2200 12.671 12.361 0.317
CS2MET_113 2017-09-30 00:35:00 113 17441.0 10.570 97.300 10.160 12.360 10.620 97.400 10.210 10.500 97.200 10.100 -8.8200 25.2200 12.756 12.411 0.344
CS2MET_113 2017-09-30 00:30:00 113 17441.0 10.650 97.200 10.230 12.360 10.720 97.300 10.310 10.590 97.100 10.170 -8.8200 25.2200 12.824 12.469 0.359
CS2MET_113 2017-09-30 00:25:00 113 17441.0 10.760 97.200 10.340 12.360 10.810 97.400 10.420 10.710 97.100 10.280 -8.8200 25.2200 12.918 12.561 0.362
CS2MET_113 2017-09-30 00:20:00 113 17441.0 10.830 97.300 10.430 12.350 10.860 97.400 10.460 10.790 97.300 10.400 -8.8200 25.2200 12.979 12.637 0.350
CS2MET_113 2017-09-30 00:15:00 113 17441.0 10.840 97.400 10.460 12.350 10.880 97.600 10.530 10.770 97.200 10.370 -8.8200 25.2200 12.987 12.662 0.338
CS2MET_113 2017-09-30 00:10:00 113 17441.0 10.940 97.900 10.630 12.350 11.030 98.200 10.750 10.860 97.700 10.520 -8.8200 25.2200 13.074 12.807 0.275
CS2MET_113 2017-09-30 00:05:00 113 17441.0 11.020 97.600 10.670 12.360 11.060 98.100 10.750 10.960 96.900 10.530 -8.8200 25.2200 13.144 12.841 0.315
CS2MET_113 2017-09-30 00:00:00 113 17441.0 11.060 97.100 10.630 12.350 11.130 97.500 10.750 10.980 96.800 10.500 -8.8200 25.2200 13.179 12.807 0.382
CS2MET_113 2017-09-29 23:55:00 113 17441.0 11.180 97.700 10.850 12.350 11.230 97.800 10.910 11.100 97.500 10.740 -8.5400 25.5400 13.284 12.996 0.306
CS2MET_113 2017-09-29 23:50:00 113 17441.0 11.230 97.600 10.870 12.350 11.300 97.900 10.980 11.190 97.100 10.800 -8.5400 25.5400 13.328 13.013 0.320
CS2MET_113 2017-09-29 23:45:00 113 17441.0 11.220 97.100 10.800 12.350 11.280 97.300 10.860 11.160 97.000 10.740 -8.5400 25.5400 13.319 12.953 0.386
CS2MET_113 2017-09-29 23:40:00 113 17441.0 11.230 96.700 10.740 12.350 11.280 97.100 10.810 11.180 96.600 10.660 -8.5400 25.5400 13.328 12.901 0.440
CS2MET_113 2017-09-29 23:35:00 113 17441.0 11.290 97.200 10.880 12.350 11.330 97.500 10.950 11.230 96.900 10.770 -8.5400 25.5400 13.381 13.022 0.375
CS2MET_113 2017-09-29 23:30:00 113 17441.0 11.340 97.400 10.950 12.350 11.380 97.500 11.010 11.310 97.200 10.920 -8.5400 25.5400 13.426 13.083 0.349
CS2MET_113 2017-09-29 23:25:00 113 17441.0 11.390 96.600 10.880 12.350 11.430 97.200 10.970 11.360 96.000 10.760 -8.5400 25.5400 13.470 13.022 0.458
CS2MET_113 2017-09-29 23:20:00 113 17441.0 11.430 96.100 10.840 12.350 11.480 96.300 10.910 11.390 95.800 10.760 -8.5400 25.5400 13.506 12.987 0.527
CS2MET_113 2017-09-29 23:15:00 113 17441.0 11.470 97.100 11.030 12.350 11.540 97.600 11.190 11.420 96.300 10.880 -8.5400 25.5400 13.542 13.152 0.393
CS2MET_113 2017-09-29 23:10:00 113 17441.0 11.550 97.600 11.180 12.350 11.590 97.700 11.230 11.490 97.400 11.100 -8.5400 25.5400 13.614 13.284 0.327
CS2MET_113 2017-09-29 23:05:00 113 17441.0 11.530 97.200 11.110 12.350 11.560 97.400 11.180 11.490 96.900 11.040 -8.5400 25.5400 13.596 13.222 0.381
CS2MET_113 2017-09-29 23:00:00 113 17441.0 11.520 97.200 11.100 12.350 11.560 97.400 11.160 11.490 97.000 11.050 -8.5400 25.5400 13.587 13.214 0.380
CS2MET_113 2017-09-29 22:55:00 113 17441.0 11.530 97.500 11.160 12.350 11.580 98.100 11.300 11.490 97.200 11.080 -8.3100 25.9100 13.596 13.266 0.340
CS2MET_113 2017-09-29 22:50:00 113 17441.0 11.570 98.200 11.310 12.350 11.580 98.300 11.330 11.540 98.200 11.290 -8.3100 25.9100 13.632 13.399 0.245
CS2MET_113 2017-09-29 22:45:00 113 17441.0 11.570 97.800 11.240 12.350 11.610 98.200 11.320 11.530 97.100 11.110 -8.3100 25.9100 13.632 13.337 0.300
CS2MET_113 2017-09-29 22:40:00 113 17441.0 11.610 97.000 11.170 12.350 11.700 97.100 11.260 11.530 96.900 11.070 -8.3100 25.9100 13.668 13.275 0.410
CS2MET_113 2017-09-29 22:35:00 113 17441.0 11.660 96.900 11.190 12.350 11.700 97.100 11.260 11.630 96.400 11.130 -8.3100 25.9100 13.713 13.293 0.425
CS2MET_113 2017-09-29 22:30:00 113 17441.0 11.660 95.900 11.030 12.350 11.700 96.300 11.130 11.610 95.600 10.960 -8.3100 25.9100 13.713 13.152 0.562
CS2MET_113 2017-09-29 22:25:00 113 17441.0 11.630 94.500 10.790 12.350 11.660 95.500 10.950 11.590 93.900 10.660 -8.3100 25.9100 13.686 12.944 0.753
CS2MET_113 2017-09-29 22:20:00 113 17441.0 11.700 93.800 10.750 12.350 11.800 95.100 11.060 11.590 93.000 10.620 -8.3100 25.9100 13.749 12.910 0.852
CS2MET_113 2017-09-29 22:15:00 113 17441.0 11.790 94.200 10.900 12.350 11.830 94.900 11.000 11.730 93.600 10.740 -8.3100 25.9100 13.831 13.039 0.802
CS2MET_113 2017-09-29 22:10:00 113 17441.0 11.900 93.200 10.850 12.350 11.950 94.300 11.000 11.830 92.700 10.750 -8.3100 25.9100 13.932 12.996 0.947
CS2MET_113 2017-09-29 22:05:00 113 17441.0 11.980 92.600 10.830 12.350 12.040 93.600 11.050 11.940 91.900 10.690 -8.3100 25.9100 14.006 12.979 1.036
CS2MET_113 2017-09-29 22:00:00 113 17441.0 12.090 94.100 11.180 12.350 12.170 94.900 11.360 12.020 93.300 11.000 -8.3100 25.9100 14.108 13.284 0.832
CS2MET_113 2017-09-29 21:55:00 113 17441.0 12.170 94.400 11.300 12.350 12.280 95.000 11.410 12.050 93.900 11.200 -8.1800 26.5800 14.182 13.390 0.794
CS2MET_113 2017-09-29 21:50:00 113 17441.0 12.330 95.500 11.640 12.350 12.400 95.900 11.740 12.240 94.600 11.440 -8.1800 26.5800 14.333 13.695 0.645
CS2MET_113 2017-09-29 21:45:00 113 17441.0 12.430 96.100 11.840 12.350 12.510 97.400 12.100 12.380 95.400 11.680 -8.1800 26.5800 14.427 13.877 0.563
CS2MET_113 2017-09-29 21:40:00 113 17441.0 12.550 97.700 12.210 12.350 12.620 97.900 12.310 12.510 97.600 12.150 -8.1800 26.5800 14.541 14.220 0.334
CS2MET_113 2017-09-29 21:35:00 113 17441.0 12.740 98.500 12.520 12.350 12.800 98.700 12.600 12.630 98.000 12.340 -8.1800 26.5800 14.724 14.513 0.221
CS2MET_113 2017-09-29 21:30:00 113 17441.0 12.820 99.100 12.700 12.350 12.890 99.500 12.830 12.790 98.800 12.610 -8.1800 26.5800 14.801 14.685 0.133
CS2MET_113 2017-09-29 21:25:00 113 17441.0 12.900 99.500 12.830 12.350 12.940 99.600 12.880 12.820 99.400 12.760 -8.1800 26.5800 14.879 14.811 0.074
CS2MET_113 2017-09-29 21:20:00 113 17441.0 12.890 99.500 12.830 12.350 12.920 99.600 12.870 12.840 99.400 12.770 -8.1800 26.5800 14.869 14.811 0.074
CS2MET_113 2017-09-29 21:15:00 113 17441.0 12.940 99.600 12.900 12.350 12.990 99.700 12.950 12.910 99.500 12.850 -8.1800 26.5800 14.918 14.879 0.060
CS2MET_113 2017-09-29 21:10:00 113 17441.0 12.970 99.600 12.930 12.350 13.010 99.700 12.960 12.920 99.600 12.880 -8.1800 26.5800 14.947 14.908 0.060
CS2MET_113 2017-09-29 21:05:00 113 17441.0 12.960 99.600 12.910 12.350 12.990 99.700 12.950 12.920 99.600 12.880 -8.1800 26.5800 14.937 14.889 0.060
CS2MET_113 2017-09-29 21:00:00 113 17441.0 12.950 99.600 12.890 12.350 12.990 99.600 12.950 12.910 99.500 12.840 -8.1800 26.5800 14.928 14.869 0.060
CS2MET_113 2017-09-29 20:55:00 113 17441.0 12.920 99.400 12.850 12.350 12.960 99.500 12.880 12.890 99.400 12.820 -8.1100 27.3100 14.898 14.830 0.089
CS2MET_113 2017-09-29 20:50:00 113 17441.0 12.910 99.400 12.830 12.350 12.940 99.400 12.860 12.870 99.300 12.780 -8.1100 27.3100 14.889 14.811 0.089
CS2MET_113 2017-09-29 20:45:00 113 17441.0 12.940 99.400 12.860 12.350 12.990 99.400 12.910 12.870 99.400 12.780 -8.1100 27.3100 14.918 14.840 0.090
CS2MET_113 2017-09-29 20:40:00 113 17441.0 13.000 99.300 12.910 12.350 13.030 99.400 12.950 12.960 99.300 12.860 -8.1100 27.3100 14.976 14.889 0.105
CS2MET_113 2017-09-29 20:35:00 113 17441.0 13.000 99.400 12.920 12.350 13.040 99.400 12.970 12.960 99.300 12.870 -8.1100 27.3100 14.976 14.898 0.090
CS2MET_113 2017-09-29 20:30:00 113 17441.0 13.000 99.300 12.910 12.350 13.030 99.400 12.940 12.940 99.300 12.850 -8.1100 27.3100 14.976 14.889 0.105
CS2MET_113 2017-09-29 20:25:00 113 17441.0 13.010 99.300 12.910 12.350 13.040 99.400 12.950 12.960 99.200 12.860 -8.1100 27.3100 14.986 14.889 0.105
CS2MET_113 2017-09-29 20:20:00 113 17441.0 13.050 99.400 12.970 12.350 13.080 99.500 13.000 13.010 99.400 12.930 -8.1100 27.3100 15.025 14.947 0.090
CS2MET_113 2017-09-29 20:15:00 113 17441.0 13.020 99.400 12.930 12.350 13.060 99.500 12.990 12.960 99.300 12.860 -8.1100 27.3100 14.996 14.908 0.090
CS2MET_113 2017-09-29 20:10:00 113 17441.0 12.990 99.300 12.900 12.350 13.060 99.400 12.980 12.960 99.200 12.860 -8.1100 27.3100 14.967 14.879 0.105
CS2MET_113 2017-09-29 20:05:00 113 17441.0 13.050 99.300 12.960 12.350 13.110 99.400 13.030 12.990 99.300 12.900 -8.1100 27.3100 15.025 14.937 0.105
CS2MET_113 2017-09-29 20:00:00 113 17441.0 13.070 99.200 12.960 12.350 13.130 99.300 13.000 13.010 99.100 12.910 -8.1100 27.3100 15.045 14.937 0.120
CS2MET_113 2017-09-29 19:55:00 113 17441.0 13.110 99.000 12.970 12.350 13.150 99.100 13.020 13.080 99.000 12.940 -8.1700 28.3700 15.085 14.947 0.151
CS2MET_113 2017-09-29 19:50:00 113 17441.0 13.150 99.000 13.010 12.350 13.200 99.100 13.070 13.090 98.800 12.930 -8.1700 28.3700 15.124 14.986 0.151
CS2MET_113 2017-09-29 19:45:00 113 17441.0 13.130 99.000 12.980 12.350 13.160 99.000 13.020 13.090 98.900 12.950 -8.1700 28.3700 15.104 14.957 0.151
CS2MET_113 2017-09-29 19:40:00 113 17441.0 13.170 99.000 13.020 12.360 13.200 99.100 13.070 13.130 98.900 12.990 -8.1700 28.3700 15.144 14.996 0.151
CS2MET_113 2017-09-29 19:35:00 113 17441.0 13.190 99.000 13.040 12.360 13.210 99.100 13.080 13.150 98.800 13.010 -8.1700 28.3700 15.164 15.016 0.152
CS2MET_113 2017-09-29 19:30:00 113 17441.0 13.170 98.700 12.980 12.360 13.200 98.800 13.020 13.130 98.600 12.930 -8.1700 28.3700 15.144 14.957 0.197
CS2MET_113 2017-09-29 19:25:00 113 17441.0 13.170 98.600 12.970 12.360 13.210 98.700 13.020 13.130 98.500 12.920 -8.1700 28.3700 15.144 14.947 0.212
CS2MET_113 2017-09-29 19:20:00 113 17441.0 13.220 98.400 12.990 12.360 13.270 98.600 13.040 13.160 98.300 12.940 -8.1700 28.3700 15.193 14.967 0.243
CS2MET_113 2017-09-29 19:15:00 113 17441.0 13.240 98.000 12.950 12.360 13.280 98.300 13.000 13.200 97.900 12.900 -8.1700 28.3700 15.213 14.928 0.304
CS2MET_113 2017-09-29 19:10:00 113 17441.0 13.240 98.300 12.990 12.360 13.270 98.600 13.060 13.200 98.000 12.910 -8.1700 28.3700 15.213 14.967 0.259
CS2MET_113 2017-09-29 19:05:00 113 17441.0 13.310 98.500 13.090 12.360 13.330 98.700 13.130 13.250 98.400 13.050 -8.1700 28.3700 15.283 15.065 0.229
CS2MET_113 2017-09-29 19:00:00 113 17441.0 13.350 98.700 13.160 12.360 13.420 98.800 13.240 13.300 98.500 13.080 -8.1700 28.3700 15.323 15.134 0.199
CS2MET_113 2017-09-29 18:55:00 113 17441.0 13.410 98.300 13.170 12.360 13.470 98.700 13.210 13.370 97.900 13.090 -8.4100 30.2100 15.383 15.144 0.262
CS2MET_113 2017-09-29 18:50:00 113 17441.0 13.500 98.100 13.230 12.360 13.550 98.200 13.290 13.440 97.900 13.120 -8.4100 30.2100 15.473 15.203 0.294
CS2MET_113 2017-09-29 18:45:00 113 17441.0 13.490 98.200 13.230 12.360 13.500 98.300 13.250 13.450 98.200 13.200 -8.4100 30.2100 15.463 15.203 0.278
CS2MET_113 2017-09-29 18:40:00 113 17441.0 13.500 98.100 13.220 12.360 13.550 98.300 13.310 13.470 97.900 13.150 -8.4100 30.2100 15.473 15.193 0.294
CS2MET_113 2017-09-29 18:35:00 113 17441.0 13.520 98.000 13.220 12.360 13.550 98.100 13.260 13.470 97.900 13.150 -8.4100 30.2100 15.494 15.193 0.310
CS2MET_113 2017-09-29 18:30:00 113 17441.0 13.550 98.300 13.310 12.360 13.590 98.500 13.350 13.520 98.100 13.250 -8.4100 30.2100 15.524 15.283 0.264
CS2MET_113 2017-09-29 18:25:00 113 17441.0 13.560 98.100 13.280 12.360 13.610 98.300 13.360 13.520 97.800 13.220 -8.4100 30.2100 15.534 15.253 0.295
CS2MET_113 2017-09-29 18:20:00 113 17441.0 13.540 97.800 13.210 12.360 13.590 98.000 13.290 13.470 97.700 13.120 -8.4100 30.2100 15.514 15.183 0.341
CS2MET_113 2017-09-29 18:15:00 113 17441.0 13.610 98.100 13.320 12.360 13.660 98.300 13.400 13.550 97.700 13.220 -8.4100 30.2100 15.585 15.293 0.296
CS2MET_113 2017-09-29 18:10:00 113 17441.0 13.680 98.400 13.440 12.360 13.730 98.400 13.490 13.640 98.300 13.380 -8.4100 30.2100 15.656 15.413 0.250
CS2MET_113 2017-09-29 18:05:00 113 17441.0 13.710 98.300 13.460 12.360 13.740 98.400 13.500 13.670 98.200 13.420 -8.4100 30.2100 15.686 15.433 0.267
CS2MET_113 2017-09-29 18:00:00 113 17441.0 13.750 98.500 13.520 12.360 13.830 98.700 13.640 13.670 98.300 13.420 -8.4100 30.2100 15.727 15.494 0.236
CS2MET_113 2017-09-29 17:55:00 113 17441.0 13.820 98.500 13.600 12.360 13.860 98.700 13.640 13.780 98.300 13.570 -9.7900 34.3900 15.799 15.574 0.237
CS2MET_113 2017-09-29 17:50:00 113 17441.0 13.870 98.300 13.620 12.360 13.950 98.400 13.710 13.790 98.300 13.550 -9.7900 34.3900 15.850 15.595 0.269
CS2MET_113 2017-09-29 17:45:00 113 17441.0 13.990 98.300 13.740 12.360 14.050 98.400 13.790 13.910 98.200 13.670 -9.7900 34.3900 15.974 15.717 0.272
CS2MET_113 2017-09-29 17:40:00 113 17441.0 14.110 98.200 13.840 12.360 14.190 98.300 13.910 14.020 97.900 13.750 -9.7900 34.3900 16.099 15.819 0.290
CS2MET_113 2017-09-29 17:35:00 113 17441.0 14.160 98.000 13.860 12.360 14.240 98.200 13.970 14.080 97.900 13.760 -9.7900 34.3900 16.151 15.840 0.323
CS2MET_113 2017-09-29 17:30:00 113 17441.0 14.280 98.300 14.030 12.360 14.340 98.500 14.100 14.220 98.200 13.950 -9.7900 34.3900 16.277 16.016 0.277
CS2MET_113 2017-09-29 17:25:00 113 17441.0 14.400 98.400 14.170 12.360 14.460 98.500 14.230 14.310 98.400 14.080 -9.7900 34.3900 16.404 16.162 0.262
CS2MET_113 2017-09-29 17:20:00 113 17441.0 14.460 98.300 14.220 12.360 14.510 98.400 14.250 14.410 98.200 14.170 -9.7900 34.3900 16.468 16.214 0.280
CS2MET_113 2017-09-29 17:15:00 113 17441.0 14.500 98.100 14.220 12.360 14.530 98.300 14.270 14.460 97.900 14.150 -9.7900 34.3900 16.511 16.214 0.314
CS2MET_113 2017-09-29 17:10:00 113 17441.0 14.520 98.100 14.240 12.360 14.560 98.200 14.290 14.490 98.000 14.190 -9.7900 34.3900 16.532 16.235 0.314
CS2MET_113 2017-09-29 17:05:00 113 17441.0 14.580 97.900 14.260 12.360 14.630 98.000 14.300 14.530 97.700 14.210 -9.7900 34.3900 16.596 16.256 0.349
CS2MET_113 2017-09-29 17:00:00 113 17441.0 14.630 97.700 14.280 12.360 14.660 97.800 14.330 14.560 97.400 14.220 -9.7900 34.3900 16.650 16.277 0.383
CS2MET_113 2017-09-29 16:55:00 113 17441.0 14.670 97.100 14.220 12.360 14.700 97.400 14.280 14.630 96.700 14.170 -11.3200 39.7200 16.693 16.214 0.484
CS2MET_113 2017-09-29 16:50:00 113 17441.0 14.720 96.400 14.170 12.360 14.770 96.700 14.220 14.700 96.200 14.120 -11.3200 39.7200 16.747 16.162 0.603
CS2MET_113 2017-09-29 16:45:00 113 17441.0 14.760 96.800 14.280 12.360 14.820 97.000 14.360 14.700 96.300 14.120 -11.3200 39.7200 16.790 16.277 0.537
CS2MET_113 2017-09-29 16:40:00 113 17441.0 14.750 97.400 14.360 12.360 14.800 97.500 14.400 14.700 97.000 14.270 -11.3200 39.7200 16.779 16.362 0.436
CS2MET_113 2017-09-29 16:35:00 113 17441.0 14.680 96.700 14.170 12.360 14.770 97.400 14.360 14.630 96.100 14.050 -11.3200 39.7200 16.704 16.162 0.551
CS2MET_113 2017-09-29 16:30:00 113 17441.0 14.630 96.700 14.120 12.360 14.680 97.300 14.250 14.600 96.100 13.990 -11.3200 39.7200 16.650 16.110 0.549
CS2MET_113 2017-09-29 16:25:00 113 17441.0 14.690 97.100 14.250 12.360 14.730 97.500 14.330 14.630 96.500 14.080 -11.3200 39.7200 16.715 16.246 0.485
CS2MET_113 2017-09-29 16:20:00 113 17441.0 14.700 96.400 14.140 12.360 14.750 96.700 14.230 14.680 96.100 14.090 -11.3200 39.7200 16.725 16.130 0.602
CS2MET_113 2017-09-29 16:15:00 113 17441.0 14.720 96.900 14.240 12.360 14.770 97.100 14.310 14.680 96.600 14.160 -11.3200 39.7200 16.747 16.235 0.519
CS2MET_113 2017-09-29 16:10:00 113 17441.0 14.720 96.200 14.140 12.360 14.770 96.600 14.210 14.700 96.000 14.080 -11.3200 39.7200 16.747 16.130 0.636
CS2MET_113 2017-09-29 16:05:00 113 17441.0 14.800 96.100 14.200 12.360 14.850 96.300 14.280 14.750 95.700 14.140 -11.3200 39.7200 16.834 16.193 0.657
CS2MET_113 2017-09-29 16:00:00 113 17441.0 14.860 95.000 14.080 12.360 14.940 95.800 14.280 14.800 94.500 13.950 -11.3200 39.7200 16.899 16.068 0.845
CS2MET_113 2017-09-29 15:55:00 113 17441.0 15.010 95.300 14.280 12.360 15.110 96.000 14.360 14.950 94.400 14.200 -12.3900 44.5900 17.063 16.277 0.802
CS2MET_113 2017-09-29 15:50:00 113 17441.0 15.220 92.600 14.040 12.360 15.400 94.200 14.210 15.070 85.600 12.990 -12.3900 44.5900 17.295 16.026 1.280
CS2MET_113 2017-09-29 15:45:00 113 17441.0 15.140 92.700 13.970 12.360 15.290 95.400 14.500 14.900 83.800 12.560 -12.3900 44.5900 17.206 15.954 1.256
CS2MET_113 2017-09-29 15:40:00 113 17441.0 15.270 95.700 14.590 12.360 15.350 96.300 14.730 15.190 94.800 14.410 -12.3900 44.5900 17.351 16.607 0.746
CS2MET_113 2017-09-29 15:35:00 113 17441.0 15.360 95.500 14.660 12.360 15.400 96.200 14.800 15.290 93.700 14.400 -12.3900 44.5900 17.451 16.682 0.785
CS2MET_113 2017-09-29 15:30:00 113 17441.0 15.120 94.500 14.250 12.360 15.360 96.700 14.640 14.970 85.900 12.800 -12.3900 44.5900 17.184 16.246 0.945
CS2MET_113 2017-09-29 15:25:00 113 17441.0 15.130 96.800 14.630 12.360 15.190 97.300 14.770 15.090 96.400 14.550 -12.3900 44.5900 17.195 16.650 0.550
CS2MET_113 2017-09-29 15:20:00 113 17441.0 15.150 96.700 14.650 12.360 15.230 96.900 14.750 15.110 96.300 14.550 -12.3900 44.5900 17.217 16.671 0.568
CS2MET_113 2017-09-29 15:15:00 113 17441.0 15.210 96.500 14.680 12.360 15.260 96.700 14.750 15.170 96.400 14.630 -12.3900 44.5900 17.284 16.704 0.605
CS2MET_113 2017-09-29 15:10:00 113 17441.0 15.260 95.800 14.610 12.360 15.330 96.500 14.730 15.170 92.900 14.050 -12.3900 44.5900 17.339 16.628 0.728
CS2MET_113 2017-09-29 15:05:00 113 17441.0 15.210 96.200 14.630 12.360 15.260 96.500 14.720 15.000 93.500 13.980 -12.3900 44.5900 17.284 16.650 0.657
CS2MET_113 2017-09-29 15:00:00 113 17441.0 15.270 96.100 14.670 12.360 15.310 96.400 14.740 15.240 95.900 14.620 -12.3900 44.5900 17.351 16.693 0.677
CS2MET_113 2017-09-29 14:55:00 113 17441.0 15.260 96.000 14.640 12.360 15.350 96.400 14.780 15.170 95.400 14.500 -12.4600 45.0000 17.339 16.661 0.694
CS2MET_113 2017-09-29 14:50:00 113 17441.0 15.220 96.300 14.650 12.360 15.240 96.800 14.730 15.160 95.800 14.540 -12.4600 45.0000 17.295 16.671 0.640
CS2MET_113 2017-09-29 14:45:00 113 17441.0 15.220 96.800 14.730 12.360 15.240 97.100 14.790 15.160 96.400 14.640 -12.4600 45.0000 17.295 16.758 0.553
CS2MET_113 2017-09-29 14:40:00 113 17441.0 15.170 96.800 14.680 12.360 15.240 97.200 14.790 15.040 96.300 14.460 -12.4600 45.0000 17.239 16.704 0.552
CS2MET_113 2017-09-29 14:35:00 113 17441.0 15.090 96.600 14.570 12.360 15.140 96.900 14.660 15.040 95.900 14.470 -12.4600 45.0000 17.151 16.586 0.583
CS2MET_113 2017-09-29 14:30:00 113 17441.0 15.030 96.100 14.430 12.360 15.140 96.800 14.560 14.830 93.500 13.810 -12.4600 45.0000 17.085 16.436 0.666
CS2MET_113 2017-09-29 14:25:00 113 17441.0 15.050 96.600 14.520 12.360 15.110 96.900 14.580 14.970 96.200 14.450 -12.4600 45.0000 17.107 16.532 0.582
CS2MET_113 2017-09-29 14:20:00 113 17441.0 15.080 96.300 14.510 12.360 15.110 96.500 14.560 15.040 96.100 14.440 -12.4600 45.0000 17.140 16.521 0.634
CS2MET_113 2017-09-29 14:15:00 113 17441.0 15.120 96.700 14.610 12.350 15.170 96.800 14.670 15.090 96.500 14.560 -12.4600 45.0000 17.184 16.628 0.567
CS2MET_113 2017-09-29 14:10:00 113 17441.0 15.170 96.000 14.550 12.350 15.310 96.500 14.650 15.090 95.600 14.470 -12.4600 45.0000 17.239 16.564 0.690
CS2MET_113 2017-09-29 14:05:00 113 17441.0 15.400 95.700 14.730 12.350 15.520 96.000 14.830 15.290 95.300 14.610 -12.4600 45.0000 17.496 16.758 0.752
CS2MET_113 2017-09-29 14:00:00 113 17441.0 15.360 96.000 14.740 12.350 15.480 97.000 14.910 15.290 93.300 14.290 -12.4600 45.0000 17.451 16.769 0.698
CS2MET_113 2017-09-29 13:55:00 113 17441.0 15.390 96.600 14.870 12.350 15.450 96.800 14.930 15.330 96.500 14.800 -11.9800 45.0000 17.485 16.910 0.594
CS2MET_113 2017-09-29 13:50:00 113 17441.0 15.470 96.500 14.940 12.350 15.520 96.700 15.010 15.400 96.300 14.890 -11.9800 45.0000 17.575 16.986 0.615
CS2MET_113 2017-09-29 13:45:00 113 17441.0 15.510 96.800 15.020 12.350 15.570 97.000 15.090 15.460 96.600 14.960 -11.9800 45.0000 17.620 17.074 0.564
CS2MET_113 2017-09-29 13:40:00 113 17441.0 15.440 96.800 14.940 12.350 15.520 97.100 15.050 15.380 96.500 14.850 -11.9800 45.0000 17.541 16.986 0.561
CS2MET_113 2017-09-29 13:35:00 113 17441.0 15.440 96.800 14.950 12.350 15.520 97.200 15.090 15.380 96.600 14.890 -11.9800 45.0000 17.541 16.997 0.561
CS2MET_113 2017-09-29 13:30:00 113 17441.0 15.430 96.500 14.880 12.350 15.460 96.700 14.940 15.380 96.300 14.820 -11.9800 45.0000 17.530 16.921 0.614
CS2MET_113 2017-09-29 13:25:00 113 17441.0 15.400 95.300 14.660 12.350 15.500 96.300 14.850 15.330 94.100 14.520 -11.9800 45.0000 17.496 16.682 0.822
CS2MET_113 2017-09-29 13:20:00 113 17441.0 15.660 95.900 15.030 12.350 15.790 97.100 15.340 15.520 94.200 14.600 -11.9800 45.0000 17.790 17.085 0.729
CS2MET_113 2017-09-29 13:15:00 113 17441.0 15.580 96.300 15.010 12.350 15.640 96.800 15.130 15.500 95.900 14.860 -11.9800 45.0000 17.699 17.063 0.655
CS2MET_113 2017-09-29 13:10:00 113 17441.0 15.500 95.700 14.830 12.350 15.580 96.100 14.990 15.400 94.800 14.590 -11.9800 45.0000 17.609 16.866 0.757
CS2MET_113 2017-09-29 13:05:00 113 17441.0 15.480 94.200 14.560 12.350 15.530 94.900 14.740 15.380 93.600 14.410 -11.9800 45.0000 17.586 16.575 1.020
CS2MET_113 2017-09-29 13:00:00 113 17441.0 15.490 92.600 14.310 12.350 15.650 95.900 15.010 15.210 85.200 12.810 -11.9800 45.0000 17.597 16.309 1.302
CS2MET_113 2017-09-29 12:55:00 113 17441.0 15.380 94.700 14.560 12.350 15.450 95.100 14.660 15.240 94.300 14.380 -11.3600 43.9600 17.474 16.575 0.926
CS2MET_113 2017-09-29 12:50:00 113 17441.0 15.420 95.800 14.770 12.350 15.460 97.100 14.960 15.360 94.800 14.600 -11.3600 43.9600 17.518 16.801 0.736
CS2MET_113 2017-09-29 12:45:00 113 17441.0 15.390 96.900 14.920 12.350 15.520 97.700 15.140 15.240 95.900 14.600 -11.3600 43.9600 17.485 16.964 0.542
CS2MET_113 2017-09-29 12:40:00 113 17441.0 15.290 96.400 14.740 12.350 15.350 96.900 14.850 15.230 95.900 14.640 -11.3600 43.9600 17.373 16.769 0.625
CS2MET_113 2017-09-29 12:35:00 113 17441.0 15.220 96.600 14.700 12.350 15.280 96.900 14.800 15.140 96.200 14.610 -11.3600 43.9600 17.295 16.725 0.588
CS2MET_113 2017-09-29 12:30:00 113 17441.0 15.200 95.100 14.430 12.350 15.350 95.900 14.550 15.070 94.500 14.270 -11.3600 43.9600 17.273 16.436 0.846
CS2MET_113 2017-09-29 12:25:00 113 17441.0 15.180 91.900 13.870 12.350 15.350 96.400 14.600 14.900 84.600 12.530 -11.3600 43.9600 17.250 15.850 1.397
CS2MET_113 2017-09-29 12:20:00 113 17441.0 15.140 95.800 14.480 12.350 15.240 96.200 14.660 15.040 95.200 14.300 -11.3600 43.9600 17.206 16.489 0.723
CS2MET_113 2017-09-29 12:15:00 113 17441.0 15.180 97.500 14.790 12.350 15.310 97.800 14.980 15.090 96.600 14.580 -11.3600 43.9600 17.250 16.823 0.431
CS2MET_113 2017-09-29 12:10:00 113 17441.0 15.120 97.900 14.800 12.350 15.240 98.100 14.920 15.060 97.500 14.680 -11.3600 43.9600 17.184 16.834 0.361
CS2MET_113 2017-09-29 12:05:00 113 17441.0 15.020 98.100 14.730 12.350 15.120 98.400 14.880 14.870 97.800 14.540 -11.3600 43.9600 17.074 16.758 0.324
CS2MET_113 2017-09-29 12:00:00 113 17441.0 14.840 97.800 14.520 12.350 14.900 98.000 14.590 14.770 97.800 14.440 -11.3600 43.9600 16.877 16.532 0.371
CS2MET_113 2017-09-29 11:55:00 113 17441.0 14.780 98.100 14.490 12.350 14.830 98.100 14.560 14.680 97.900 14.360 -10.7000 40.7000 16.812 16.500 0.319
CS2MET_113 2017-09-29 11:50:00 113 17441.0 14.640 97.800 14.320 12.350 14.680 98.000 14.370 14.600 97.500 14.230 -10.7000 40.7000 16.661 16.320 0.367
CS2MET_113 2017-09-29 11:45:00 113 17441.0 14.550 96.600 14.030 12.350 14.610 97.400 14.220 14.510 96.000 13.900 -10.7000 40.7000 16.564 16.016 0.563
CS2MET_113 2017-09-29 11:40:00 113 17441.0 14.530 95.400 13.820 12.350 14.600 95.800 13.920 14.500 94.800 13.680 -10.7000 40.7000 16.543 15.799 0.761
CS2MET_113 2017-09-29 11:35:00 113 17441.0 14.570 96.800 14.080 12.350 14.670 97.500 14.280 14.430 95.000 13.680 -10.7000 40.7000 16.586 16.068 0.531
CS2MET_113 2017-09-29 11:30:00 113 17441.0 14.560 97.900 14.240 12.350 14.640 98.200 14.340 14.500 97.500 14.170 -10.7000 40.7000 16.575 16.235 0.348
CS2MET_113 2017-09-29 11:25:00 113 17441.0 14.470 98.300 14.210 12.350 14.560 98.400 14.290 14.370 98.200 14.130 -10.7000 40.7000 16.479 16.204 0.280
CS2MET_113 2017-09-29 11:20:00 113 17441.0 14.350 98.100 14.070 12.350 14.460 98.400 14.220 14.240 97.800 13.910 -10.7000 40.7000 16.351 16.057 0.311
CS2MET_113 2017-09-29 11:15:00 113 17441.0 14.190 98.300 13.930 12.350 14.240 98.400 13.980 14.150 97.900 13.870 -10.7000 40.7000 16.183 15.912 0.275
CS2MET_113 2017-09-29 11:10:00 113 17441.0 14.070 98.400 13.830 12.350 14.150 98.800 13.900 14.020 98.200 13.770 -10.7000 40.7000 16.057 15.809 0.257
CS2MET_113 2017-09-29 11:05:00 113 17441.0 13.930 98.800 13.760 12.350 14.030 98.800 13.860 13.810 98.700 13.620 -10.7000 40.7000 15.912 15.737 0.191
CS2MET_113 2017-09-29 11:00:00 113 17441.0 13.710 98.800 13.520 12.350 13.830 98.900 13.630 13.640 98.600 13.470 -10.7000 40.7000 15.686 15.494 0.188
CS2MET_113 2017-09-29 10:55:00 113 17441.0 13.520 98.700 13.330 12.350 13.680 98.800 13.500 13.420 98.600 13.230 -10.8400 37.2400 15.494 15.303 0.201
CS2MET_113 2017-09-29 10:50:00 113 17441.0 13.420 98.700 13.220 12.350 13.490 98.800 13.310 13.330 98.500 13.120 -10.8400 37.2400 15.393 15.193 0.200
CS2MET_113 2017-09-29 10:45:00 113 17441.0 13.320 98.500 13.100 12.350 13.370 98.600 13.160 13.280 98.400 13.060 -10.8400 37.2400 15.293 15.075 0.229
CS2MET_113 2017-09-29 10:40:00 113 17441.0 13.260 98.400 13.030 12.350 13.330 98.500 13.120 13.200 98.300 12.980 -10.8400 37.2400 15.233 15.006 0.244
CS2MET_113 2017-09-29 10:35:00 113 17441.0 13.200 98.900 13.040 12.350 13.280 99.300 13.120 13.150 98.500 12.960 -10.8400 37.2400 15.173 15.016 0.167
CS2MET_113 2017-09-29 10:30:00 113 17441.0 13.210 99.300 13.110 12.350 13.270 99.400 13.180 13.150 99.100 13.020 -10.8400 37.2400 15.183 15.085 0.106
CS2MET_113 2017-09-29 10:25:00 113 17441.0 13.050 98.900 12.900 12.350 13.150 99.100 13.020 12.990 98.800 12.820 -10.8400 37.2400 15.025 14.879 0.165
CS2MET_113 2017-09-29 10:20:00 113 17441.0 13.010 98.900 12.850 12.350 13.060 98.900 12.900 12.940 98.800 12.780 -10.8400 37.2400 14.986 14.830 0.165
CS2MET_113 2017-09-29 10:15:00 113 17441.0 13.020 99.000 12.880 12.350 13.080 99.100 12.950 12.940 98.900 12.790 -10.8400 37.2400 14.996 14.859 0.150
CS2MET_113 2017-09-29 10:10:00 113 17441.0 12.960 98.800 12.790 12.350 13.030 98.900 12.880 12.910 98.700 12.730 -10.8400 37.2400 14.937 14.772 0.179
CS2MET_113 2017-09-29 10:05:00 113 17441.0 12.870 98.700 12.680 12.350 12.910 98.700 12.730 12.840 98.600 12.640 -10.8400 37.2400 14.850 14.666 0.193
CS2MET_113 2017-09-29 10:00:00 113 17441.0 12.870 98.500 12.650 12.350 12.890 98.700 12.690 12.840 98.200 12.580 -10.8400 37.2400 14.850 14.637 0.223
CS2MET_113 2017-09-29 09:55:00 113 17441.0 12.830 98.000 12.540 12.350 12.870 98.300 12.600 12.810 97.900 12.490 -12.1500 34.5500 14.811 14.532 0.296
CS2MET_113 2017-09-29 09:50:00 113 17441.0 12.810 97.900 12.510 12.350 12.860 98.100 12.570 12.790 97.700 12.460 -12.1500 34.5500 14.791 14.503 0.311
CS2MET_113 2017-09-29 09:45:00 113 17441.0 12.830 98.100 12.550 12.350 12.870 98.400 12.630 12.790 97.900 12.470 -12.1500 34.5500 14.811 14.541 0.281
CS2MET_113 2017-09-29 09:40:00 113 17441.0 12.830 97.900 12.520 12.350 12.870 98.300 12.620 12.790 97.700 12.440 -12.1500 34.5500 14.811 14.513 0.311
CS2MET_113 2017-09-29 09:35:00 113 17441.0 12.800 97.600 12.450 12.350 12.820 97.800 12.480 12.770 97.500 12.420 -12.1500 34.5500 14.782 14.446 0.355
CS2MET_113 2017-09-29 09:30:00 113 17441.0 12.750 97.800 12.420 12.350 12.820 98.000 12.500 12.670 97.600 12.310 -12.1500 34.5500 14.733 14.418 0.324
CS2MET_113 2017-09-29 09:25:00 113 17441.0 12.650 98.200 12.390 12.350 12.700 98.400 12.430 12.600 98.000 12.300 -12.1500 34.5500 14.637 14.389 0.263
CS2MET_113 2017-09-29 09:20:00 113 17441.0 12.540 98.100 12.260 12.350 12.670 98.400 12.440 12.460 98.000 12.170 -12.1500 34.5500 14.532 14.267 0.276
CS2MET_113 2017-09-29 09:15:00 113 17441.0 12.430 98.200 12.170 12.350 12.460 98.400 12.220 12.380 98.000 12.110 -12.1500 34.5500 14.427 14.182 0.260
CS2MET_113 2017-09-29 09:10:00 113 17441.0 12.360 98.600 12.150 12.350 12.400 98.800 12.190 12.310 98.400 12.110 -12.1500 34.5500 14.361 14.164 0.201
CS2MET_113 2017-09-29 09:05:00 113 17441.0 12.220 98.800 12.040 12.350 12.290 98.900 12.100 12.120 98.600 11.940 -12.1500 34.5500 14.229 14.062 0.171
CS2MET_113 2017-09-29 09:00:00 113 17441.0 11.980 98.700 11.790 12.350 12.110 98.800 11.920 11.900 98.600 11.710 -12.1500 34.5500 14.006 13.831 0.182
CS2MET_113 2017-09-29 08:55:00 113 17441.0 11.870 98.800 11.690 12.350 11.920 98.900 11.750 11.820 98.700 11.640 -12.6700 31.0700 13.905 13.740 0.167
CS2MET_113 2017-09-29 08:50:00 113 17441.0 11.810 98.900 11.650 12.350 11.880 99.000 11.730 11.770 98.700 11.580 -12.6700 31.0700 13.850 13.704 0.152
CS2MET_113 2017-09-29 08:45:00 113 17441.0 11.730 98.800 11.560 12.350 11.780 98.900 11.610 11.700 98.700 11.520 -12.6700 31.0700 13.777 13.623 0.165
CS2MET_113 2017-09-29 08:40:00 113 17441.0 11.690 98.700 11.500 12.350 11.780 98.900 11.620 11.610 98.500 11.400 -12.6700 31.0700 13.740 13.569 0.179
CS2MET_113 2017-09-29 08:35:00 113 17441.0 11.580 98.700 11.400 12.350 11.610 98.900 11.440 11.530 98.500 11.370 -12.6700 31.0700 13.641 13.479 0.177
CS2MET_113 2017-09-29 08:30:00 113 17441.0 11.470 98.900 11.320 12.350 11.540 99.000 11.390 11.370 98.900 11.220 -12.6700 31.0700 13.542 13.408 0.149
CS2MET_113 2017-09-29 08:25:00 113 17441.0 11.360 99.000 11.220 12.350 11.420 99.100 11.290 11.250 98.800 11.090 -12.6700 31.0700 13.444 13.319 0.134
CS2MET_113 2017-09-29 08:20:00 113 17441.0 11.210 98.900 11.060 12.350 11.290 99.100 11.110 11.170 98.800 10.990 -12.6700 31.0700 13.310 13.179 0.146
CS2MET_113 2017-09-29 08:15:00 113 17441.0 11.200 99.100 11.060 12.350 11.240 99.100 11.110 11.100 98.900 10.950 -12.6700 31.0700 13.302 13.179 0.120
CS2MET_113 2017-09-29 08:10:00 113 17441.0 11.000 98.800 10.830 12.350 11.100 98.900 10.940 10.930 98.800 10.760 -12.6700 31.0700 13.126 12.979 0.158
CS2MET_113 2017-09-29 08:05:00 113 17441.0 10.900 99.000 10.750 12.350 10.930 99.200 10.800 10.840 98.900 10.700 -12.6700 31.0700 13.039 12.910 0.130
CS2MET_113 2017-09-29 08:00:00 113 17441.0 10.890 99.100 10.770 12.350 10.950 99.200 10.830 10.860 99.100 10.730 -12.6700 31.0700 13.030 12.927 0.117
CS2MET_113 2017-09-29 07:55:00 113 17441.0 10.840 99.100 10.720 12.350 10.900 99.200 10.780 10.760 99.000 10.630 -11.1900 26.9900 12.987 12.884 0.117
CS2MET_113 2017-09-29 07:50:00 113 17441.0 10.720 99.000 10.580 12.350 10.780 99.100 10.650 10.640 98.900 10.480 -11.1900 26.9900 12.884 12.764 0.129
CS2MET_113 2017-09-29 07:45:00 113 17441.0 10.630 99.000 10.480 12.350 10.670 99.100 10.540 10.610 98.900 10.450 -11.1900 26.9900 12.807 12.679 0.128
CS2MET_113 2017-09-29 07:40:00 113 17441.0 10.610 99.100 10.490 12.350 10.640 99.200 10.520 10.590 99.000 10.470 -11.1900 26.9900 12.790 12.688 0.115
CS2MET_113 2017-09-29 07:35:00 113 17441.0 10.560 99.100 10.440 12.350 10.620 99.200 10.510 10.450 99.000 10.310 -11.1900 26.9900 12.747 12.645 0.115
CS2MET_113 2017-09-29 07:30:00 113 17441.0 10.430 99.100 10.300 12.350 10.500 99.200 10.370 10.400 99.000 10.270 -11.1900 26.9900 12.637 12.528 0.114
CS2MET_113 2017-09-29 07:25:00 113 17441.0 10.360 99.200 10.250 12.350 10.400 99.200 10.290 10.320 99.100 10.200 -11.1900 26.9900 12.578 12.486 0.101
CS2MET_113 2017-09-29 07:20:00 113 17441.0 10.320 99.200 10.210 12.350 10.350 99.300 10.250 10.280 99.200 10.170 -11.1900 26.9900 12.545 12.453 0.100
CS2MET_113 2017-09-29 07:15:00 113 17441.0 10.310 99.200 10.200 12.350 10.350 99.300 10.250 10.280 99.200 10.170 -11.1900 26.9900 12.536 12.444 0.100
CS2MET_113 2017-09-29 07:10:00 113 17441.0 10.230 99.200 10.130 12.350 10.280 99.300 10.170 10.200 99.200 10.080 -11.1900 26.9900 12.469 12.386 0.100
CS2MET_113 2017-09-29 07:05:00 113 17441.0 10.180 99.300 10.080 12.350 10.210 99.400 10.120 10.130 99.300 10.030 -11.1900 26.9900 12.428 12.345 0.087
CS2MET_113 2017-09-29 07:00:00 113 17441.0 10.210 99.400 10.130 12.350 10.260 99.500 10.190 10.180 99.400 10.090 -11.1900 26.9900 12.453 12.386 0.075
CS2MET_113 2017-09-29 06:55:00 113 17441.0 10.140 99.400 10.050 12.350 10.210 99.500 10.130 10.080 99.300 9.990 -10.5800 25.1800 12.394 12.320 0.074
CS2MET_113 2017-09-29 06:50:00 113 17441.0 10.080 99.300 9.980 12.350 10.140 99.400 10.050 10.030 99.200 9.920 -10.5800 25.1800 12.345 12.262 0.086
CS2MET_113 2017-09-29 06:45:00 113 17441.0 10.090 99.300 9.990 12.350 10.140 99.300 10.040 10.040 99.200 9.940 -10.5800 25.1800 12.353 12.271 0.086
CS2MET_113 2017-09-29 06:40:00 113 17441.0 10.100 99.400 10.030 12.350 10.160 99.600 10.100 10.060 99.300 9.980 -10.5800 25.1800 12.361 12.303 0.074
CS2MET_113 2017-09-29 06:35:00 113 17441.0 10.130 99.500 10.060 12.350 10.210 99.500 10.150 10.080 99.400 10.000 -10.5800 25.1800 12.386 12.328 0.062
CS2MET_113 2017-09-29 06:30:00 113 17441.0 10.060 99.400 9.990 12.350 10.090 99.500 10.020 10.010 99.400 9.920 -10.5800 25.1800 12.328 12.271 0.074
CS2MET_113 2017-09-29 06:25:00 113 17441.0 10.100 99.500 10.030 12.350 10.140 99.600 10.080 10.040 99.400 9.970 -10.5800 25.1800 12.361 12.303 0.062
CS2MET_113 2017-09-29 06:20:00 113 17441.0 10.060 99.400 9.970 12.350 10.090 99.400 10.020 10.030 99.300 9.930 -10.5800 25.1800 12.328 12.254 0.074
CS2MET_113 2017-09-29 06:15:00 113 17441.0 10.080 99.300 9.980 12.350 10.110 99.400 10.020 9.970 99.300 9.890 -10.5800 25.1800 12.345 12.262 0.086
CS2MET_113 2017-09-29 06:10:00 113 17441.0 10.060 99.300 9.970 12.350 10.090 99.400 10.000 10.030 99.300 9.930 -10.5800 25.1800 12.328 12.254 0.086
CS2MET_113 2017-09-29 06:05:00 113 17441.0 10.020 99.500 9.950 12.350 10.060 99.500 9.980 9.970 99.400 9.900 -10.5800 25.1800 12.295 12.238 0.061
CS2MET_113 2017-09-29 06:00:00 113 17441.0 9.990 99.500 9.930 12.350 10.030 99.600 9.970 9.960 99.500 9.900 -10.5800 25.1800 12.271 12.221 0.061
CS2MET_113 2017-09-29 05:55:00 113 17441.0 9.970 99.600 9.910 12.350 10.010 99.600 9.950 9.940 99.500 9.880 -10.4100 25.2100 12.254 12.205 0.049
CS2MET_113 2017-09-29 05:50:00 113 17441.0 9.970 99.600 9.920 12.350 10.010 99.600 9.960 9.940 99.600 9.890 -10.4100 25.2100 12.254 12.213 0.049
CS2MET_113 2017-09-29 05:45:00 113 17441.0 9.970 99.600 9.920 12.350 10.010 99.700 9.970 9.940 99.600 9.890 -10.4100 25.2100 12.254 12.213 0.049
CS2MET_113 2017-09-29 05:40:00 113 17441.0 9.970 99.600 9.930 12.350 10.030 99.700 9.990 9.920 99.600 9.880 -10.4100 25.2100 12.254 12.221 0.049
CS2MET_113 2017-09-29 05:35:00 113 17441.0 9.940 99.600 9.890 12.350 9.970 99.600 9.930 9.910 99.600 9.850 -10.4100 25.2100 12.229 12.189 0.049
CS2MET_113 2017-09-29 05:30:00 113 17441.0 9.910 99.500 9.850 12.350 9.940 99.600 9.890 9.860 99.500 9.790 -10.4100 25.2100 12.205 12.156 0.061
CS2MET_113 2017-09-29 05:25:00 113 17441.0 9.950 99.500 9.890 12.350 9.990 99.600 9.940 9.890 99.500 9.830 -10.4100 25.2100 12.238 12.189 0.061
CS2MET_113 2017-09-29 05:20:00 113 17441.0 9.950 99.500 9.890 12.350 9.970 99.600 9.910 9.920 99.500 9.860 -10.4100 25.2100 12.238 12.189 0.061
CS2MET_113 2017-09-29 05:15:00 113 17441.0 9.940 99.700 9.900 12.350 9.960 99.700 9.930 9.890 99.600 9.840 -10.4100 25.2100 12.229 12.197 0.037
CS2MET_113 2017-09-29 05:10:00 113 17441.0 9.940 99.600 9.890 12.350 9.990 99.700 9.950 9.890 99.600 9.830 -10.4100 25.2100 12.229 12.189 0.049
CS2MET_113 2017-09-29 05:05:00 113 17441.0 9.850 99.500 9.780 12.350 9.940 99.600 9.880 9.800 99.500 9.730 -10.4100 25.2100 12.156 12.099 0.061
CS2MET_113 2017-09-29 05:00:00 113 17441.0 9.840 99.500 9.770 12.350 9.890 99.500 9.820 9.800 99.400 9.730 -10.4100 25.2100 12.148 12.091 0.061
CS2MET_113 2017-09-29 04:55:00 113 17441.0 9.940 99.600 9.890 12.350 10.010 99.700 9.960 9.820 99.500 9.750 -10.2300 25.2300 12.229 12.189 0.049
CS2MET_113 2017-09-29 04:50:00 113 17441.0 9.940 99.500 9.880 12.350 9.960 99.600 9.910 9.910 99.500 9.850 -10.2300 25.2300 12.229 12.180 0.061
CS2MET_113 2017-09-29 04:45:00 113 17441.0 9.900 99.500 9.830 12.350 9.940 99.500 9.870 9.860 99.400 9.780 -10.2300 25.2300 12.197 12.140 0.061
CS2MET_113 2017-09-29 04:40:00 113 17441.0 9.920 99.500 9.850 12.360 9.970 99.600 9.910 9.870 99.400 9.790 -10.2300 25.2300 12.213 12.156 0.061
CS2MET_113 2017-09-29 04:35:00 113 17441.0 10.020 99.600 9.970 12.360 10.080 99.700 10.030 9.940 99.500 9.880 -10.2300 25.2300 12.295 12.254 0.049
CS2MET_113 2017-09-29 04:30:00 113 17441.0 9.980 99.600 9.930 12.350 10.040 99.600 9.990 9.940 99.500 9.890 -10.2300 25.2300 12.262 12.221 0.049
CS2MET_113 2017-09-29 04:25:00 113 17441.0 9.980 99.600 9.930 12.360 10.030 99.600 9.980 9.940 99.500 9.870 -10.2300 25.2300 12.262 12.221 0.049
CS2MET_113 2017-09-29 04:20:00 113 17441.0 9.970 99.500 9.900 12.360 10.010 99.500 9.940 9.920 99.500 9.850 -10.2300 25.2300 12.254 12.197 0.061
CS2MET_113 2017-09-29 04:15:00 113 17441.0 9.980 99.300 9.880 12.360 10.030 99.500 9.950 9.910 99.200 9.800 -10.2300 25.2300 12.262 12.180 0.086
CS2MET_113 2017-09-29 04:10:00 113 17441.0 9.970 99.300 9.870 12.360 10.010 99.400 9.920 9.940 99.300 9.840 -10.2300 25.2300 12.254 12.172 0.086
CS2MET_113 2017-09-29 04:05:00 113 17441.0 10.030 99.300 9.940 12.360 10.080 99.400 9.990 9.970 99.300 9.880 -10.2300 25.2300 12.303 12.229 0.086
CS2MET_113 2017-09-29 04:00:00 113 17441.0 10.030 99.200 9.920 12.360 10.080 99.300 9.980 10.010 99.100 9.880 -10.2300 25.2300 12.303 12.213 0.098
CS2MET_113 2017-09-29 03:55:00 113 17441.0 10.030 99.100 9.910 12.360 10.080 99.200 9.950 9.990 99.100 9.870 -9.8700 25.2700 12.303 12.205 0.111
CS2MET_113 2017-09-29 03:50:00 113 17441.0 10.070 99.100 9.950 12.360 10.110 99.200 9.990 10.030 99.100 9.900 -9.8700 25.2700 12.336 12.238 0.111
CS2MET_113 2017-09-29 03:45:00 113 17441.0 10.160 99.300 10.060 12.360 10.200 99.400 10.110 10.090 99.200 9.980 -9.8700 25.2700 12.411 12.328 0.087
CS2MET_113 2017-09-29 03:40:00 113 17441.0 10.200 99.300 10.100 12.360 10.260 99.400 10.170 10.080 99.200 9.970 -9.8700 25.2700 12.444 12.361 0.087
CS2MET_113 2017-09-29 03:35:00 113 17441.0 10.130 99.300 10.030 12.360 10.180 99.300 10.090 10.090 99.200 9.990 -9.8700 25.2700 12.386 12.303 0.087
CS2MET_113 2017-09-29 03:30:00 113 17441.0 10.180 99.300 10.090 12.360 10.210 99.400 10.120 10.140 99.200 10.050 -9.8700 25.2700 12.428 12.353 0.087
CS2MET_113 2017-09-29 03:25:00 113 17441.0 10.240 99.300 10.140 12.360 10.280 99.300 10.190 10.200 99.200 10.090 -9.8700 25.2700 12.478 12.394 0.087
CS2MET_113 2017-09-29 03:20:00 113 17441.0 10.240 99.200 10.130 12.360 10.260 99.200 10.160 10.210 99.200 10.100 -9.8700 25.2700 12.478 12.386 0.100
CS2MET_113 2017-09-29 03:15:00 113 17441.0 10.270 99.200 10.160 12.360 10.320 99.300 10.210 10.210 99.200 10.100 -9.8700 25.2700 12.503 12.411 0.100
CS2MET_113 2017-09-29 03:10:00 113 17441.0 10.290 99.200 10.180 12.360 10.350 99.200 10.240 10.250 99.200 10.140 -9.8700 25.2700 12.519 12.428 0.100
CS2MET_113 2017-09-29 03:05:00 113 17441.0 10.300 99.100 10.180 12.360 10.330 99.200 10.220 10.260 99.100 10.140 -9.8700 25.2700 12.528 12.428 0.113
CS2MET_113 2017-09-29 03:00:00 113 17441.0 10.310 99.100 10.180 12.360 10.350 99.200 10.220 10.250 99.100 10.120 -9.8700 25.2700 12.536 12.428 0.113
CS2MET_113 2017-09-29 02:55:00 113 17441.0 10.330 99.100 10.210 12.360 10.370 99.200 10.250 10.280 99.100 10.150 -9.6100 25.4100 12.553 12.453 0.113
CS2MET_113 2017-09-29 02:50:00 113 17441.0 10.300 99.200 10.180 12.360 10.350 99.200 10.240 10.260 99.100 10.130 -9.6100 25.4100 12.528 12.428 0.100
CS2MET_113 2017-09-29 02:45:00 113 17441.0 10.300 99.200 10.190 12.360 10.350 99.200 10.250 10.260 99.100 10.140 -9.6100 25.4100 12.528 12.436 0.100
CS2MET_113 2017-09-29 02:40:00 113 17441.0 10.320 99.300 10.220 12.360 10.350 99.300 10.260 10.260 99.200 10.170 -9.6100 25.4100 12.545 12.461 0.088
CS2MET_113 2017-09-29 02:35:00 113 17441.0 10.370 99.400 10.290 12.360 10.470 99.600 10.410 10.320 99.300 10.220 -9.6100 25.4100 12.586 12.519 0.076
CS2MET_113 2017-09-29 02:30:00 113 17441.0 10.430 99.500 10.370 12.360 10.470 99.600 10.410 10.420 99.500 10.350 -9.6100 25.4100 12.637 12.586 0.063
CS2MET_113 2017-09-29 02:25:00 113 17441.0 10.370 99.500 10.300 12.360 10.420 99.500 10.350 10.330 99.400 10.250 -9.6100 25.4100 12.586 12.528 0.063
CS2MET_113 2017-09-29 02:20:00 113 17441.0 10.330 99.300 10.240 12.360 10.350 99.400 10.270 10.280 99.300 10.190 -9.6100 25.4100 12.553 12.478 0.088
CS2MET_113 2017-09-29 02:15:00 113 17441.0 10.290 99.200 10.190 12.360 10.350 99.300 10.250 10.260 99.200 10.160 -9.6100 25.4100 12.519 12.436 0.100
CS2MET_113 2017-09-29 02:10:00 113 17441.0 10.310 99.200 10.200 12.360 10.350 99.300 10.250 10.260 99.200 10.160 -9.6100 25.4100 12.536 12.444 0.100
CS2MET_113 2017-09-29 02:05:00 113 17441.0 10.340 99.200 10.220 12.360 10.380 99.200 10.270 10.280 99.100 10.160 -9.6100 25.4100 12.561 12.461 0.100
CS2MET_113 2017-09-29 02:00:00 113 17441.0 10.440 99.200 10.330 12.360 10.490 99.300 10.390 10.350 99.200 10.240 -9.6100 25.4100 12.645 12.553 0.101
CS2MET_113 2017-09-29 01:55:00 113 17441.0 10.440 99.100 10.320 12.360 10.490 99.200 10.370 10.420 99.100 10.280 -9.2900 25.4900 12.645 12.545 0.114
CS2MET_113 2017-09-29 01:50:00 113 17441.0 10.450 99.100 10.330 12.360 10.540 99.300 10.450 10.370 99.100 10.230 -9.2900 25.4900 12.654 12.553 0.114
CS2MET_113 2017-09-29 01:45:00 113 17441.0 10.600 99.300 10.510 12.360 10.670 99.400 10.580 10.540 99.200 10.440 -9.2900 25.4900 12.781 12.705 0.089
CS2MET_113 2017-09-29 01:40:00 113 17441.0 10.570 99.200 10.460 12.360 10.620 99.200 10.510 10.540 99.100 10.410 -9.2900 25.4900 12.756 12.662 0.102
CS2MET_113 2017-09-29 01:35:00 113 17441.0 10.600 99.100 10.470 12.360 10.620 99.200 10.500 10.550 99.000 10.430 -9.2900 25.4900 12.781 12.671 0.115
CS2MET_113 2017-09-29 01:30:00 113 17441.0 10.640 99.100 10.510 12.360 10.670 99.200 10.540 10.600 99.100 10.480 -9.2900 25.4900 12.815 12.705 0.115
CS2MET_113 2017-09-29 01:25:00 113 17441.0 10.700 99.200 10.590 12.360 10.760 99.300 10.650 10.640 99.100 10.530 -9.2900 25.4900 12.867 12.773 0.103
CS2MET_113 2017-09-29 01:20:00 113 17441.0 10.720 99.200 10.600 12.360 10.760 99.200 10.640 10.690 99.100 10.560 -9.2900 25.4900 12.884 12.781 0.103
CS2MET_113 2017-09-29 01:15:00 113 17441.0 10.770 99.200 10.660 12.360 10.810 99.200 10.700 10.750 99.100 10.630 -9.2900 25.4900 12.927 12.832 0.103
CS2MET_113 2017-09-29 01:10:00 113 17441.0 10.800 99.100 10.680 12.360 10.860 99.200 10.730 10.750 99.000 10.630 -9.2900 25.4900 12.953 12.850 0.117
CS2MET_113 2017-09-29 01:05:00 113 17441.0 10.790 99.000 10.650 12.360 10.870 99.100 10.740 10.750 98.900 10.600 -9.2900 25.4900 12.944 12.824 0.129
CS2MET_113 2017-09-29 01:00:00 113 17441.0 10.870 98.900 10.710 12.360 10.920 99.100 10.750 10.810 98.700 10.640 -9.2900 25.4900 13.013 12.875 0.143
CS2MET_113 2017-09-29 00:55:00 113 17441.0 10.870 98.400 10.640 12.360 10.900 98.700 10.710 10.830 98.000 10.550 -9.0400 25.6400 13.013 12.815 0.208
CS2MET_113 2017-09-29 00:50:00 113 17441.0 10.900 97.800 10.580 12.360 11.030 98.100 10.710 10.830 97.700 10.520 -9.0400 25.6400 13.039 12.764 0.287
CS2MET_113 2017-09-29 00:45:00 113 17441.0 11.200 98.300 10.950 12.360 11.370 98.700 11.190 11.000 97.700 10.670 -9.0400 25.6400 13.302 13.083 0.226
CS2MET_113 2017-09-29 00:40:00 113 17441.0 11.350 98.800 11.190 12.360 11.390 99.000 11.230 11.320 98.700 11.140 -9.0400 25.6400 13.435 13.293 0.161
CS2MET_113 2017-09-29 00:35:00 113 17441.0 11.320 99.000 11.180 12.360 11.370 99.100 11.240 11.250 98.900 11.120 -9.0400 25.6400 13.408 13.284 0.134
CS2MET_113 2017-09-29 00:30:00 113 17441.0 11.160 99.000 11.010 12.360 11.250 99.100 11.120 11.070 98.800 10.890 -9.0400 25.6400 13.266 13.135 0.133
CS2MET_113 2017-09-29 00:25:00 113 17441.0 11.110 98.800 10.940 12.360 11.190 99.000 11.040 11.050 98.800 10.870 -9.0400 25.6400 13.222 13.074 0.159
CS2MET_113 2017-09-29 00:20:00 113 17441.0 11.200 99.000 11.050 12.360 11.220 99.000 11.080 11.150 98.800 11.000 -9.0400 25.6400 13.302 13.170 0.133
CS2MET_113 2017-09-29 00:15:00 113 17441.0 11.130 98.700 10.940 12.360 11.200 98.900 11.040 11.080 98.600 10.890 -9.0400 25.6400 13.240 13.074 0.172
CS2MET_113 2017-09-29 00:10:00 113 17441.0 11.120 98.500 10.890 12.360 11.170 98.600 10.940 11.080 98.400 10.850 -9.0400 25.6400 13.231 13.030 0.198
CS2MET_113 2017-09-29 00:05:00 113 17441.0 11.280 98.600 11.090 12.360 11.370 98.700 11.180 11.150 98.500 10.940 -9.0400 25.6400 13.372 13.205 0.187
CS2MET_113 2017-09-29 00:00:00 113 17441.0 11.290 98.400 11.060 12.360 11.300 98.600 11.090 11.250 98.300 11.010 -9.0400 25.6400 13.381 13.179 0.214
CS2MET_113 2017-09-28 23:55:00 113 17441.0 11.320 98.200 11.060 12.360 11.370 98.300 11.090 11.270 98.000 11.010 -8.6400 26.0400 13.408 13.179 0.241
CS2MET_113 2017-09-28 23:50:00 113 17441.0 11.390 97.800 11.060 12.360 11.420 98.000 11.110 11.360 97.700 11.050 -8.6400 26.0400 13.470 13.179 0.296
CS2MET_113 2017-09-28 23:45:00 113 17441.0 11.470 97.600 11.100 12.360 11.560 97.800 11.170 11.410 97.300 11.050 -8.6400 26.0400 13.542 13.214 0.325
CS2MET_113 2017-09-28 23:40:00 113 17441.0 11.710 97.400 11.320 12.360 11.830 97.800 11.500 11.540 97.100 11.120 -8.6400 26.0400 13.759 13.408 0.358
CS2MET_113 2017-09-28 23:35:00 113 17441.0 11.760 97.600 11.410 12.360 11.800 97.900 11.480 11.710 97.100 11.310 -8.6400 26.0400 13.804 13.488 0.331
CS2MET_113 2017-09-28 23:30:00 113 17441.0 11.850 96.600 11.330 12.360 12.050 97.100 11.540 11.750 96.300 11.230 -8.6400 26.0400 13.886 13.417 0.472
CS2MET_113 2017-09-28 23:25:00 113 17441.0 12.170 96.400 11.620 12.360 12.240 96.600 11.690 12.110 96.000 11.550 -8.6400 26.0400 14.182 13.677 0.511
CS2MET_113 2017-09-28 23:20:00 113 17441.0 11.980 97.300 11.580 12.360 12.110 98.200 11.640 11.880 96.600 11.510 -8.6400 26.0400 14.006 13.641 0.378
CS2MET_113 2017-09-28 23:15:00 113 17441.0 11.890 98.700 11.700 12.360 11.970 98.800 11.800 11.830 98.200 11.590 -8.6400 26.0400 13.923 13.749 0.181
CS2MET_113 2017-09-28 23:10:00 113 17441.0 11.950 98.700 11.770 12.360 11.990 98.800 11.790 11.920 98.600 11.730 -8.6400 26.0400 13.978 13.813 0.182
CS2MET_113 2017-09-28 23:05:00 113 17441.0 11.930 98.500 11.710 12.360 11.970 98.600 11.760 11.880 98.400 11.660 -8.6400 26.0400 13.960 13.759 0.209
CS2MET_113 2017-09-28 23:00:00 113 17441.0 11.910 98.400 11.670 12.360 11.950 98.500 11.720 11.850 98.300 11.610 -8.6400 26.0400 13.941 13.722 0.223
CS2MET_113 2017-09-28 22:55:00 113 17441.0 11.920 98.400 11.690 12.360 11.970 98.500 11.730 11.870 98.300 11.630 -8.4200 26.4200 13.951 13.740 0.223
CS2MET_113 2017-09-28 22:50:00 113 17441.0 11.950 98.000 11.660 12.360 11.970 98.300 11.710 11.920 97.900 11.600 -8.4200 26.4200 13.978 13.713 0.280
CS2MET_113 2017-09-28 22:45:00 113 17441.0 12.020 97.800 11.700 12.360 12.090 98.000 11.740 11.970 97.400 11.650 -8.4200 26.4200 14.043 13.749 0.309
CS2MET_113 2017-09-28 22:40:00 113 17441.0 12.070 97.300 11.660 12.360 12.120 97.400 11.720 12.040 97.200 11.620 -8.4200 26.4200 14.089 13.713 0.380
CS2MET_113 2017-09-28 22:35:00 113 17441.0 12.240 96.800 11.760 12.360 12.310 97.200 11.820 12.120 96.300 11.700 -8.4200 26.4200 14.248 13.804 0.456
CS2MET_113 2017-09-28 22:30:00 113 17441.0 12.350 96.200 11.780 12.360 12.400 96.300 11.830 12.310 96.000 11.740 -8.4200 26.4200 14.351 13.822 0.545
CS2MET_113 2017-09-28 22:25:00 113 17441.0 12.550 95.500 11.850 12.360 12.700 95.900 11.940 12.410 95.100 11.770 -8.4200 26.4200 14.541 13.886 0.654
CS2MET_113 2017-09-28 22:20:00 113 17441.0 12.890 95.000 12.130 12.360 12.980 95.500 12.220 12.700 94.800 11.930 -8.4200 26.4200 14.869 14.145 0.743
CS2MET_113 2017-09-28 22:15:00 113 17441.0 12.770 96.500 12.250 12.360 12.890 97.600 12.320 12.650 95.000 12.100 -8.4200 26.4200 14.753 14.257 0.516
CS2MET_113 2017-09-28 22:10:00 113 17441.0 12.650 98.300 12.390 12.360 12.670 98.600 12.470 12.580 97.600 12.270 -8.4200 26.4200 14.637 14.389 0.249
CS2MET_113 2017-09-28 22:05:00 113 17441.0 12.620 98.500 12.400 12.360 12.670 98.600 12.470 12.550 98.400 12.320 -8.4200 26.4200 14.608 14.399 0.219
CS2MET_113 2017-09-28 22:00:00 113 17441.0 12.580 98.400 12.350 12.360 12.600 98.500 12.370 12.530 98.400 12.300 -8.4200 26.4200 14.570 14.351 0.233
CS2MET_113 2017-09-28 21:55:00 113 17441.0 12.630 98.500 12.410 12.360 12.650 98.600 12.440 12.580 98.400 12.350 -8.3200 27.1200 14.618 14.408 0.219
CS2MET_113 2017-09-28 21:50:00 113 17441.0 12.630 98.300 12.390 12.360 12.650 98.400 12.420 12.580 98.300 12.340 -8.3200 27.1200 14.618 14.389 0.249
CS2MET_113 2017-09-28 21:45:00 113 17441.0 12.700 98.200 12.440 12.360 12.750 98.300 12.490 12.650 98.200 12.390 -8.3200 27.1200 14.685 14.437 0.264
CS2MET_113 2017-09-28 21:40:00 113 17441.0 12.780 98.100 12.490 12.360 12.790 98.200 12.520 12.750 97.900 12.460 -8.3200 27.1200 14.762 14.484 0.280
CS2MET_113 2017-09-28 21:35:00 113 17441.0 12.830 98.100 12.550 12.360 12.920 98.100 12.640 12.790 98.000 12.490 -8.3200 27.1200 14.811 14.541 0.281
CS2MET_113 2017-09-28 21:30:00 113 17441.0 12.930 98.000 12.630 12.360 12.990 98.100 12.690 12.860 97.900 12.570 -8.3200 27.1200 14.908 14.618 0.298
CS2MET_113 2017-09-28 21:25:00 113 17441.0 13.000 97.800 12.670 12.360 13.060 97.900 12.730 12.940 97.500 12.620 -8.3200 27.1200 14.976 14.656 0.329
CS2MET_113 2017-09-28 21:20:00 113 17441.0 13.050 97.300 12.640 12.360 13.080 97.500 12.660 12.990 97.100 12.590 -8.3200 27.1200 15.025 14.627 0.406
CS2MET_113 2017-09-28 21:15:00 113 17441.0 13.180 97.400 12.780 12.360 13.330 97.700 12.990 13.040 97.100 12.610 -8.3200 27.1200 15.154 14.762 0.394
CS2MET_113 2017-09-28 21:10:00 113 17441.0 13.370 97.700 13.030 12.360 13.420 97.800 13.090 13.320 97.700 12.980 -8.3200 27.1200 15.343 15.006 0.353
CS2MET_113 2017-09-28 21:05:00 113 17441.0 13.420 97.700 13.080 12.360 13.470 97.800 13.130 13.330 97.600 13.000 -8.3200 27.1200 15.393 15.055 0.354
CS2MET_113 2017-09-28 21:00:00 113 17441.0 13.470 97.500 13.100 12.360 13.500 97.600 13.140 13.440 97.400 13.040 -8.3200 27.1200 15.443 15.075 0.386
CS2MET_113 2017-09-28 20:55:00 113 17441.0 13.480 97.400 13.080 12.360 13.520 97.500 13.120 13.450 97.200 13.050 -8.2700 27.8700 15.453 15.055 0.402
CS2MET_113 2017-09-28 20:50:00 113 17441.0 13.550 97.500 13.170 12.360 13.610 97.600 13.250 13.470 97.200 13.050 -8.2700 27.8700 15.524 15.144 0.388
CS2MET_113 2017-09-28 20:45:00 113 17441.0 13.590 97.400 13.200 12.360 13.640 97.600 13.280 13.540 97.200 13.120 -8.2700 27.8700 15.564 15.173 0.405
CS2MET_113 2017-09-28 20:40:00 113 17441.0 13.620 97.000 13.160 12.360 13.690 97.200 13.240 13.550 96.800 13.110 -8.2700 27.8700 15.595 15.134 0.468
CS2MET_113 2017-09-28 20:35:00 113 17441.0 13.820 97.300 13.410 12.360 13.880 97.400 13.480 13.740 97.100 13.300 -8.2700 27.8700 15.799 15.383 0.427
CS2MET_113 2017-09-28 20:30:00 113 17441.0 13.860 97.200 13.440 12.360 13.900 97.400 13.480 13.830 96.900 13.400 -8.2700 27.8700 15.840 15.413 0.444
CS2MET_113 2017-09-28 20:25:00 113 17441.0 13.940 96.400 13.390 12.360 13.980 96.800 13.450 13.880 96.000 13.340 -8.2700 27.8700 15.923 15.363 0.573
CS2MET_113 2017-09-28 20:20:00 113 17441.0 14.130 95.700 13.460 12.360 14.310 96.200 13.720 13.980 95.300 13.330 -8.2700 27.8700 16.120 15.433 0.693
CS2MET_113 2017-09-28 20:15:00 113 17441.0 14.420 95.800 13.770 12.360 14.480 96.300 13.850 14.320 95.400 13.700 -8.2700 27.8700 16.426 15.748 0.690
CS2MET_113 2017-09-28 20:10:00 113 17441.0 14.360 96.200 13.780 12.360 14.440 97.000 13.920 14.290 95.200 13.600 -8.2700 27.8700 16.362 15.758 0.622
CS2MET_113 2017-09-28 20:05:00 113 17441.0 14.370 97.000 13.910 12.360 14.440 97.000 13.980 14.320 96.900 13.860 -8.2700 27.8700 16.372 15.892 0.491
CS2MET_113 2017-09-28 20:00:00 113 17441.0 14.460 96.700 13.960 12.360 14.490 96.900 14.010 14.420 96.500 13.900 -8.2700 27.8700 16.468 15.943 0.543
CS2MET_113 2017-09-28 19:55:00 113 17441.0 14.430 96.800 13.950 12.360 14.460 97.000 13.990 14.400 96.500 13.890 -8.3100 28.9100 16.436 15.933 0.526
CS2MET_113 2017-09-28 19:50:00 113 17441.0 14.460 96.600 13.940 12.360 14.560 96.900 14.010 14.420 96.400 13.900 -8.3100 28.9100 16.468 15.923 0.560
CS2MET_113 2017-09-28 19:45:00 113 17441.0 14.590 96.400 14.030 12.360 14.690 96.600 14.170 14.520 96.200 13.950 -8.3100 28.9100 16.607 16.016 0.598
CS2MET_113 2017-09-28 19:40:00 113 17441.0 14.800 96.600 14.280 12.360 14.900 96.600 14.370 14.690 96.500 14.170 -8.3100 28.9100 16.834 16.277 0.572
CS2MET_113 2017-09-28 19:35:00 113 17441.0 14.920 96.300 14.350 12.360 14.980 96.500 14.390 14.880 96.200 14.310 -8.3100 28.9100 16.964 16.351 0.628
CS2MET_113 2017-09-28 19:30:00 113 17441.0 15.000 96.200 14.410 12.360 15.080 96.300 14.500 14.930 96.000 14.320 -8.3100 28.9100 17.052 16.415 0.648
CS2MET_113 2017-09-28 19:25:00 113 17441.0 15.010 95.700 14.340 12.360 15.060 96.000 14.410 14.960 95.200 14.270 -8.3100 28.9100 17.063 16.341 0.734
CS2MET_113 2017-09-28 19:20:00 113 17441.0 15.190 94.500 14.320 12.360 15.390 95.100 14.430 15.050 94.000 14.260 -8.3100 28.9100 17.262 16.320 0.949
CS2MET_113 2017-09-28 19:15:00 113 17441.0 15.610 93.000 14.500 12.360 15.850 93.900 14.600 15.400 91.600 14.420 -8.3100 28.9100 17.733 16.511 1.241
CS2MET_113 2017-09-28 19:10:00 113 17441.0 15.750 91.900 14.460 12.360 15.830 93.000 14.670 15.630 91.100 14.230 -8.3100 28.9100 17.893 16.468 1.449
CS2MET_113 2017-09-28 19:05:00 113 17441.0 15.550 94.200 14.630 12.360 15.640 95.000 14.760 15.500 92.600 14.410 -8.3100 28.9100 17.665 16.650 1.025
CS2MET_113 2017-09-28 19:00:00 113 17441.0 15.670 94.200 14.750 12.360 15.780 94.500 14.820 15.570 94.000 14.680 -8.3100 28.9100 17.801 16.779 1.032
CS2MET_113 2017-09-28 18:55:00 113 17441.0 15.910 93.300 14.840 12.360 16.020 94.000 14.920 15.790 92.900 14.780 -8.5800 30.7800 18.077 16.877 1.211
CS2MET_113 2017-09-28 18:50:00 113 17441.0 16.110 91.900 14.820 12.360 16.190 93.100 14.960 16.070 90.600 14.540 -8.5800 30.7800 18.309 16.855 1.483
CS2MET_113 2017-09-28 18:45:00 113 17441.0 15.950 93.500 14.910 12.360 16.030 94.100 15.020 15.890 90.600 14.510 -8.5800 30.7800 18.123 16.953 1.178
CS2MET_113 2017-09-28 18:40:00 113 17441.0 16.010 93.700 15.020 12.360 16.070 93.800 15.080 15.950 93.700 14.960 -8.5800 30.7800 18.193 17.074 1.146
CS2MET_113 2017-09-28 18:35:00 113 17441.0 16.180 93.200 15.100 12.360 16.290 93.700 15.170 16.050 92.900 15.020 -8.5800 30.7800 18.391 17.162 1.251
CS2MET_113 2017-09-28 18:30:00 113 17441.0 16.320 92.700 15.150 12.360 16.390 93.000 15.200 16.200 92.300 15.080 -8.5800 30.7800 18.556 17.217 1.355
CS2MET_113 2017-09-28 18:25:00 113 17441.0 16.180 93.500 15.150 12.360 16.270 93.800 15.220 16.070 93.000 15.060 -8.5800 30.7800 18.391 17.217 1.195
CS2MET_113 2017-09-28 18:20:00 113 17441.0 16.290 93.300 15.220 12.360 16.390 93.400 15.300 16.220 93.100 15.160 -8.5800 30.7800 18.521 17.295 1.241
CS2MET_113 2017-09-28 18:15:00 113 17441.0 16.480 92.800 15.320 12.360 16.560 93.200 15.370 16.400 92.400 15.240 -8.5800 30.7800 18.746 17.406 1.350
CS2MET_113 2017-09-28 18:10:00 113 17441.0 16.670 92.400 15.450 12.360 16.740 92.700 15.530 16.590 92.100 15.390 -8.5800 30.7800 18.974 17.552 1.442
CS2MET_113 2017-09-28 18:05:00 113 17441.0 16.830 91.600 15.460 12.360 16.970 92.300 15.550 16.690 90.800 15.390 -8.5800 30.7800 19.168 17.563 1.610
CS2MET_113 2017-09-28 18:00:00 113 17441.0 17.030 90.500 15.480 12.360 17.120 91.300 15.550 16.950 90.100 15.410 -8.5800 30.7800 19.412 17.586 1.844
CS2MET_113 2017-09-28 17:55:00 113 17441.0 17.110 90.100 15.480 12.360 17.170 90.400 15.540 17.070 89.700 15.440 -9.9400 35.1400 19.511 17.586 1.932
CS2MET_113 2017-09-28 17:50:00 113 17441.0 17.230 89.500 15.500 12.360 17.270 89.700 15.550 17.130 89.200 15.430 -9.9400 35.1400 19.660 17.609 2.064
CS2MET_113 2017-09-28 17:45:00 113 17441.0 17.270 89.300 15.500 12.360 17.410 89.900 15.600 17.150 89.000 15.420 -9.9400 35.1400 19.709 17.609 2.109
CS2MET_113 2017-09-28 17:40:00 113 17441.0 17.480 88.700 15.610 12.360 17.540 89.200 15.660 17.410 88.300 15.550 -9.9400 35.1400 19.973 17.733 2.257
CS2MET_113 2017-09-28 17:35:00 113 17441.0 17.580 88.000 15.590 12.360 17.750 88.700 15.670 17.440 86.700 15.480 -9.9400 35.1400 20.099 17.710 2.412
CS2MET_113 2017-09-28 17:30:00 113 17441.0 17.750 85.400 15.280 12.360 17.820 86.500 15.490 17.700 83.600 14.980 -9.9400 35.1400 20.316 17.362 2.966
CS2MET_113 2017-09-28 17:25:00 113 17441.0 17.950 84.000 15.230 12.360 18.020 85.000 15.480 17.800 83.400 15.010 -9.9400 35.1400 20.573 17.306 3.292
CS2MET_113 2017-09-28 17:20:00 113 17441.0 18.150 83.500 15.310 12.360 18.220 84.300 15.460 18.000 82.800 15.140 -9.9400 35.1400 20.833 17.395 3.437
CS2MET_113 2017-09-28 17:15:00 113 17441.0 18.310 83.100 15.400 12.360 18.360 84.000 15.550 18.210 81.700 15.140 -9.9400 35.1400 21.043 17.496 3.556
CS2MET_113 2017-09-28 17:10:00 113 17441.0 18.350 82.400 15.320 12.360 18.380 83.300 15.490 18.290 81.700 15.190 -9.9400 35.1400 21.096 17.406 3.713
CS2MET_113 2017-09-28 17:05:00 113 17441.0 18.370 82.500 15.340 12.360 18.470 83.100 15.470 18.290 81.600 15.180 -9.9400 35.1400 21.123 17.429 3.696
CS2MET_113 2017-09-28 17:00:00 113 17441.0 18.420 81.400 15.180 12.360 18.460 82.300 15.360 18.380 80.900 15.080 -9.9400 35.1400 21.189 17.250 3.941
CS2MET_113 2017-09-28 16:55:00 113 17441.0 18.460 81.300 15.210 12.360 18.510 81.900 15.360 18.410 80.900 15.100 -11.3500 40.5500 21.242 17.284 3.972
CS2MET_113 2017-09-28 16:50:00 113 17441.0 18.490 80.900 15.170 12.360 18.570 81.600 15.310 18.430 80.200 15.030 -11.3500 40.5500 21.282 17.239 4.065
CS2MET_113 2017-09-28 16:45:00 113 17441.0 18.570 80.200 15.110 12.360 18.620 80.800 15.230 18.530 79.500 14.970 -11.3500 40.5500 21.389 17.173 4.235
CS2MET_113 2017-09-28 16:40:00 113 17441.0 18.590 79.920 15.070 12.360 18.670 80.900 15.250 18.550 78.820 14.830 -11.3500 40.5500 21.416 17.129 4.300
CS2MET_113 2017-09-28 16:35:00 113 17441.0 18.690 78.690 14.930 12.360 18.760 79.790 15.120 18.630 78.080 14.760 -11.3500 40.5500 21.550 16.975 4.592
CS2MET_113 2017-09-28 16:30:00 113 17441.0 18.730 78.190 14.870 12.360 18.770 78.560 14.970 18.700 77.730 14.800 -11.3500 40.5500 21.604 16.910 4.712
CS2MET_113 2017-09-28 16:25:00 113 17441.0 18.770 77.790 14.820 12.360 18.810 78.240 14.920 18.720 77.050 14.670 -11.3500 40.5500 21.658 16.855 4.810
CS2MET_113 2017-09-28 16:20:00 113 17441.0 18.810 76.900 14.690 12.360 18.860 77.520 14.830 18.770 76.560 14.590 -11.3500 40.5500 21.713 16.715 5.016
CS2MET_113 2017-09-28 16:15:00 113 17441.0 18.810 76.920 14.700 12.360 18.890 78.050 14.970 18.750 76.450 14.580 -11.3500 40.5500 21.713 16.725 5.011
CS2MET_113 2017-09-28 16:10:00 113 17441.0 18.840 76.480 14.630 12.360 18.910 77.390 14.880 18.770 76.040 14.500 -11.3500 40.5500 21.753 16.650 5.116
CS2MET_113 2017-09-28 16:05:00 113 17441.0 18.830 76.380 14.600 12.360 18.910 77.230 14.800 18.760 75.340 14.430 -11.3500 40.5500 21.740 16.618 5.135
CS2MET_113 2017-09-28 16:00:00 113 17441.0 18.910 75.620 14.520 12.360 18.960 76.060 14.600 18.860 75.020 14.390 -11.3500 40.5500 21.849 16.532 5.327
CS2MET_113 2017-09-28 15:55:00 113 17441.0 18.900 75.650 14.520 12.360 18.930 76.380 14.680 18.860 75.140 14.400 -12.3800 45.0000 21.835 16.532 5.317
CS2MET_113 2017-09-28 15:50:00 113 17441.0 18.860 76.090 14.570 12.360 18.910 76.930 14.730 18.840 75.480 14.430 -12.3800 45.0000 21.780 16.586 5.208
CS2MET_113 2017-09-28 15:45:00 113 17441.0 18.820 76.580 14.640 12.360 18.910 77.990 14.920 18.730 75.820 14.460 -12.3800 45.0000 21.726 16.661 5.088
CS2MET_113 2017-09-28 15:40:00 113 17441.0 18.920 75.650 14.540 12.360 18.950 76.210 14.650 18.900 75.140 14.450 -12.3800 45.0000 21.862 16.553 5.323
CS2MET_113 2017-09-28 15:35:00 113 17441.0 18.940 75.910 14.610 12.360 18.980 76.540 14.750 18.910 74.820 14.380 -12.3800 45.0000 21.889 16.628 5.273
CS2MET_113 2017-09-28 15:30:00 113 17441.0 18.970 75.710 14.600 12.360 19.000 76.850 14.830 18.920 75.260 14.460 -12.3800 45.0000 21.930 16.618 5.327
CS2MET_113 2017-09-28 15:25:00 113 17441.0 18.990 75.700 14.620 12.360 19.030 76.800 14.840 18.930 74.840 14.420 -12.3800 45.0000 21.958 16.639 5.336
CS2MET_113 2017-09-28 15:20:00 113 17441.0 19.040 75.150 14.560 12.360 19.170 76.580 14.850 18.950 72.110 13.930 -12.3800 45.0000 22.026 16.575 5.474
CS2MET_113 2017-09-28 15:15:00 113 17441.0 19.000 75.380 14.560 12.360 19.050 76.270 14.710 18.920 74.550 14.380 -12.3800 45.0000 21.972 16.575 5.409
CS2MET_113 2017-09-28 15:10:00 113 17441.0 18.970 75.540 14.560 12.360 19.000 76.420 14.750 18.900 75.050 14.420 -12.3800 45.0000 21.930 16.575 5.364
CS2MET_113 2017-09-28 15:05:00 113 17441.0 18.930 75.360 14.490 12.360 19.020 76.490 14.780 18.870 74.280 14.290 -12.3800 45.0000 21.876 16.500 5.390
CS2MET_113 2017-09-28 15:00:00 113 17441.0 18.900 75.230 14.430 12.360 18.970 77.060 14.830 18.830 73.850 14.170 -12.3800 45.0000 21.835 16.436 5.409
CS2MET_113 2017-09-28 14:55:00 113 17441.0 18.860 75.130 14.380 12.360 18.900 75.950 14.560 18.830 74.550 14.240 -12.5400 45.0000 21.780 16.383 5.417
CS2MET_113 2017-09-28 14:50:00 113 17441.0 18.840 74.960 14.320 12.360 18.910 75.960 14.560 18.770 74.220 14.140 -12.5400 45.0000 21.753 16.320 5.447
CS2MET_113 2017-09-28 14:45:00 113 17441.0 18.820 74.900 14.290 12.360 18.870 75.970 14.540 18.750 74.060 14.110 -12.5400 45.0000 21.726 16.288 5.453
CS2MET_113 2017-09-28 14:40:00 113 17441.0 18.810 74.630 14.220 12.360 18.860 75.840 14.500 18.720 73.690 14.040 -12.5400 45.0000 21.713 16.214 5.508
CS2MET_113 2017-09-28 14:35:00 113 17441.0 18.770 74.090 14.070 12.360 18.810 74.830 14.260 18.690 73.350 13.940 -12.5400 45.0000 21.658 16.057 5.612
CS2MET_113 2017-09-28 14:30:00 113 17441.0 18.740 74.150 14.060 12.360 18.810 75.460 14.320 18.650 73.450 13.930 -12.5400 45.0000 21.618 16.047 5.588
CS2MET_113 2017-09-28 14:25:00 113 17441.0 18.740 73.850 13.990 12.360 18.790 75.280 14.340 18.670 73.060 13.830 -12.5400 45.0000 21.618 15.974 5.653
CS2MET_113 2017-09-28 14:20:00 113 17441.0 18.730 73.810 13.980 12.360 18.770 75.040 14.230 18.690 73.280 13.850 -12.5400 45.0000 21.604 15.964 5.658
CS2MET_113 2017-09-28 14:15:00 113 17441.0 18.710 73.830 13.960 12.360 18.760 75.040 14.220 18.640 72.910 13.780 -12.5400 45.0000 21.577 15.943 5.647
CS2MET_113 2017-09-28 14:10:00 113 17441.0 18.700 73.760 13.940 12.360 18.740 74.950 14.190 18.640 73.110 13.820 -12.5400 45.0000 21.564 15.923 5.658
CS2MET_113 2017-09-28 14:05:00 113 17441.0 18.700 73.340 13.840 12.360 18.760 73.900 13.960 18.640 72.790 13.720 -12.5400 45.0000 21.564 15.819 5.749
CS2MET_113 2017-09-28 14:00:00 113 17441.0 18.640 73.440 13.810 12.360 18.690 74.870 14.110 18.580 73.010 13.690 -12.5400 45.0000 21.483 15.789 5.706
CS2MET_113 2017-09-28 13:55:00 113 17441.0 18.570 73.490 13.760 12.360 18.650 74.830 14.080 18.520 72.530 13.570 -12.0800 45.0000 21.389 15.737 5.670
CS2MET_113 2017-09-28 13:50:00 113 17441.0 18.530 73.270 13.670 12.360 18.580 73.810 13.840 18.430 72.790 13.580 -12.0800 45.0000 21.336 15.646 5.703
CS2MET_113 2017-09-28 13:45:00 113 17441.0 18.500 73.520 13.690 12.360 18.530 74.320 13.860 18.470 72.940 13.540 -12.0800 45.0000 21.296 15.666 5.639
CS2MET_113 2017-09-28 13:40:00 113 17441.0 18.420 73.340 13.580 12.360 18.520 73.910 13.700 18.350 72.820 13.470 -12.0800 45.0000 21.189 15.554 5.649
CS2MET_113 2017-09-28 13:35:00 113 17441.0 18.340 73.390 13.520 12.360 18.380 73.710 13.590 18.290 73.040 13.430 -12.0800 45.0000 21.083 15.494 5.610
CS2MET_113 2017-09-28 13:30:00 113 17441.0 18.250 73.470 13.450 12.350 18.310 74.820 13.720 18.190 72.430 13.220 -12.0800 45.0000 20.964 15.423 5.562
CS2MET_113 2017-09-28 13:25:00 113 17441.0 18.230 73.750 13.480 12.350 18.290 74.820 13.750 18.180 73.090 13.330 -12.0800 45.0000 20.938 15.453 5.496
CS2MET_113 2017-09-28 13:20:00 113 17441.0 18.200 73.650 13.430 12.350 18.240 74.020 13.530 18.140 73.200 13.320 -12.0800 45.0000 20.899 15.403 5.507
CS2MET_113 2017-09-28 13:15:00 113 17441.0 18.170 73.500 13.370 12.350 18.210 74.200 13.540 18.110 73.040 13.240 -12.0800 45.0000 20.859 15.343 5.528
CS2MET_113 2017-09-28 13:10:00 113 17441.0 18.100 73.590 13.330 12.350 18.160 73.930 13.400 18.070 73.030 13.210 -12.0800 45.0000 20.768 15.303 5.485
CS2MET_113 2017-09-28 13:05:00 113 17441.0 18.030 73.190 13.170 12.350 18.110 73.610 13.240 17.950 72.990 13.130 -12.0800 45.0000 20.677 15.144 5.543
CS2MET_113 2017-09-28 13:00:00 113 17441.0 17.820 75.070 13.360 12.350 17.950 76.520 13.600 17.720 73.620 13.150 -12.0800 45.0000 20.405 15.333 5.087
CS2MET_113 2017-09-28 12:55:00 113 17441.0 17.880 74.050 13.210 12.350 17.920 74.440 13.310 17.830 73.660 13.130 -11.4900 44.6900 20.483 15.183 5.315
CS2MET_113 2017-09-28 12:50:00 113 17441.0 17.800 74.550 13.230 12.350 17.850 74.950 13.300 17.750 74.190 13.180 -11.4900 44.6900 20.380 15.203 5.187
CS2MET_113 2017-09-28 12:45:00 113 17441.0 17.690 74.880 13.200 12.350 17.780 75.670 13.310 17.580 74.200 13.080 -11.4900 44.6900 20.239 15.173 5.084
CS2MET_113 2017-09-28 12:40:00 113 17441.0 17.560 76.380 13.370 12.350 17.630 77.540 13.620 17.480 75.430 13.180 -11.4900 44.6900 20.074 15.343 4.741
CS2MET_113 2017-09-28 12:35:00 113 17441.0 17.510 76.070 13.260 12.350 17.580 76.300 13.330 17.460 75.570 13.180 -11.4900 44.6900 20.010 15.233 4.789
CS2MET_113 2017-09-28 12:30:00 113 17441.0 17.460 76.150 13.230 12.350 17.510 76.450 13.280 17.410 75.840 13.150 -11.4900 44.6900 19.947 15.203 4.757
CS2MET_113 2017-09-28 12:25:00 113 17441.0 17.380 76.680 13.260 12.350 17.430 77.340 13.350 17.310 76.040 13.180 -11.4900 44.6900 19.847 15.233 4.628
CS2MET_113 2017-09-28 12:20:00 113 17441.0 17.310 77.710 13.390 12.350 17.360 78.280 13.470 17.240 77.320 13.300 -11.4900 44.6900 19.759 15.363 4.404
CS2MET_113 2017-09-28 12:15:00 113 17441.0 17.280 77.780 13.380 12.350 17.340 78.830 13.600 17.230 77.230 13.230 -11.4900 44.6900 19.722 15.353 4.382
CS2MET_113 2017-09-28 12:10:00 113 17441.0 17.130 77.990 13.270 12.350 17.190 78.390 13.380 17.010 77.630 13.150 -11.4900 44.6900 19.536 15.243 4.300
CS2MET_113 2017-09-28 12:05:00 113 17441.0 16.880 79.690 13.370 12.350 17.030 80.600 13.520 16.810 78.410 13.180 -11.4900 44.6900 19.229 15.343 3.905
CS2MET_113 2017-09-28 12:00:00 113 17441.0 16.890 78.790 13.200 12.350 16.930 79.660 13.360 16.860 77.860 12.990 -11.4900 44.6900 19.241 15.173 4.081
CS2MET_113 2017-09-28 11:55:00 113 17441.0 16.810 78.270 13.020 12.360 16.900 78.610 13.080 16.760 77.890 12.950 -10.7900 41.3900 19.143 14.996 4.160
CS2MET_113 2017-09-28 11:50:00 113 17441.0 16.710 78.340 12.940 12.360 16.760 78.440 13.010 16.640 78.190 12.860 -10.7900 41.3900 19.022 14.918 4.120
CS2MET_113 2017-09-28 11:45:00 113 17441.0 16.540 78.720 12.840 12.360 16.640 79.460 12.920 16.460 78.030 12.780 -10.7900 41.3900 18.818 14.820 4.004
CS2MET_113 2017-09-28 11:40:00 113 17441.0 16.450 79.010 12.810 12.350 16.520 79.350 12.910 16.350 78.750 12.730 -10.7900 41.3900 18.710 14.791 3.927
CS2MET_113 2017-09-28 11:35:00 113 17441.0 16.320 79.620 12.810 12.350 16.350 79.820 12.880 16.250 79.360 12.750 -10.7900 41.3900 18.556 14.791 3.782
CS2MET_113 2017-09-28 11:30:00 113 17441.0 16.190 79.820 12.720 12.350 16.270 80.100 12.770 16.110 79.650 12.680 -10.7900 41.3900 18.403 14.704 3.714
CS2MET_113 2017-09-28 11:25:00 113 17441.0 16.040 80.300 12.660 12.350 16.110 80.600 12.710 15.940 80.100 12.580 -10.7900 41.3900 18.228 14.647 3.591
CS2MET_113 2017-09-28 11:20:00 113 17441.0 15.820 81.200 12.610 12.350 15.940 81.900 12.680 15.720 80.600 12.550 -10.7900 41.3900 17.973 14.599 3.379
CS2MET_113 2017-09-28 11:15:00 113 17441.0 15.620 81.500 12.470 12.350 15.740 82.400 12.610 15.430 81.100 12.390 -10.7900 41.3900 17.745 14.465 3.283
CS2MET_113 2017-09-28 11:10:00 113 17441.0 15.380 83.500 12.610 12.350 15.520 84.200 12.710 15.330 82.500 12.440 -10.7900 41.3900 17.474 14.599 2.883
CS2MET_113 2017-09-28 11:05:00 113 17441.0 15.420 81.800 12.340 12.350 15.520 82.300 12.470 15.300 81.400 12.280 -10.7900 41.3900 17.518 14.342 3.188
CS2MET_113 2017-09-28 11:00:00 113 17441.0 15.080 84.400 12.480 12.350 15.280 85.900 12.660 14.950 82.400 12.320 -10.7900 41.3900 17.140 14.475 2.674
CS2MET_113 2017-09-28 10:55:00 113 17441.0 14.970 85.700 12.610 12.350 14.990 86.000 12.660 14.920 85.400 12.530 -10.9300 37.9300 17.019 14.599 2.434
CS2MET_113 2017-09-28 10:50:00 113 17441.0 14.910 85.600 12.530 12.350 15.010 86.600 12.640 14.780 85.000 12.420 -10.9300 37.9300 16.953 14.522 2.441
CS2MET_113 2017-09-28 10:45:00 113 17441.0 14.800 86.400 12.560 12.350 14.850 86.700 12.630 14.750 86.000 12.470 -10.9300 37.9300 16.834 14.551 2.289
CS2MET_113 2017-09-28 10:40:00 113 17441.0 14.800 84.600 12.240 12.350 14.920 85.800 12.560 14.580 84.000 12.110 -10.9300 37.9300 16.834 14.248 2.592
CS2MET_113 2017-09-28 10:35:00 113 17441.0 14.490 86.800 12.340 12.350 14.580 87.400 12.440 14.440 85.500 12.190 -10.9300 37.9300 16.500 14.342 2.178
CS2MET_113 2017-09-28 10:30:00 113 17441.0 14.440 86.200 12.170 12.350 14.550 87.200 12.290 14.310 85.500 12.090 -10.9300 37.9300 16.447 14.182 2.270
CS2MET_113 2017-09-28 10:25:00 113 17441.0 14.300 87.000 12.180 12.350 14.360 87.500 12.300 14.200 86.600 12.080 -10.9300 37.9300 16.298 14.192 2.119
CS2MET_113 2017-09-28 10:20:00 113 17441.0 14.070 88.600 12.230 12.350 14.170 89.200 12.320 14.000 87.200 12.050 -10.9300 37.9300 16.057 14.239 1.831
CS2MET_113 2017-09-28 10:15:00 113 17441.0 13.980 89.100 12.240 12.350 14.020 89.400 12.310 13.950 89.000 12.190 -10.9300 37.9300 15.964 14.248 1.740
CS2MET_113 2017-09-28 10:10:00 113 17441.0 14.000 88.400 12.130 12.350 14.050 89.200 12.270 13.910 87.800 12.030 -10.9300 37.9300 15.985 14.145 1.854
CS2MET_113 2017-09-28 10:05:00 113 17441.0 13.870 89.000 12.090 12.350 13.970 89.200 12.150 13.800 88.500 12.030 -10.9300 37.9300 15.850 14.108 1.744
CS2MET_113 2017-09-28 10:00:00 113 17441.0 13.700 89.700 12.060 12.350 13.830 90.100 12.110 13.610 89.100 12.010 -10.9300 37.9300 15.676 14.080 1.615
CS2MET_113 2017-09-28 09:55:00 113 17441.0 13.510 90.500 11.990 12.350 13.620 90.700 12.040 13.420 90.100 11.930 -12.2400 35.0400 15.483 14.015 1.471
CS2MET_113 2017-09-28 09:50:00 113 17441.0 13.350 91.000 11.920 12.350 13.450 91.500 11.980 13.220 90.600 11.870 -12.2400 35.0400 15.323 13.951 1.379
CS2MET_113 2017-09-28 09:45:00 113 17441.0 13.120 91.900 11.840 12.350 13.250 92.500 11.930 12.960 91.500 11.790 -12.2400 35.0400 15.094 13.877 1.223
CS2MET_113 2017-09-28 09:40:00 113 17441.0 12.870 93.100 11.800 12.350 12.960 93.400 11.900 12.810 92.700 11.700 -12.2400 35.0400 14.850 13.841 1.025
CS2MET_113 2017-09-28 09:35:00 113 17441.0 12.790 92.500 11.610 12.350 12.840 93.000 11.740 12.670 92.100 11.430 -12.2400 35.0400 14.772 13.668 1.108
CS2MET_113 2017-09-28 09:30:00 113 17441.0 12.610 92.000 11.360 12.350 12.700 92.100 11.470 12.530 91.800 11.270 -12.2400 35.0400 14.599 13.444 1.168
CS2MET_113 2017-09-28 09:25:00 113 17441.0 12.470 91.800 11.180 12.350 12.530 92.000 11.270 12.410 91.700 11.120 -12.2400 35.0400 14.465 13.284 1.186
CS2MET_113 2017-09-28 09:20:00 113 17441.0 12.360 91.600 11.040 12.350 12.410 91.800 11.090 12.290 91.100 10.930 -12.2400 35.0400 14.361 13.161 1.206
CS2MET_113 2017-09-28 09:15:00 113 17441.0 12.160 91.300 10.790 12.350 12.310 92.100 10.880 11.990 90.700 10.680 -12.2400 35.0400 14.173 12.944 1.233
CS2MET_113 2017-09-28 09:10:00 113 17441.0 11.920 92.700 10.780 12.350 11.990 93.200 10.840 11.830 92.300 10.720 -12.2400 35.0400 13.951 12.935 1.018
CS2MET_113 2017-09-28 09:05:00 113 17441.0 11.770 93.200 10.720 12.350 11.790 93.500 10.780 11.720 92.900 10.620 -12.2400 35.0400 13.813 12.884 0.939
CS2MET_113 2017-09-28 09:00:00 113 17441.0 11.670 92.900 10.560 12.350 11.730 93.800 10.660 11.560 92.100 10.430 -12.2400 35.0400 13.722 12.747 0.974
CS2MET_113 2017-09-28 08:55:00 113 17441.0 11.470 93.900 10.520 12.350 11.580 94.100 10.640 11.340 93.600 10.440 -12.7800 31.5800 13.542 12.713 0.826
CS2MET_113 2017-09-28 08:50:00 113 17441.0 11.260 95.200 10.520 12.350 11.380 96.000 10.580 11.120 94.300 10.460 -12.7800 31.5800 13.355 12.713 0.641
CS2MET_113 2017-09-28 08:45:00 113 17441.0 10.980 96.600 10.470 12.350 11.140 97.300 10.560 10.830 96.000 10.270 -12.7800 31.5800 13.109 12.671 0.446
CS2MET_113 2017-09-28 08:40:00 113 17441.0 10.700 97.500 10.330 12.350 10.920 98.000 10.530 10.520 97.200 10.140 -12.7800 31.5800 12.867 12.553 0.322
CS2MET_113 2017-09-28 08:35:00 113 17441.0 10.490 98.200 10.230 12.350 10.620 98.600 10.420 10.280 97.900 9.980 -12.7800 31.5800 12.688 12.469 0.228
CS2MET_113 2017-09-28 08:30:00 113 17441.0 10.190 98.500 9.970 12.350 10.300 98.900 10.010 10.100 98.000 9.930 -12.7800 31.5800 12.436 12.254 0.187
CS2MET_113 2017-09-28 08:25:00 113 17441.0 10.010 99.500 9.940 12.350 10.080 100.000 10.000 9.890 99.000 9.890 -12.7800 31.5800 12.287 12.229 0.061
CS2MET_113 2017-09-28 08:20:00 113 17441.0 9.780 100.000 9.790 12.350 9.880 100.000 9.880 9.650 100.000 9.660 -12.7800 31.5800 12.099 12.107 -0.000
CS2MET_113 2017-09-28 08:15:00 113 17441.0 9.490 100.000 9.500 12.350 9.640 100.000 9.650 9.330 100.000 9.340 -12.7800 31.5800 11.865 11.873 0.000
CS2MET_113 2017-09-28 08:10:00 113 17441.0 9.290 100.000 9.300 12.350 9.330 100.000 9.340 9.260 100.000 9.270 -12.7800 31.5800 11.707 11.715 0.000
CS2MET_113 2017-09-28 08:05:00 113 17441.0 9.260 100.000 9.270 12.350 9.290 100.000 9.300 9.230 100.000 9.230 -12.7800 31.5800 11.683 11.691 0.000
CS2MET_113 2017-09-28 08:00:00 113 17441.0 9.150 100.000 9.150 12.350 9.260 100.000 9.270 8.950 100.000 8.960 -12.7800 31.5800 11.597 11.597 0.000
CS2MET_113 2017-09-28 07:55:00 113 17441.0 8.870 100.000 8.880 12.350 8.920 100.000 8.930 8.830 100.000 8.840 -11.3200 27.5200 11.379 11.387 -0.000
CS2MET_113 2017-09-28 07:50:00 113 17441.0 8.820 100.000 8.830 12.350 8.900 100.000 8.910 8.700 100.000 8.700 -11.3200 27.5200 11.341 11.349 0.000
CS2MET_113 2017-09-28 07:45:00 113 17441.0 8.580 100.000 8.590 12.350 8.660 100.000 8.670 8.510 100.000 8.520 -11.3200 27.5200 11.158 11.166 0.000
CS2MET_113 2017-09-28 07:40:00 113 17441.0 8.490 100.000 8.490 12.350 8.580 100.000 8.580 8.390 100.000 8.400 -11.3200 27.5200 11.090 11.090 0.000
CS2MET_113 2017-09-28 07:35:00 113 17441.0 8.310 100.000 8.320 12.350 8.390 100.000 8.400 8.240 100.000 8.240 -11.3200 27.5200 10.956 10.963 -0.000
CS2MET_113 2017-09-28 07:30:00 113 17441.0 8.430 100.000 8.440 12.350 8.510 100.000 8.510 8.320 100.000 8.330 -11.3200 27.5200 11.045 11.053 -0.000
CS2MET_113 2017-09-28 07:25:00 113 17441.0 8.320 100.000 8.320 12.350 8.440 100.000 8.450 8.230 100.000 8.240 -11.3200 27.5200 10.963 10.963 0.000
CS2MET_113 2017-09-28 07:20:00 113 17441.0 8.140 100.000 8.150 12.350 8.220 100.000 8.220 8.080 100.000 8.090 -11.3200 27.5200 10.830 10.837 0.000
CS2MET_113 2017-09-28 07:15:00 113 17441.0 8.210 100.000 8.220 12.350 8.300 100.000 8.310 8.100 100.000 8.100 -11.3200 27.5200 10.881 10.889 0.000
CS2MET_113 2017-09-28 07:10:00 113 17441.0 8.320 100.000 8.330 12.350 8.350 100.000 8.360 8.290 100.000 8.290 -11.3200 27.5200 10.963 10.970 0.000
CS2MET_113 2017-09-28 07:05:00 113 17441.0 8.260 100.000 8.270 12.350 8.320 100.000 8.330 8.220 100.000 8.220 -11.3200 27.5200 10.918 10.926 0.000
CS2MET_113 2017-09-28 07:00:00 113 17441.0 8.260 100.000 8.260 12.350 8.300 100.000 8.310 8.220 100.000 8.220 -11.3200 27.5200 10.918 10.918 0.000
CS2MET_113 2017-09-28 06:55:00 113 17441.0 8.230 100.000 8.240 12.350 8.290 100.000 8.290 8.170 100.000 8.170 -10.6100 25.6100 10.896 10.904 0.000
CS2MET_113 2017-09-28 06:50:00 113 17441.0 8.110 100.000 8.110 12.350 8.200 100.000 8.210 8.050 99.900 8.050 -10.6100 25.6100 10.808 10.808 0.000
CS2MET_113 2017-09-28 06:45:00 113 17441.0 8.120 100.000 8.120 12.350 8.200 100.000 8.210 8.060 99.900 8.060 -10.6100 25.6100 10.815 10.815 0.000
CS2MET_113 2017-09-28 06:40:00 113 17441.0 8.340 100.000 8.350 12.350 8.420 100.000 8.430 8.230 100.000 8.240 -10.6100 25.6100 10.978 10.985 0.000
CS2MET_113 2017-09-28 06:35:00 113 17441.0 8.310 100.000 8.310 12.350 8.320 100.000 8.330 8.290 100.000 8.290 -10.6100 25.6100 10.956 10.956 -0.000
CS2MET_113 2017-09-28 06:30:00 113 17441.0 8.320 100.000 8.330 12.350 8.350 100.000 8.360 8.270 100.000 8.280 -10.6100 25.6100 10.963 10.970 0.000
CS2MET_113 2017-09-28 06:25:00 113 17441.0 8.300 100.000 8.310 12.350 8.350 100.000 8.360 8.270 100.000 8.280 -10.6100 25.6100 10.948 10.956 0.000
CS2MET_113 2017-09-28 06:20:00 113 17441.0 8.200 100.000 8.210 12.350 8.270 100.000 8.280 8.130 99.900 8.120 -10.6100 25.6100 10.874 10.881 0.000
CS2MET_113 2017-09-28 06:15:00 113 17441.0 8.130 99.800 8.100 12.350 8.150 99.900 8.140 8.080 99.600 8.050 -10.6100 25.6100 10.822 10.800 0.022
CS2MET_113 2017-09-28 06:10:00 113 17441.0 8.170 99.700 8.130 12.350 8.320 99.900 8.310 8.060 99.600 8.010 -10.6100 25.6100 10.852 10.822 0.033
CS2MET_113 2017-09-28 06:05:00 113 17441.0 8.350 99.800 8.330 12.350 8.410 99.900 8.370 8.300 99.600 8.260 -10.6100 25.6100 10.985 10.970 0.022
CS2MET_113 2017-09-28 06:00:00 113 17441.0 8.380 99.700 8.330 12.350 8.510 99.700 8.470 8.300 99.600 8.250 -10.6100 25.6100 11.008 10.970 0.033
CS2MET_113 2017-09-28 05:55:00 113 17441.0 8.520 99.500 8.460 12.350 8.580 99.700 8.540 8.490 99.300 8.390 -10.5300 25.5300 11.113 11.068 0.056
CS2MET_113 2017-09-28 05:50:00 113 17441.0 8.590 99.600 8.530 12.350 8.830 99.900 8.830 8.460 99.300 8.360 -10.5300 25.5300 11.166 11.120 0.045
CS2MET_113 2017-09-28 05:45:00 113 17441.0 8.820 99.800 8.800 12.360 8.900 99.900 8.890 8.710 99.800 8.680 -10.5300 25.5300 11.341 11.326 0.023
CS2MET_113 2017-09-28 05:40:00 113 17441.0 8.720 99.800 8.700 12.360 8.750 99.900 8.730 8.700 99.800 8.670 -10.5300 25.5300 11.264 11.249 0.023
CS2MET_113 2017-09-28 05:35:00 113 17441.0 8.720 99.800 8.690 12.360 8.760 99.900 8.740 8.680 99.700 8.650 -10.5300 25.5300 11.264 11.242 0.023
CS2MET_113 2017-09-28 05:30:00 113 17441.0 8.620 99.300 8.530 12.360 8.730 99.700 8.680 8.520 99.000 8.380 -10.5300 25.5300 11.188 11.120 0.078
CS2MET_113 2017-09-28 05:25:00 113 17441.0 8.530 99.000 8.390 12.360 8.730 99.500 8.670 8.440 98.700 8.250 -10.5300 25.5300 11.120 11.015 0.111
CS2MET_113 2017-09-28 05:20:00 113 17441.0 8.940 99.600 8.890 12.360 9.000 99.700 8.960 8.800 99.500 8.750 -10.5300 25.5300 11.433 11.395 0.046
CS2MET_113 2017-09-28 05:15:00 113 17441.0 8.870 99.600 8.820 12.360 8.930 99.700 8.890 8.830 99.500 8.760 -10.5300 25.5300 11.379 11.341 0.046
CS2MET_113 2017-09-28 05:10:00 113 17441.0 8.930 99.600 8.880 12.360 8.970 99.600 8.910 8.900 99.500 8.850 -10.5300 25.5300 11.426 11.387 0.046
CS2MET_113 2017-09-28 05:05:00 113 17441.0 8.920 99.500 8.850 12.360 8.950 99.500 8.890 8.870 99.400 8.800 -10.5300 25.5300 11.418 11.364 0.057
CS2MET_113 2017-09-28 05:00:00 113 17441.0 8.910 99.500 8.840 12.360 8.950 99.500 8.890 8.850 99.400 8.780 -10.5300 25.5300 11.410 11.356 0.057
CS2MET_113 2017-09-28 04:55:00 113 17441.0 8.940 99.500 8.870 12.360 8.990 99.500 8.920 8.920 99.400 8.840 -10.3500 25.5500 11.433 11.379 0.057
CS2MET_113 2017-09-28 04:50:00 113 17441.0 9.050 99.600 8.990 12.360 9.100 99.600 9.050 8.930 99.500 8.860 -10.3500 25.5500 11.519 11.472 0.046
CS2MET_113 2017-09-28 04:45:00 113 17441.0 9.080 99.500 9.020 12.360 9.120 99.600 9.070 9.050 99.500 8.980 -10.3500 25.5500 11.542 11.495 0.058
CS2MET_113 2017-09-28 04:40:00 113 17441.0 9.140 99.600 9.090 12.360 9.210 99.600 9.150 9.100 99.500 9.050 -10.3500 25.5500 11.589 11.550 0.046
CS2MET_113 2017-09-28 04:35:00 113 17441.0 9.110 99.600 9.060 12.360 9.160 99.600 9.110 9.070 99.500 9.020 -10.3500 25.5500 11.565 11.526 0.046
CS2MET_113 2017-09-28 04:30:00 113 17441.0 9.130 99.600 9.080 12.360 9.190 99.700 9.140 9.100 99.500 9.040 -10.3500 25.5500 11.581 11.542 0.046
CS2MET_113 2017-09-28 04:25:00 113 17441.0 9.080 99.500 9.010 12.360 9.120 99.600 9.060 9.050 99.500 8.980 -10.3500 25.5500 11.542 11.488 0.058
CS2MET_113 2017-09-28 04:20:00 113 17441.0 9.150 99.500 9.080 12.360 9.190 99.600 9.130 9.090 99.400 9.030 -10.3500 25.5500 11.597 11.542 0.058
CS2MET_113 2017-09-28 04:15:00 113 17441.0 9.210 99.500 9.130 12.360 9.260 99.500 9.190 9.140 99.400 9.060 -10.3500 25.5500 11.644 11.581 0.058
CS2MET_113 2017-09-28 04:10:00 113 17441.0 9.240 99.300 9.160 12.360 9.290 99.500 9.200 9.190 99.300 9.100 -10.3500 25.5500 11.667 11.604 0.082
CS2MET_113 2017-09-28 04:05:00 113 17441.0 9.270 99.300 9.180 12.360 9.310 99.400 9.220 9.240 99.300 9.150 -10.3500 25.5500 11.691 11.620 0.082
CS2MET_113 2017-09-28 04:00:00 113 17441.0 9.420 99.400 9.340 12.360 9.500 99.500 9.430 9.330 99.300 9.240 -10.3500 25.5500 11.810 11.746 0.071
CS2MET_113 2017-09-28 03:55:00 113 17441.0 9.510 99.600 9.460 12.360 9.550 99.800 9.530 9.460 99.500 9.400 -9.9900 25.5900 11.881 11.841 0.048
CS2MET_113 2017-09-28 03:50:00 113 17441.0 9.500 99.800 9.480 12.360 9.570 99.800 9.550 9.380 99.800 9.350 -9.9900 25.5900 11.873 11.857 0.024
CS2MET_113 2017-09-28 03:45:00 113 17441.0 9.390 99.700 9.360 12.360 9.450 99.800 9.420 9.310 99.700 9.270 -9.9900 25.5900 11.786 11.762 0.035
CS2MET_113 2017-09-28 03:40:00 113 17441.0 9.290 99.500 9.230 12.360 9.330 99.700 9.280 9.240 99.400 9.160 -9.9900 25.5900 11.707 11.659 0.059
CS2MET_113 2017-09-28 03:35:00 113 17441.0 9.300 99.500 9.220 12.360 9.480 99.700 9.440 9.190 99.300 9.100 -9.9900 25.5900 11.715 11.652 0.059
CS2MET_113 2017-09-28 03:30:00 113 17441.0 9.520 99.700 9.470 12.360 9.550 99.700 9.510 9.480 99.600 9.430 -9.9900 25.5900 11.889 11.849 0.036
CS2MET_113 2017-09-28 03:25:00 113 17441.0 9.540 99.700 9.500 12.360 9.600 99.800 9.570 9.500 99.600 9.450 -9.9900 25.5900 11.905 11.873 0.036
CS2MET_113 2017-09-28 03:20:00 113 17441.0 9.580 99.700 9.540 12.360 9.600 99.700 9.570 9.550 99.600 9.510 -9.9900 25.5900 11.937 11.905 0.036
CS2MET_113 2017-09-28 03:15:00 113 17441.0 9.570 99.700 9.520 12.360 9.620 99.700 9.580 9.530 99.600 9.490 -9.9900 25.5900 11.929 11.889 0.036
CS2MET_113 2017-09-28 03:10:00 113 17441.0 9.610 99.600 9.560 12.360 9.630 99.600 9.580 9.570 99.500 9.510 -9.9900 25.5900 11.962 11.921 0.048
CS2MET_113 2017-09-28 03:05:00 113 17441.0 9.620 99.400 9.550 12.360 9.670 99.500 9.590 9.600 99.400 9.520 -9.9900 25.5900 11.970 11.913 0.072
CS2MET_113 2017-09-28 03:00:00 113 17441.0 9.620 99.400 9.530 12.360 9.670 99.400 9.580 9.600 99.300 9.510 -9.9900 25.5900 11.970 11.897 0.072
CS2MET_113 2017-09-28 02:55:00 113 17441.0 9.730 99.500 9.660 12.360 9.800 99.500 9.730 9.630 99.400 9.540 -9.7200 25.7200 12.058 12.002 0.060
CS2MET_113 2017-09-28 02:50:00 113 17441.0 9.800 99.600 9.740 12.360 9.840 99.700 9.790 9.770 99.500 9.710 -9.7200 25.7200 12.115 12.066 0.048
CS2MET_113 2017-09-28 02:45:00 113 17441.0 9.790 99.700 9.750 12.360 9.820 99.800 9.790 9.750 99.600 9.710 -9.7200 25.7200 12.107 12.075 0.036
CS2MET_113 2017-09-28 02:40:00 113 17441.0 9.770 99.800 9.740 12.360 9.800 99.800 9.780 9.720 99.700 9.690 -9.7200 25.7200 12.091 12.066 0.024
CS2MET_113 2017-09-28 02:35:00 113 17441.0 9.730 99.800 9.710 12.360 9.770 99.800 9.750 9.680 99.700 9.650 -9.7200 25.7200 12.058 12.042 0.024
CS2MET_113 2017-09-28 02:30:00 113 17441.0 9.750 99.800 9.720 12.360 9.870 99.900 9.860 9.670 99.700 9.630 -9.7200 25.7200 12.075 12.050 0.024
CS2MET_113 2017-09-28 02:25:00 113 17441.0 9.860 99.800 9.850 12.360 9.910 99.900 9.900 9.800 99.800 9.790 -9.7200 25.7200 12.164 12.156 0.024
CS2MET_113 2017-09-28 02:20:00 113 17441.0 9.870 99.800 9.850 12.360 9.890 99.900 9.880 9.840 99.700 9.810 -9.7200 25.7200 12.172 12.156 0.024
CS2MET_113 2017-09-28 02:15:00 113 17441.0 9.810 99.600 9.760 12.360 9.870 99.700 9.840 9.770 99.500 9.700 -9.7200 25.7200 12.123 12.083 0.048
CS2MET_113 2017-09-28 02:10:00 113 17441.0 9.780 99.400 9.710 12.360 9.840 99.500 9.760 9.720 99.400 9.640 -9.7200 25.7200 12.099 12.042 0.073
CS2MET_113 2017-09-28 02:05:00 113 17441.0 9.870 99.500 9.800 12.360 9.940 99.600 9.890 9.840 99.400 9.760 -9.7200 25.7200 12.172 12.115 0.061
CS2MET_113 2017-09-28 02:00:00 113 17441.0 9.990 99.600 9.940 12.360 10.040 99.600 9.990 9.940 99.500 9.890 -9.7200 25.7200 12.271 12.229 0.049
CS2MET_113 2017-09-28 01:55:00 113 17441.0 10.020 99.600 9.970 12.360 10.080 99.700 10.030 9.970 99.600 9.930 -9.4100 25.8100 12.295 12.254 0.049
CS2MET_113 2017-09-28 01:50:00 113 17441.0 10.000 99.500 9.940 12.360 10.080 99.600 10.030 9.890 99.400 9.810 -9.4100 25.8100 12.279 12.229 0.061
CS2MET_113 2017-09-28 01:45:00 113 17441.0 9.980 99.300 9.890 12.360 10.060 99.400 9.970 9.910 99.200 9.820 -9.4100 25.8100 12.262 12.189 0.086
CS2MET_113 2017-09-28 01:40:00 113 17441.0 10.010 99.100 9.880 12.360 10.090 99.200 9.990 9.970 98.900 9.820 -9.4100 25.8100 12.287 12.180 0.111
CS2MET_113 2017-09-28 01:35:00 113 17441.0 10.160 99.200 10.050 12.360 10.350 99.500 10.290 10.040 99.000 9.900 -9.4100 25.8100 12.411 12.320 0.099
CS2MET_113 2017-09-28 01:30:00 113 17441.0 10.350 99.500 10.290 12.360 10.380 99.600 10.320 10.300 99.500 10.240 -9.4100 25.8100 12.570 12.519 0.063
CS2MET_113 2017-09-28 01:25:00 113 17441.0 10.290 99.600 10.240 12.360 10.350 99.600 10.300 10.210 99.500 10.160 -9.4100 25.8100 12.519 12.478 0.050
CS2MET_113 2017-09-28 01:20:00 113 17441.0 10.160 99.400 10.080 12.360 10.230 99.600 10.170 10.060 99.100 9.940 -9.4100 25.8100 12.411 12.345 0.074
CS2MET_113 2017-09-28 01:15:00 113 17441.0 10.080 99.000 9.940 12.360 10.180 99.200 10.070 10.040 98.900 9.890 -9.4100 25.8100 12.345 12.229 0.123
CS2MET_113 2017-09-28 01:10:00 113 17441.0 10.340 99.500 10.280 12.360 10.490 99.700 10.440 10.180 99.300 10.080 -9.4100 25.8100 12.561 12.511 0.063
CS2MET_113 2017-09-28 01:05:00 113 17441.0 10.370 99.500 10.310 12.360 10.420 99.600 10.350 10.320 99.500 10.250 -9.4100 25.8100 12.586 12.536 0.063
CS2MET_113 2017-09-28 01:00:00 113 17441.0 10.370 99.500 10.310 12.360 10.420 99.600 10.370 10.320 99.500 10.240 -9.4100 25.8100 12.586 12.536 0.063
CS2MET_113 2017-09-28 00:55:00 113 17441.0 10.350 99.400 10.270 12.360 10.400 99.500 10.330 10.280 99.300 10.180 -9.0300 26.0300 12.570 12.503 0.075
CS2MET_113 2017-09-28 00:50:00 113 17441.0 10.330 99.200 10.220 12.360 10.370 99.300 10.260 10.280 99.100 10.170 -9.0300 26.0300 12.553 12.461 0.100
CS2MET_113 2017-09-28 00:45:00 113 17441.0 10.370 99.000 10.230 12.360 10.400 99.200 10.270 10.350 98.800 10.180 -9.0300 26.0300 12.586 12.469 0.126
CS2MET_113 2017-09-28 00:40:00 113 17441.0 10.470 99.100 10.350 12.360 10.620 99.500 10.550 10.350 98.900 10.180 -9.0300 26.0300 12.671 12.570 0.114
CS2MET_113 2017-09-28 00:35:00 113 17441.0 10.650 99.500 10.590 12.360 10.690 99.600 10.640 10.600 99.500 10.540 -9.0300 26.0300 12.824 12.773 0.064
CS2MET_113 2017-09-28 00:30:00 113 17441.0 10.560 99.300 10.460 12.360 10.620 99.500 10.550 10.510 99.100 10.390 -9.0300 26.0300 12.747 12.662 0.089
CS2MET_113 2017-09-28 00:25:00 113 17441.0 10.490 98.800 10.330 12.360 10.550 99.100 10.380 10.450 98.700 10.270 -9.0300 26.0300 12.688 12.553 0.152
CS2MET_113 2017-09-28 00:20:00 113 17441.0 10.590 98.600 10.390 12.360 10.650 98.700 10.430 10.530 98.400 10.330 -9.0300 26.0300 12.773 12.603 0.179
CS2MET_113 2017-09-28 00:15:00 113 17441.0 10.720 98.400 10.490 12.360 10.850 98.600 10.640 10.610 98.200 10.350 -9.0300 26.0300 12.884 12.688 0.206
CS2MET_113 2017-09-28 00:10:00 113 17441.0 10.930 98.800 10.750 12.360 11.000 99.000 10.850 10.820 98.500 10.600 -9.0300 26.0300 13.065 12.910 0.157
CS2MET_113 2017-09-28 00:05:00 113 17441.0 10.950 98.900 10.790 12.360 11.020 99.000 10.860 10.880 98.800 10.720 -9.0300 26.0300 13.083 12.944 0.144
CS2MET_113 2017-09-28 00:00:00 113 17441.0 10.840 98.800 10.660 12.360 10.900 99.000 10.760 10.800 98.400 10.570 -9.0300 26.0300 12.987 12.832 0.156
CS2MET_113 2017-09-27 23:55:00 113 17441.0 10.850 98.100 10.570 12.360 10.930 98.400 10.620 10.780 97.900 10.530 -8.7300 26.3300 12.996 12.756 0.247
CS2MET_113 2017-09-27 23:50:00 113 17441.0 11.080 98.100 10.800 12.360 11.250 98.400 11.010 10.950 97.700 10.630 -8.7300 26.3300 13.196 12.953 0.251
CS2MET_113 2017-09-27 23:45:00 113 17441.0 11.250 98.300 10.990 12.360 11.310 98.400 11.040 11.190 98.100 10.930 -8.7300 26.3300 13.346 13.117 0.227
CS2MET_113 2017-09-27 23:40:00 113 17441.0 11.300 98.100 11.020 12.360 11.360 98.200 11.070 11.270 98.000 10.990 -8.7300 26.3300 13.390 13.144 0.254
CS2MET_113 2017-09-27 23:35:00 113 17441.0 11.290 98.300 11.050 12.360 11.340 98.600 11.100 11.270 98.100 11.010 -8.7300 26.3300 13.381 13.170 0.227
CS2MET_113 2017-09-27 23:30:00 113 17441.0 11.300 98.700 11.110 12.360 11.360 98.800 11.180 11.270 98.600 11.080 -8.7300 26.3300 13.390 13.222 0.174
CS2MET_113 2017-09-27 23:25:00 113 17441.0 11.290 98.500 11.080 12.360 11.340 98.700 11.150 11.220 98.300 10.960 -8.7300 26.3300 13.381 13.196 0.201
CS2MET_113 2017-09-27 23:20:00 113 17441.0 11.270 98.300 11.020 12.360 11.370 98.300 11.130 11.200 98.200 10.940 -8.7300 26.3300 13.364 13.144 0.227
CS2MET_113 2017-09-27 23:15:00 113 17441.0 11.290 98.100 11.020 12.360 11.340 98.300 11.080 11.240 98.000 10.950 -8.7300 26.3300 13.381 13.144 0.254
CS2MET_113 2017-09-27 23:10:00 113 17441.0 11.430 97.800 11.110 12.360 11.510 98.000 11.170 11.320 97.600 11.020 -8.7300 26.3300 13.506 13.222 0.297
CS2MET_113 2017-09-27 23:05:00 113 17441.0 11.630 97.400 11.240 12.360 11.820 97.600 11.430 11.530 97.100 11.140 -8.7300 26.3300 13.686 13.337 0.356
CS2MET_113 2017-09-27 23:00:00 113 17441.0 11.800 96.800 11.320 12.360 11.850 97.200 11.410 11.750 96.600 11.240 -8.7300 26.3300 13.841 13.408 0.443
CS2MET_113 2017-09-27 22:55:00 113 17441.0 11.800 96.700 11.310 12.360 11.830 96.900 11.360 11.760 96.600 11.260 -8.4500 26.8500 13.841 13.399 0.457
CS2MET_113 2017-09-27 22:50:00 113 17441.0 11.810 97.000 11.370 12.360 11.850 97.200 11.420 11.760 96.900 11.310 -8.4500 26.8500 13.850 13.452 0.415
CS2MET_113 2017-09-27 22:45:00 113 17441.0 11.840 97.000 11.390 12.360 11.880 97.100 11.450 11.800 96.900 11.340 -8.4500 26.8500 13.877 13.470 0.416
CS2MET_113 2017-09-27 22:40:00 113 17441.0 11.920 97.200 11.500 12.360 11.970 97.500 11.580 11.830 96.800 11.420 -8.4500 26.8500 13.951 13.569 0.391
CS2MET_113 2017-09-27 22:35:00 113 17441.0 11.980 96.900 11.510 12.360 12.020 97.000 11.570 11.940 96.700 11.450 -8.4500 26.8500 14.006 13.578 0.434
CS2MET_113 2017-09-27 22:30:00 113 17441.0 12.040 96.500 11.520 12.360 12.110 96.900 11.590 11.990 96.200 11.400 -8.4500 26.8500 14.062 13.587 0.492
CS2MET_113 2017-09-27 22:25:00 113 17441.0 12.080 96.300 11.510 12.360 12.110 96.500 11.550 12.040 96.100 11.460 -8.4500 26.8500 14.099 13.578 0.522
CS2MET_113 2017-09-27 22:20:00 113 17441.0 12.120 96.300 11.560 12.360 12.170 96.700 11.670 12.090 95.800 11.450 -8.4500 26.8500 14.136 13.623 0.523
CS2MET_113 2017-09-27 22:15:00 113 17441.0 12.150 96.500 11.630 12.360 12.190 96.800 11.700 12.110 96.200 11.550 -8.4500 26.8500 14.164 13.686 0.496
CS2MET_113 2017-09-27 22:10:00 113 17441.0 12.140 96.900 11.670 12.360 12.190 97.100 11.710 12.110 96.700 11.610 -8.4500 26.8500 14.154 13.722 0.439
CS2MET_113 2017-09-27 22:05:00 113 17441.0 12.120 97.100 11.680 12.360 12.170 97.600 11.800 12.090 96.700 11.630 -8.4500 26.8500 14.136 13.731 0.410
CS2MET_113 2017-09-27 22:00:00 113 17441.0 12.160 97.300 11.750 12.360 12.240 97.500 11.800 12.110 97.000 11.710 -8.4500 26.8500 14.173 13.795 0.383
CS2MET_113 2017-09-27 21:55:00 113 17441.0 12.360 96.700 11.860 12.360 12.480 96.900 11.960 12.240 96.400 11.770 -8.3400 27.5400 14.361 13.896 0.474
CS2MET_113 2017-09-27 21:50:00 113 17441.0 12.500 95.800 11.860 12.360 12.550 96.400 11.960 12.430 95.000 11.720 -8.3400 27.5400 14.494 13.896 0.609
CS2MET_113 2017-09-27 21:45:00 113 17441.0 12.520 95.000 11.750 12.360 12.550 95.900 11.900 12.460 94.500 11.640 -8.3400 27.5400 14.513 13.795 0.726
CS2MET_113 2017-09-27 21:40:00 113 17441.0 12.660 96.200 12.080 12.360 12.790 96.700 12.170 12.550 95.700 11.950 -8.3400 27.5400 14.647 14.099 0.557
CS2MET_113 2017-09-27 21:35:00 113 17441.0 12.790 95.300 12.060 12.360 12.820 95.700 12.120 12.750 94.900 11.990 -8.3400 27.5400 14.772 14.080 0.694
CS2MET_113 2017-09-27 21:30:00 113 17441.0 12.790 95.000 12.020 12.360 12.820 95.300 12.070 12.750 94.300 11.890 -8.3400 27.5400 14.772 14.043 0.739
CS2MET_113 2017-09-27 21:25:00 113 17441.0 12.850 95.100 12.090 12.360 12.940 95.700 12.290 12.790 94.700 11.980 -8.3400 27.5400 14.830 14.108 0.727
CS2MET_113 2017-09-27 21:20:00 113 17441.0 12.950 95.000 12.170 12.360 12.990 95.800 12.330 12.890 93.800 11.970 -8.3400 27.5400 14.928 14.182 0.746
CS2MET_113 2017-09-27 21:15:00 113 17441.0 13.030 95.000 12.260 12.360 13.060 95.300 12.330 12.990 94.800 12.220 -8.3400 27.5400 15.006 14.267 0.750
CS2MET_113 2017-09-27 21:10:00 113 17441.0 13.000 95.400 12.290 12.360 13.040 95.800 12.350 12.940 95.000 12.160 -8.3400 27.5400 14.976 14.295 0.689
CS2MET_113 2017-09-27 21:05:00 113 17441.0 13.020 96.500 12.480 12.360 13.080 97.100 12.640 12.980 95.800 12.350 -8.3400 27.5400 14.996 14.475 0.525
CS2MET_113 2017-09-27 21:00:00 113 17441.0 13.120 97.200 12.700 12.360 13.180 97.400 12.740 13.060 96.800 12.650 -8.3400 27.5400 15.094 14.685 0.423
CS2MET_113 2017-09-27 20:55:00 113 17441.0 13.150 96.800 12.670 12.360 13.200 97.000 12.750 13.110 96.600 12.600 -8.2700 28.2700 15.124 14.656 0.484
CS2MET_113 2017-09-27 20:50:00 113 17441.0 13.100 97.400 12.700 12.360 13.130 97.800 12.790 13.060 96.700 12.580 -8.2700 28.2700 15.075 14.685 0.392
CS2MET_113 2017-09-27 20:45:00 113 17441.0 13.160 97.600 12.800 12.360 13.270 97.800 12.930 13.060 97.500 12.690 -8.2700 28.2700 15.134 14.782 0.363
CS2MET_113 2017-09-27 20:40:00 113 17441.0 13.290 97.700 12.940 12.360 13.320 97.800 12.980 13.250 97.600 12.880 -8.2700 28.2700 15.263 14.918 0.351
CS2MET_113 2017-09-27 20:35:00 113 17441.0 13.360 97.700 13.010 12.360 13.450 97.800 13.070 13.280 97.400 12.950 -8.2700 28.2700 15.333 14.986 0.353
CS2MET_113 2017-09-27 20:30:00 113 17441.0 13.420 96.800 12.940 12.360 13.470 97.400 13.010 13.350 96.100 12.870 -8.2700 28.2700 15.393 14.918 0.493
CS2MET_113 2017-09-27 20:25:00 113 17441.0 13.700 95.900 13.080 12.360 13.880 96.000 13.270 13.490 95.800 12.860 -8.2700 28.2700 15.676 15.055 0.643
CS2MET_113 2017-09-27 20:20:00 113 17441.0 13.870 94.700 13.050 12.370 13.930 95.900 13.210 13.830 93.700 12.890 -8.2700 28.2700 15.850 15.025 0.840
CS2MET_113 2017-09-27 20:15:00 113 17441.0 13.910 93.800 12.930 12.360 13.960 94.500 13.110 13.860 92.700 12.700 -8.2700 28.2700 15.892 14.908 0.985
CS2MET_113 2017-09-27 20:10:00 113 17441.0 14.020 94.400 13.150 12.370 14.080 94.700 13.260 13.960 94.000 13.050 -8.2700 28.2700 16.005 15.124 0.896
CS2MET_113 2017-09-27 20:05:00 113 17441.0 14.120 94.800 13.300 12.370 14.150 95.000 13.340 14.070 94.600 13.250 -8.2700 28.2700 16.110 15.273 0.838
CS2MET_113 2017-09-27 20:00:00 113 17441.0 14.120 95.000 13.340 12.370 14.150 95.600 13.430 14.070 94.300 13.210 -8.2700 28.2700 16.110 15.313 0.805
CS2MET_113 2017-09-27 19:55:00 113 17441.0 14.100 96.100 13.500 12.370 14.150 96.300 13.550 14.070 95.800 13.420 -8.3300 29.3300 16.089 15.473 0.627
CS2MET_113 2017-09-27 19:50:00 113 17441.0 14.160 96.900 13.680 12.370 14.250 97.300 13.840 14.080 96.400 13.520 -8.3300 29.3300 16.151 15.656 0.501
CS2MET_113 2017-09-27 19:45:00 113 17441.0 14.300 96.900 13.830 12.370 14.360 97.200 13.880 14.240 96.400 13.740 -8.3300 29.3300 16.298 15.809 0.505
CS2MET_113 2017-09-27 19:40:00 113 17441.0 14.350 97.300 13.940 12.370 14.370 97.500 13.990 14.290 96.900 13.830 -8.3300 29.3300 16.351 15.923 0.441
CS2MET_113 2017-09-27 19:35:00 113 17441.0 14.370 97.300 13.960 12.370 14.420 97.400 13.990 14.340 97.100 13.910 -8.3300 29.3300 16.372 15.943 0.442
CS2MET_113 2017-09-27 19:30:00 113 17441.0 14.430 97.100 13.980 12.370 14.480 97.300 14.040 14.390 96.900 13.940 -8.3300 29.3300 16.436 15.964 0.477
CS2MET_113 2017-09-27 19:25:00 113 17441.0 14.440 97.100 13.990 12.360 14.510 97.200 14.050 14.410 96.900 13.960 -8.3300 29.3300 16.447 15.974 0.477
CS2MET_113 2017-09-27 19:20:00 113 17441.0 14.630 97.000 14.160 12.370 14.710 97.100 14.220 14.510 96.600 14.050 -8.3300 29.3300 16.650 16.151 0.499
CS2MET_113 2017-09-27 19:15:00 113 17441.0 14.750 96.600 14.230 12.370 14.850 96.700 14.330 14.680 96.400 14.160 -8.3300 29.3300 16.779 16.225 0.570
CS2MET_113 2017-09-27 19:10:00 113 17441.0 14.860 96.600 14.340 12.370 14.910 96.700 14.390 14.800 96.500 14.290 -8.3300 29.3300 16.899 16.341 0.575
CS2MET_113 2017-09-27 19:05:00 113 17441.0 14.940 96.300 14.380 12.370 15.010 96.500 14.420 14.880 96.100 14.320 -8.3300 29.3300 16.986 16.383 0.628
CS2MET_113 2017-09-27 19:00:00 113 17441.0 15.040 95.800 14.390 12.370 15.080 96.200 14.490 14.980 95.200 14.240 -8.3300 29.3300 17.096 16.394 0.718
CS2MET_113 2017-09-27 18:55:00 113 17441.0 15.130 96.100 14.530 12.360 15.180 96.400 14.570 15.070 96.000 14.480 -8.5900 31.3900 17.195 16.543 0.671
CS2MET_113 2017-09-27 18:50:00 113 17441.0 15.230 95.800 14.580 12.360 15.300 96.000 14.640 15.170 95.600 14.530 -8.5900 31.3900 17.306 16.596 0.727
CS2MET_113 2017-09-27 18:45:00 113 17441.0 15.340 95.500 14.630 12.360 15.370 95.700 14.660 15.300 95.200 14.580 -8.5900 31.3900 17.429 16.650 0.784
CS2MET_113 2017-09-27 18:40:00 113 17441.0 15.380 95.300 14.640 12.360 15.440 95.500 14.710 15.320 95.100 14.590 -8.5900 31.3900 17.474 16.661 0.821
CS2MET_113 2017-09-27 18:35:00 113 17441.0 15.540 95.100 14.760 12.360 15.640 95.300 14.830 15.420 94.400 14.680 -8.5900 31.3900 17.654 16.790 0.865
CS2MET_113 2017-09-27 18:30:00 113 17441.0 15.720 94.300 14.810 12.360 15.910 94.600 14.940 15.590 93.800 14.730 -8.5900 31.3900 17.859 16.844 1.018
CS2MET_113 2017-09-27 18:25:00 113 17441.0 16.050 93.400 14.990 12.360 16.200 93.700 15.090 15.900 92.900 14.890 -8.5900 31.3900 18.239 17.041 1.204
CS2MET_113 2017-09-27 18:20:00 113 17441.0 16.400 92.100 15.130 12.360 16.600 92.900 15.200 16.200 90.900 15.060 -8.5900 31.3900 18.651 17.195 1.473
CS2MET_113 2017-09-27 18:15:00 113 17441.0 16.730 89.400 14.990 12.360 16.820 90.800 15.170 16.610 88.200 14.840 -8.5900 31.3900 19.046 17.041 2.019
CS2MET_113 2017-09-27 18:10:00 113 17441.0 16.810 87.900 14.810 12.360 16.870 89.800 15.080 16.730 86.800 14.540 -8.5900 31.3900 19.143 16.844 2.316
CS2MET_113 2017-09-27 18:05:00 113 17441.0 16.890 89.500 15.160 12.360 17.010 90.600 15.310 16.730 87.900 14.930 -8.5900 31.3900 19.241 17.228 2.020
CS2MET_113 2017-09-27 18:00:00 113 17441.0 17.140 87.800 15.110 12.360 17.240 88.400 15.240 17.020 87.200 15.000 -8.5900 31.3900 19.548 17.173 2.385
CS2MET_113 2017-09-27 17:55:00 113 17441.0 17.220 87.500 15.130 12.360 17.280 88.500 15.340 17.140 86.300 14.910 -9.8700 35.8700 19.647 17.195 2.456
CS2MET_113 2017-09-27 17:50:00 113 17441.0 17.200 88.100 15.220 12.360 17.300 90.000 15.510 17.110 85.800 14.820 -9.8700 35.8700 19.622 17.295 2.335
CS2MET_113 2017-09-27 17:45:00 113 17441.0 17.200 89.300 15.440 12.360 17.260 89.800 15.550 17.140 88.200 15.260 -9.8700 35.8700 19.622 17.541 2.100
CS2MET_113 2017-09-27 17:40:00 113 17441.0 17.250 88.900 15.420 12.360 17.350 90.100 15.580 17.160 87.700 15.140 -9.8700 35.8700 19.684 17.518 2.185
CS2MET_113 2017-09-27 17:35:00 113 17441.0 17.330 88.700 15.450 12.360 17.430 89.400 15.570 17.280 87.600 15.240 -9.8700 35.8700 19.784 17.552 2.236
CS2MET_113 2017-09-27 17:30:00 113 17441.0 17.390 88.700 15.520 12.360 17.470 89.600 15.650 17.280 87.600 15.350 -9.8700 35.8700 19.859 17.631 2.244
CS2MET_113 2017-09-27 17:25:00 113 17441.0 17.450 87.900 15.450 12.360 17.500 88.400 15.560 17.400 87.400 15.290 -9.8700 35.8700 19.935 17.552 2.412
CS2MET_113 2017-09-27 17:20:00 113 17441.0 17.530 87.600 15.460 12.360 17.570 88.400 15.570 17.470 86.800 15.290 -9.8700 35.8700 20.036 17.563 2.484
CS2MET_113 2017-09-27 17:15:00 113 17441.0 17.590 86.900 15.400 12.360 17.650 87.800 15.520 17.530 86.200 15.290 -9.8700 35.8700 20.112 17.496 2.635
CS2MET_113 2017-09-27 17:10:00 113 17441.0 17.670 86.600 15.420 12.360 17.740 87.200 15.510 17.620 85.900 15.260 -9.8700 35.8700 20.213 17.518 2.709
CS2MET_113 2017-09-27 17:05:00 113 17441.0 17.790 85.200 15.290 12.360 17.840 85.800 15.440 17.700 84.700 15.170 -9.8700 35.8700 20.367 17.373 3.014
CS2MET_113 2017-09-27 17:00:00 113 17441.0 17.860 85.100 15.330 12.360 17.910 85.900 15.440 17.810 84.200 15.160 -9.8700 35.8700 20.457 17.418 3.048
CS2MET_113 2017-09-27 16:55:00 113 17441.0 17.850 85.400 15.390 12.360 17.910 85.800 15.460 17.810 84.600 15.280 -11.4000 41.2000 20.444 17.485 2.985
CS2MET_113 2017-09-27 16:50:00 113 17441.0 17.910 84.500 15.280 12.360 17.940 85.100 15.430 17.890 83.900 15.150 -11.4000 41.2000 20.521 17.362 3.181
CS2MET_113 2017-09-27 16:45:00 113 17441.0 17.920 84.400 15.270 12.360 17.980 85.100 15.410 17.840 83.900 15.180 -11.4000 41.2000 20.534 17.351 3.203
CS2MET_113 2017-09-27 16:40:00 113 17441.0 17.950 84.600 15.340 12.360 18.010 85.500 15.480 17.890 83.900 15.210 -11.4000 41.2000 20.573 17.429 3.168
CS2MET_113 2017-09-27 16:35:00 113 17441.0 18.000 84.200 15.320 12.360 18.100 85.000 15.410 17.910 83.500 15.200 -11.4000 41.2000 20.638 17.406 3.261
CS2MET_113 2017-09-27 16:30:00 113 17441.0 18.000 84.200 15.310 12.360 18.100 85.200 15.480 17.940 83.500 15.190 -11.4000 41.2000 20.638 17.395 3.261
CS2MET_113 2017-09-27 16:25:00 113 17441.0 17.960 83.700 15.180 12.360 18.010 84.400 15.320 17.930 82.900 15.020 -11.4000 41.2000 20.586 17.250 3.356
CS2MET_113 2017-09-27 16:20:00 113 17441.0 18.050 84.200 15.370 12.360 18.170 85.600 15.590 17.960 83.200 15.210 -11.4000 41.2000 20.703 17.462 3.271
CS2MET_113 2017-09-27 16:15:00 113 17441.0 18.140 82.400 15.120 12.360 18.200 83.300 15.300 18.100 81.700 14.980 -11.4000 41.2000 20.820 17.184 3.664
CS2MET_113 2017-09-27 16:10:00 113 17441.0 18.120 82.000 15.010 12.360 18.170 82.900 15.160 18.060 80.900 14.790 -11.4000 41.2000 20.794 17.063 3.743
CS2MET_113 2017-09-27 16:05:00 113 17441.0 18.100 82.900 15.170 12.360 18.130 83.700 15.290 18.050 82.000 15.020 -11.4000 41.2000 20.768 17.239 3.551